<?xml version="1.0" encoding="UTF-8"?>
<gpx xmlns="http://www.topografix.com/GPX/1/1" xmlns:gpsies="http://www.gpsies.com/GPX/1/0" creator="GPSies http://www.gpsies.com - WanderungAbWanderparkplatzHomberg" version="1.1" xmlns:xsi="http://www.w3.org/2001/XMLSchema-instance" xsi:schemaLocation="http://www.topografix.com/GPX/1/1 http://www.topografix.com/GPX/1/1/gpx.xsd http://www.gpsies.com/GPX/1/0 http://www.gpsies.com/gpsies.xsd">
  <metadata>
    <name>WanderungAbWanderparkplatzHomberg</name>
    <link href="http://www.gpsies.com/map.do?fileId=vznirnkkhzjvszzh">
      <text>WanderungAbWanderparkplatzHomberg on GPSies.com</text>
    </link>
    <time>2012-03-09T18:51:21Z</time>
    <extensions>
      <gpsies:property>round trip</gpsies:property>
      <gpsies:trackLengthMeter>9596.6422820186</gpsies:trackLengthMeter>
      <gpsies:totalAscentMeter>289.5</gpsies:totalAscentMeter>
      <gpsies:totalDescentMeter>291.0</gpsies:totalDescentMeter>
      <gpsies:minHeightMeter>71.3</gpsies:minHeightMeter>
      <gpsies:maxHeightMeter>311.3</gpsies:maxHeightMeter>
    </extensions>
  </metadata>
  <trk>
    <name>WanderungAbWanderparkplatzHomberg on GPSies.com</name>
    <link href="http://www.gpsies.com/map.do?fileId=vznirnkkhzjvszzh" />
    <trkseg>
      <trkpt lat="52.16412390" lon="9.114130110">
        <ele>108.80000</ele>
        <time>2012-03-09T18:51:21Z</time>
      </trkpt>
      <trkpt lat="52.16420540" lon="9.114086030">
        <ele>115.00000</ele>
        <time>2012-03-09T18:51:24Z</time>
      </trkpt>
      <trkpt lat="52.16424300" lon="9.114382860">
        <ele>114.00000</ele>
        <time>2012-03-09T18:51:32Z</time>
      </trkpt>
      <trkpt lat="52.16408180" lon="9.114735060">
        <ele>119.40000</ele>
        <time>2012-03-09T18:51:43Z</time>
      </trkpt>
      <trkpt lat="52.16402620" lon="9.115007110">
        <ele>120.40000</ele>
        <time>2012-03-09T18:51:50Z</time>
      </trkpt>
      <trkpt lat="52.16400000" lon="9.115234670">
        <ele>120.30000</ele>
        <time>2012-03-09T18:51:55Z</time>
      </trkpt>
      <trkpt lat="52.16402040" lon="9.115383190">
        <ele>121.10000</ele>
        <time>2012-03-09T18:51:59Z</time>
      </trkpt>
      <trkpt lat="52.16397630" lon="9.115575160">
        <ele>120.80000</ele>
        <time>2012-03-09T18:52:04Z</time>
      </trkpt>
      <trkpt lat="52.16395360" lon="9.115726890">
        <ele>121.80000</ele>
        <time>2012-03-09T18:52:08Z</time>
      </trkpt>
      <trkpt lat="52.16392900" lon="9.115929370">
        <ele>124.50000</ele>
        <time>2012-03-09T18:52:13Z</time>
      </trkpt>
      <trkpt lat="52.16384070" lon="9.116254150">
        <ele>123.50000</ele>
        <time>2012-03-09T18:52:22Z</time>
      </trkpt>
      <trkpt lat="52.16379210" lon="9.116356050">
        <ele>123.20000</ele>
        <time>2012-03-09T18:52:25Z</time>
      </trkpt>
      <trkpt lat="52.16389940" lon="9.116369000">
        <ele>121.10000</ele>
        <time>2012-03-09T18:52:29Z</time>
      </trkpt>
      <trkpt lat="52.16387940" lon="9.116567970">
        <ele>123.10000</ele>
        <time>2012-03-09T18:52:34Z</time>
      </trkpt>
      <trkpt lat="52.16385170" lon="9.116740990">
        <ele>120.20000</ele>
        <time>2012-03-09T18:52:39Z</time>
      </trkpt>
      <trkpt lat="52.16380570" lon="9.116889240">
        <ele>117.90000</ele>
        <time>2012-03-09T18:52:43Z</time>
      </trkpt>
      <trkpt lat="52.16375840" lon="9.116951680">
        <ele>119.40000</ele>
        <time>2012-03-09T18:52:45Z</time>
      </trkpt>
      <trkpt lat="52.16364140" lon="9.117153690">
        <ele>120.40000</ele>
        <time>2012-03-09T18:52:52Z</time>
      </trkpt>
      <trkpt lat="52.16356350" lon="9.117287540">
        <ele>120.90000</ele>
        <time>2012-03-09T18:52:57Z</time>
      </trkpt>
      <trkpt lat="52.16355310" lon="9.117326740">
        <ele>120.80000</ele>
        <time>2012-03-09T18:52:58Z</time>
      </trkpt>
      <trkpt lat="52.16351930" lon="9.117340040">
        <ele>122.10000</ele>
        <time>2012-03-09T18:52:59Z</time>
      </trkpt>
      <trkpt lat="52.16351910" lon="9.117340590">
        <ele>122.10000</ele>
        <time>2012-03-09T18:52:59Z</time>
      </trkpt>
      <trkpt lat="52.16338320" lon="9.117533230">
        <ele>120.20000</ele>
        <time>2012-03-09T18:53:06Z</time>
      </trkpt>
      <trkpt lat="52.16330760" lon="9.117753570">
        <ele>123.60000</ele>
        <time>2012-03-09T18:53:12Z</time>
      </trkpt>
      <trkpt lat="52.16325990" lon="9.117892890">
        <ele>126.50000</ele>
        <time>2012-03-09T18:53:16Z</time>
      </trkpt>
      <trkpt lat="52.16321310" lon="9.118584410">
        <ele>126.30000</ele>
        <time>2012-03-09T18:53:33Z</time>
      </trkpt>
      <trkpt lat="52.16335590" lon="9.118540500">
        <ele>119.10000</ele>
        <time>2012-03-09T18:53:39Z</time>
      </trkpt>
      <trkpt lat="52.16351330" lon="9.118558760">
        <ele>117.40000</ele>
        <time>2012-03-09T18:53:46Z</time>
      </trkpt>
      <trkpt lat="52.16360800" lon="9.118749820">
        <ele>110.20000</ele>
        <time>2012-03-09T18:53:52Z</time>
      </trkpt>
      <trkpt lat="52.16367850" lon="9.119000140">
        <ele>110.00000</ele>
        <time>2012-03-09T18:53:58Z</time>
      </trkpt>
      <trkpt lat="52.16376350" lon="9.119126810">
        <ele>114.70000</ele>
        <time>2012-03-09T18:54:03Z</time>
      </trkpt>
      <trkpt lat="52.16383380" lon="9.119352810">
        <ele>117.60000</ele>
        <time>2012-03-09T18:54:09Z</time>
      </trkpt>
      <trkpt lat="52.16390500" lon="9.119533330">
        <ele>122.00000</ele>
        <time>2012-03-09T18:54:14Z</time>
      </trkpt>
      <trkpt lat="52.16384000" lon="9.119863550">
        <ele>122.70000</ele>
        <time>2012-03-09T18:54:23Z</time>
      </trkpt>
      <trkpt lat="52.16377520" lon="9.120191070">
        <ele>125.80000</ele>
        <time>2012-03-09T18:54:31Z</time>
      </trkpt>
      <trkpt lat="52.16393720" lon="9.120173280">
        <ele>126.80000</ele>
        <time>2012-03-09T18:54:38Z</time>
      </trkpt>
      <trkpt lat="52.16385480" lon="9.120203840">
        <ele>127.20000</ele>
        <time>2012-03-09T18:54:41Z</time>
      </trkpt>
      <trkpt lat="52.16370620" lon="9.119990310">
        <ele>120.30000</ele>
        <time>2012-03-09T18:54:49Z</time>
      </trkpt>
      <trkpt lat="52.16353670" lon="9.119898870">
        <ele>116.80000</ele>
        <time>2012-03-09T18:54:56Z</time>
      </trkpt>
      <trkpt lat="52.16345790" lon="9.119711630">
        <ele>118.70000</ele>
        <time>2012-03-09T18:55:02Z</time>
      </trkpt>
      <trkpt lat="52.16360850" lon="9.119259240">
        <ele>119.40000</ele>
        <time>2012-03-09T18:55:15Z</time>
      </trkpt>
      <trkpt lat="52.16353280" lon="9.119325780">
        <ele>122.70000</ele>
        <time>2012-03-09T18:55:18Z</time>
      </trkpt>
      <trkpt lat="52.16315000" lon="9.119748710">
        <ele>129.70000</ele>
        <time>2012-03-09T18:55:37Z</time>
      </trkpt>
      <trkpt lat="52.16308240" lon="9.119657240">
        <ele>134.10000</ele>
        <time>2012-03-09T18:55:40Z</time>
      </trkpt>
      <trkpt lat="52.16287880" lon="9.119782320">
        <ele>142.20000</ele>
        <time>2012-03-09T18:55:49Z</time>
      </trkpt>
      <trkpt lat="52.16279310" lon="9.119679840">
        <ele>139.50000</ele>
        <time>2012-03-09T18:55:53Z</time>
      </trkpt>
      <trkpt lat="52.16266740" lon="9.119700800">
        <ele>140.80000</ele>
        <time>2012-03-09T18:55:58Z</time>
      </trkpt>
      <trkpt lat="52.16258760" lon="9.119779280">
        <ele>136.60000</ele>
        <time>2012-03-09T18:56:02Z</time>
      </trkpt>
      <trkpt lat="52.16263040" lon="9.119729890">
        <ele>132.50000</ele>
        <time>2012-03-09T18:56:04Z</time>
      </trkpt>
      <trkpt lat="52.16262070" lon="9.119676990">
        <ele>132.50000</ele>
        <time>2012-03-09T18:56:05Z</time>
      </trkpt>
      <trkpt lat="52.16242690" lon="9.119816390">
        <ele>128.00000</ele>
        <time>2012-03-09T18:56:14Z</time>
      </trkpt>
      <trkpt lat="52.16225640" lon="9.119945360">
        <ele>128.90000</ele>
        <time>2012-03-09T18:56:21Z</time>
      </trkpt>
      <trkpt lat="52.16218120" lon="9.120058780">
        <ele>133.20000</ele>
        <time>2012-03-09T18:56:25Z</time>
      </trkpt>
      <trkpt lat="52.16213000" lon="9.120109500">
        <ele>137.70000</ele>
        <time>2012-03-09T18:56:28Z</time>
      </trkpt>
      <trkpt lat="52.16211960" lon="9.120091800">
        <ele>136.90000</ele>
        <time>2012-03-09T18:56:28Z</time>
      </trkpt>
      <trkpt lat="52.16211880" lon="9.120090360">
        <ele>136.80000</ele>
        <time>2012-03-09T18:56:28Z</time>
      </trkpt>
      <trkpt lat="52.16210200" lon="9.120107070">
        <ele>138.70000</ele>
        <time>2012-03-09T18:56:29Z</time>
      </trkpt>
      <trkpt lat="52.16200760" lon="9.120226370">
        <ele>140.30000</ele>
        <time>2012-03-09T18:56:34Z</time>
      </trkpt>
      <trkpt lat="52.16200810" lon="9.120237020">
        <ele>140.10000</ele>
        <time>2012-03-09T18:56:34Z</time>
      </trkpt>
      <trkpt lat="52.16179890" lon="9.120449600">
        <ele>137.60000</ele>
        <time>2012-03-09T18:56:44Z</time>
      </trkpt>
      <trkpt lat="52.16163830" lon="9.120601010">
        <ele>136.10000</ele>
        <time>2012-03-09T18:56:52Z</time>
      </trkpt>
      <trkpt lat="52.16151690" lon="9.120708200">
        <ele>133.60000</ele>
        <time>2012-03-09T18:56:57Z</time>
      </trkpt>
      <trkpt lat="52.16151350" lon="9.120806440">
        <ele>144.40000</ele>
        <time>2012-03-09T18:56:59Z</time>
      </trkpt>
      <trkpt lat="52.16149380" lon="9.120809250">
        <ele>146.80000</ele>
        <time>2012-03-09T18:57:00Z</time>
      </trkpt>
      <trkpt lat="52.16148810" lon="9.120816830">
        <ele>147.00000</ele>
        <time>2012-03-09T18:57:01Z</time>
      </trkpt>
      <trkpt lat="52.16126820" lon="9.120991760">
        <ele>148.70000</ele>
        <time>2012-03-09T18:57:10Z</time>
      </trkpt>
      <trkpt lat="52.16111340" lon="9.121142810">
        <ele>154.00000</ele>
        <time>2012-03-09T18:57:18Z</time>
      </trkpt>
      <trkpt lat="52.16109310" lon="9.121133380">
        <ele>153.20000</ele>
        <time>2012-03-09T18:57:18Z</time>
      </trkpt>
      <trkpt lat="52.16106040" lon="9.121154590">
        <ele>156.30000</ele>
        <time>2012-03-09T18:57:20Z</time>
      </trkpt>
      <trkpt lat="52.16094460" lon="9.121191130">
        <ele>155.70000</ele>
        <time>2012-03-09T18:57:25Z</time>
      </trkpt>
      <trkpt lat="52.16084630" lon="9.121285360">
        <ele>155.30000</ele>
        <time>2012-03-09T18:57:29Z</time>
      </trkpt>
      <trkpt lat="52.16083950" lon="9.121313860">
        <ele>155.30000</ele>
        <time>2012-03-09T18:57:30Z</time>
      </trkpt>
      <trkpt lat="52.16084070" lon="9.121309850">
        <ele>155.30000</ele>
        <time>2012-03-09T18:57:30Z</time>
      </trkpt>
      <trkpt lat="52.16084140" lon="9.121307960">
        <ele>155.20000</ele>
        <time>2012-03-09T18:57:30Z</time>
      </trkpt>
      <trkpt lat="52.16071330" lon="9.121387540">
        <ele>153.70000</ele>
        <time>2012-03-09T18:57:35Z</time>
      </trkpt>
      <trkpt lat="52.16065650" lon="9.121459320">
        <ele>155.80000</ele>
        <time>2012-03-09T18:57:38Z</time>
      </trkpt>
      <trkpt lat="52.16059420" lon="9.121538650">
        <ele>156.90000</ele>
        <time>2012-03-09T18:57:42Z</time>
      </trkpt>
      <trkpt lat="52.16047150" lon="9.121609840">
        <ele>158.50000</ele>
        <time>2012-03-09T18:57:47Z</time>
      </trkpt>
      <trkpt lat="52.16029900" lon="9.121751770">
        <ele>161.20000</ele>
        <time>2012-03-09T18:57:54Z</time>
      </trkpt>
      <trkpt lat="52.16014120" lon="9.121758590">
        <ele>159.10000</ele>
        <time>2012-03-09T18:58:01Z</time>
      </trkpt>
      <trkpt lat="52.16011840" lon="9.121733940">
        <ele>157.50000</ele>
        <time>2012-03-09T18:58:02Z</time>
      </trkpt>
      <trkpt lat="52.16006510" lon="9.121868350">
        <ele>161.90000</ele>
        <time>2012-03-09T18:58:06Z</time>
      </trkpt>
      <trkpt lat="52.15989410" lon="9.122166350">
        <ele>166.90000</ele>
        <time>2012-03-09T18:58:16Z</time>
      </trkpt>
      <trkpt lat="52.15988910" lon="9.122283910">
        <ele>166.70000</ele>
        <time>2012-03-09T18:58:19Z</time>
      </trkpt>
      <trkpt lat="52.15988780" lon="9.122292150">
        <ele>167.30000</ele>
        <time>2012-03-09T18:58:19Z</time>
      </trkpt>
      <trkpt lat="52.15988790" lon="9.122289540">
        <ele>167.40000</ele>
        <time>2012-03-09T18:58:19Z</time>
      </trkpt>
      <trkpt lat="52.15988840" lon="9.122285920">
        <ele>167.40000</ele>
        <time>2012-03-09T18:58:19Z</time>
      </trkpt>
      <trkpt lat="52.15989120" lon="9.122283010">
        <ele>167.40000</ele>
        <time>2012-03-09T18:58:19Z</time>
      </trkpt>
      <trkpt lat="52.15989350" lon="9.122279890">
        <ele>167.40000</ele>
        <time>2012-03-09T18:58:19Z</time>
      </trkpt>
      <trkpt lat="52.16018220" lon="9.122360640">
        <ele>204.40000</ele>
        <time>2012-03-09T18:58:31Z</time>
      </trkpt>
      <trkpt lat="52.15999710" lon="9.122409250">
        <ele>184.20000</ele>
        <time>2012-03-09T18:58:39Z</time>
      </trkpt>
      <trkpt lat="52.15992750" lon="9.122619990">
        <ele>174.30000</ele>
        <time>2012-03-09T18:58:44Z</time>
      </trkpt>
      <trkpt lat="52.15997570" lon="9.122786750">
        <ele>176.20000</ele>
        <time>2012-03-09T18:58:49Z</time>
      </trkpt>
      <trkpt lat="52.16001290" lon="9.122983180">
        <ele>174.70000</ele>
        <time>2012-03-09T18:58:54Z</time>
      </trkpt>
      <trkpt lat="52.16000410" lon="9.123178180">
        <ele>175.50000</ele>
        <time>2012-03-09T18:58:59Z</time>
      </trkpt>
      <trkpt lat="52.15990730" lon="9.123312910">
        <ele>175.50000</ele>
        <time>2012-03-09T18:59:04Z</time>
      </trkpt>
      <trkpt lat="52.15995980" lon="9.123246470">
        <ele>177.40000</ele>
        <time>2012-03-09T18:59:07Z</time>
      </trkpt>
      <trkpt lat="52.15990280" lon="9.123500560">
        <ele>178.70000</ele>
        <time>2012-03-09T18:59:13Z</time>
      </trkpt>
      <trkpt lat="52.15980850" lon="9.123799990">
        <ele>179.10000</ele>
        <time>2012-03-09T18:59:22Z</time>
      </trkpt>
      <trkpt lat="52.15980410" lon="9.123996580">
        <ele>183.00000</ele>
        <time>2012-03-09T18:59:26Z</time>
      </trkpt>
      <trkpt lat="52.15983110" lon="9.124131350">
        <ele>191.30000</ele>
        <time>2012-03-09T18:59:30Z</time>
      </trkpt>
      <trkpt lat="52.15978250" lon="9.124277280">
        <ele>188.50000</ele>
        <time>2012-03-09T18:59:34Z</time>
      </trkpt>
      <trkpt lat="52.15973190" lon="9.124488260">
        <ele>189.70000</ele>
        <time>2012-03-09T18:59:39Z</time>
      </trkpt>
      <trkpt lat="52.15971910" lon="9.124643480">
        <ele>192.20000</ele>
        <time>2012-03-09T18:59:43Z</time>
      </trkpt>
      <trkpt lat="52.15963580" lon="9.124791680">
        <ele>190.80000</ele>
        <time>2012-03-09T18:59:48Z</time>
      </trkpt>
      <trkpt lat="52.15953630" lon="9.124937320">
        <ele>188.00000</ele>
        <time>2012-03-09T18:59:54Z</time>
      </trkpt>
      <trkpt lat="52.15950140" lon="9.124992000">
        <ele>189.40000</ele>
        <time>2012-03-09T18:59:56Z</time>
      </trkpt>
      <trkpt lat="52.15934340" lon="9.125169920">
        <ele>189.40000</ele>
        <time>2012-03-09T19:00:03Z</time>
      </trkpt>
      <trkpt lat="52.15934470" lon="9.125193060">
        <ele>190.00000</ele>
        <time>2012-03-09T19:00:04Z</time>
      </trkpt>
      <trkpt lat="52.15932500" lon="9.125260720">
        <ele>191.10000</ele>
        <time>2012-03-09T19:00:06Z</time>
      </trkpt>
      <trkpt lat="52.15922600" lon="9.125339660">
        <ele>190.50000</ele>
        <time>2012-03-09T19:00:10Z</time>
      </trkpt>
      <trkpt lat="52.15916520" lon="9.125511890">
        <ele>190.10000</ele>
        <time>2012-03-09T19:00:15Z</time>
      </trkpt>
      <trkpt lat="52.15906180" lon="9.125760030">
        <ele>190.30000</ele>
        <time>2012-03-09T19:00:22Z</time>
      </trkpt>
      <trkpt lat="52.15898590" lon="9.125958520">
        <ele>197.10000</ele>
        <time>2012-03-09T19:00:28Z</time>
      </trkpt>
      <trkpt lat="52.15893040" lon="9.126104980">
        <ele>202.70000</ele>
        <time>2012-03-09T19:00:32Z</time>
      </trkpt>
      <trkpt lat="52.15886170" lon="9.126278990">
        <ele>204.80000</ele>
        <time>2012-03-09T19:00:37Z</time>
      </trkpt>
      <trkpt lat="52.15883810" lon="9.126426230">
        <ele>205.20000</ele>
        <time>2012-03-09T19:00:41Z</time>
      </trkpt>
      <trkpt lat="52.15878290" lon="9.126652830">
        <ele>204.90000</ele>
        <time>2012-03-09T19:00:47Z</time>
      </trkpt>
      <trkpt lat="52.15879070" lon="9.126818200">
        <ele>208.60000</ele>
        <time>2012-03-09T19:00:51Z</time>
      </trkpt>
      <trkpt lat="52.15874460" lon="9.126895150">
        <ele>205.70000</ele>
        <time>2012-03-09T19:00:54Z</time>
      </trkpt>
      <trkpt lat="52.15872050" lon="9.127143360">
        <ele>204.50000</ele>
        <time>2012-03-09T19:01:00Z</time>
      </trkpt>
      <trkpt lat="52.15868300" lon="9.127362640">
        <ele>203.90000</ele>
        <time>2012-03-09T19:01:06Z</time>
      </trkpt>
      <trkpt lat="52.15864020" lon="9.127560390">
        <ele>203.40000</ele>
        <time>2012-03-09T19:01:11Z</time>
      </trkpt>
      <trkpt lat="52.15860980" lon="9.127710270">
        <ele>204.60000</ele>
        <time>2012-03-09T19:01:15Z</time>
      </trkpt>
      <trkpt lat="52.15865720" lon="9.127863690">
        <ele>207.30000</ele>
        <time>2012-03-09T19:01:19Z</time>
      </trkpt>
      <trkpt lat="52.15863070" lon="9.127929910">
        <ele>208.00000</ele>
        <time>2012-03-09T19:01:21Z</time>
      </trkpt>
      <trkpt lat="52.15863530" lon="9.127920100">
        <ele>208.10000</ele>
        <time>2012-03-09T19:01:21Z</time>
      </trkpt>
      <trkpt lat="52.15861980" lon="9.127886050">
        <ele>208.20000</ele>
        <time>2012-03-09T19:01:22Z</time>
      </trkpt>
      <trkpt lat="52.15861190" lon="9.127834410">
        <ele>208.80000</ele>
        <time>2012-03-09T19:01:23Z</time>
      </trkpt>
      <trkpt lat="52.15860820" lon="9.127836230">
        <ele>208.30000</ele>
        <time>2012-03-09T19:01:24Z</time>
      </trkpt>
      <trkpt lat="52.15860810" lon="9.127843110">
        <ele>208.40000</ele>
        <time>2012-03-09T19:01:24Z</time>
      </trkpt>
      <trkpt lat="52.15862730" lon="9.127843520">
        <ele>207.90000</ele>
        <time>2012-03-09T19:01:24Z</time>
      </trkpt>
      <trkpt lat="52.15858840" lon="9.128015400">
        <ele>204.60000</ele>
        <time>2012-03-09T19:01:29Z</time>
      </trkpt>
      <trkpt lat="52.15857980" lon="9.128185570">
        <ele>200.90000</ele>
        <time>2012-03-09T19:01:33Z</time>
      </trkpt>
      <trkpt lat="52.15856520" lon="9.128377320">
        <ele>200.20000</ele>
        <time>2012-03-09T19:01:38Z</time>
      </trkpt>
      <trkpt lat="52.15858670" lon="9.128557880">
        <ele>201.70000</ele>
        <time>2012-03-09T19:01:42Z</time>
      </trkpt>
      <trkpt lat="52.15857380" lon="9.128753110">
        <ele>207.80000</ele>
        <time>2012-03-09T19:01:47Z</time>
      </trkpt>
      <trkpt lat="52.15860190" lon="9.129009160">
        <ele>207.10000</ele>
        <time>2012-03-09T19:01:54Z</time>
      </trkpt>
      <trkpt lat="52.15856490" lon="9.129049290">
        <ele>204.60000</ele>
        <time>2012-03-09T19:01:55Z</time>
      </trkpt>
      <trkpt lat="52.15855810" lon="9.129028150">
        <ele>203.70000</ele>
        <time>2012-03-09T19:01:56Z</time>
      </trkpt>
      <trkpt lat="52.15855800" lon="9.129028000">
        <ele>203.70000</ele>
        <time>2012-03-09T19:01:56Z</time>
      </trkpt>
      <trkpt lat="52.15855780" lon="9.129028010">
        <ele>203.70000</ele>
        <time>2012-03-09T19:01:56Z</time>
      </trkpt>
      <trkpt lat="52.15861380" lon="9.129011570">
        <ele>211.80000</ele>
        <time>2012-03-09T19:01:58Z</time>
      </trkpt>
      <trkpt lat="52.15862310" lon="9.129014150">
        <ele>213.90000</ele>
        <time>2012-03-09T19:01:59Z</time>
      </trkpt>
      <trkpt lat="52.15862300" lon="9.129014130">
        <ele>213.90000</ele>
        <time>2012-03-09T19:01:59Z</time>
      </trkpt>
      <trkpt lat="52.15862290" lon="9.129013560">
        <ele>213.80000</ele>
        <time>2012-03-09T19:01:59Z</time>
      </trkpt>
      <trkpt lat="52.15861960" lon="9.128981750">
        <ele>213.60000</ele>
        <time>2012-03-09T19:01:59Z</time>
      </trkpt>
      <trkpt lat="52.15862890" lon="9.128966110">
        <ele>214.80000</ele>
        <time>2012-03-09T19:02:00Z</time>
      </trkpt>
      <trkpt lat="52.15862860" lon="9.128965450">
        <ele>214.80000</ele>
        <time>2012-03-09T19:02:00Z</time>
      </trkpt>
      <trkpt lat="52.15862800" lon="9.128965520">
        <ele>214.70000</ele>
        <time>2012-03-09T19:02:00Z</time>
      </trkpt>
      <trkpt lat="52.15862590" lon="9.128963860">
        <ele>214.40000</ele>
        <time>2012-03-09T19:02:00Z</time>
      </trkpt>
      <trkpt lat="52.15862490" lon="9.128963410">
        <ele>214.20000</ele>
        <time>2012-03-09T19:02:00Z</time>
      </trkpt>
      <trkpt lat="52.15863920" lon="9.129060110">
        <ele>215.70000</ele>
        <time>2012-03-09T19:02:03Z</time>
      </trkpt>
      <trkpt lat="52.15864090" lon="9.129329910">
        <ele>216.20000</ele>
        <time>2012-03-09T19:02:09Z</time>
      </trkpt>
      <trkpt lat="52.15865910" lon="9.129556150">
        <ele>222.50000</ele>
        <time>2012-03-09T19:02:15Z</time>
      </trkpt>
      <trkpt lat="52.15869920" lon="9.129804060">
        <ele>226.10000</ele>
        <time>2012-03-09T19:02:21Z</time>
      </trkpt>
      <trkpt lat="52.15863710" lon="9.130033090">
        <ele>223.20000</ele>
        <time>2012-03-09T19:02:27Z</time>
      </trkpt>
      <trkpt lat="52.15864820" lon="9.130186520">
        <ele>223.10000</ele>
        <time>2012-03-09T19:02:31Z</time>
      </trkpt>
      <trkpt lat="52.15864660" lon="9.130312810">
        <ele>225.00000</ele>
        <time>2012-03-09T19:02:34Z</time>
      </trkpt>
      <trkpt lat="52.15861670" lon="9.130584820">
        <ele>220.00000</ele>
        <time>2012-03-09T19:02:41Z</time>
      </trkpt>
      <trkpt lat="52.15867200" lon="9.130802940">
        <ele>226.30000</ele>
        <time>2012-03-09T19:02:47Z</time>
      </trkpt>
      <trkpt lat="52.15873060" lon="9.130925680">
        <ele>227.10000</ele>
        <time>2012-03-09T19:02:51Z</time>
      </trkpt>
      <trkpt lat="52.15867250" lon="9.130909310">
        <ele>224.30000</ele>
        <time>2012-03-09T19:02:53Z</time>
      </trkpt>
      <trkpt lat="52.15868260" lon="9.130938400">
        <ele>226.80000</ele>
        <time>2012-03-09T19:02:54Z</time>
      </trkpt>
      <trkpt lat="52.15870350" lon="9.130879930">
        <ele>226.00000</ele>
        <time>2012-03-09T19:02:55Z</time>
      </trkpt>
      <trkpt lat="52.15872950" lon="9.130872670">
        <ele>227.40000</ele>
        <time>2012-03-09T19:02:56Z</time>
      </trkpt>
      <trkpt lat="52.15872990" lon="9.130872730">
        <ele>227.40000</ele>
        <time>2012-03-09T19:02:56Z</time>
      </trkpt>
      <trkpt lat="52.15889370" lon="9.131020050">
        <ele>229.40000</ele>
        <time>2012-03-09T19:03:04Z</time>
      </trkpt>
      <trkpt lat="52.15898390" lon="9.131105090">
        <ele>232.40000</ele>
        <time>2012-03-09T19:03:08Z</time>
      </trkpt>
      <trkpt lat="52.15914300" lon="9.131279590">
        <ele>234.20000</ele>
        <time>2012-03-09T19:03:16Z</time>
      </trkpt>
      <trkpt lat="52.15927530" lon="9.131379640">
        <ele>236.30000</ele>
        <time>2012-03-09T19:03:22Z</time>
      </trkpt>
      <trkpt lat="52.15931660" lon="9.131474890">
        <ele>235.90000</ele>
        <time>2012-03-09T19:03:25Z</time>
      </trkpt>
      <trkpt lat="52.15937850" lon="9.131559480">
        <ele>233.50000</ele>
        <time>2012-03-09T19:03:28Z</time>
      </trkpt>
      <trkpt lat="52.15957250" lon="9.131720770">
        <ele>234.70000</ele>
        <time>2012-03-09T19:03:36Z</time>
      </trkpt>
      <trkpt lat="52.15971960" lon="9.131843150">
        <ele>231.10000</ele>
        <time>2012-03-09T19:03:43Z</time>
      </trkpt>
      <trkpt lat="52.15981910" lon="9.131934750">
        <ele>230.30000</ele>
        <time>2012-03-09T19:03:48Z</time>
      </trkpt>
      <trkpt lat="52.15993320" lon="9.131989920">
        <ele>230.10000</ele>
        <time>2012-03-09T19:03:52Z</time>
      </trkpt>
      <trkpt lat="52.15998470" lon="9.132120840">
        <ele>228.80000</ele>
        <time>2012-03-09T19:03:56Z</time>
      </trkpt>
      <trkpt lat="52.16009110" lon="9.132191690">
        <ele>225.80000</ele>
        <time>2012-03-09T19:04:01Z</time>
      </trkpt>
      <trkpt lat="52.16013130" lon="9.132230800">
        <ele>223.40000</ele>
        <time>2012-03-09T19:04:03Z</time>
      </trkpt>
      <trkpt lat="52.16021050" lon="9.132205110">
        <ele>223.40000</ele>
        <time>2012-03-09T19:04:06Z</time>
      </trkpt>
      <trkpt lat="52.16031050" lon="9.132438640">
        <ele>218.80000</ele>
        <time>2012-03-09T19:04:13Z</time>
      </trkpt>
      <trkpt lat="52.16036440" lon="9.132682460">
        <ele>218.10000</ele>
        <time>2012-03-09T19:04:19Z</time>
      </trkpt>
      <trkpt lat="52.16043490" lon="9.132846410">
        <ele>220.90000</ele>
        <time>2012-03-09T19:04:24Z</time>
      </trkpt>
      <trkpt lat="52.16048410" lon="9.132979350">
        <ele>218.40000</ele>
        <time>2012-03-09T19:04:28Z</time>
      </trkpt>
      <trkpt lat="52.16053350" lon="9.133153230">
        <ele>220.60000</ele>
        <time>2012-03-09T19:04:33Z</time>
      </trkpt>
      <trkpt lat="52.16055890" lon="9.133321680">
        <ele>215.10000</ele>
        <time>2012-03-09T19:04:37Z</time>
      </trkpt>
      <trkpt lat="52.16059310" lon="9.133427920">
        <ele>215.20000</ele>
        <time>2012-03-09T19:04:40Z</time>
      </trkpt>
      <trkpt lat="52.16067510" lon="9.133565290">
        <ele>219.50000</ele>
        <time>2012-03-09T19:04:45Z</time>
      </trkpt>
      <trkpt lat="52.16076890" lon="9.133629190">
        <ele>220.00000</ele>
        <time>2012-03-09T19:04:49Z</time>
      </trkpt>
      <trkpt lat="52.16097100" lon="9.133627680">
        <ele>219.80000</ele>
        <time>2012-03-09T19:04:57Z</time>
      </trkpt>
      <trkpt lat="52.16108250" lon="9.133658260">
        <ele>219.30000</ele>
        <time>2012-03-09T19:05:01Z</time>
      </trkpt>
      <trkpt lat="52.16120770" lon="9.133650670">
        <ele>220.40000</ele>
        <time>2012-03-09T19:05:06Z</time>
      </trkpt>
      <trkpt lat="52.16135100" lon="9.133645530">
        <ele>219.30000</ele>
        <time>2012-03-09T19:05:12Z</time>
      </trkpt>
      <trkpt lat="52.16140360" lon="9.133664510">
        <ele>217.30000</ele>
        <time>2012-03-09T19:05:14Z</time>
      </trkpt>
      <trkpt lat="52.16155190" lon="9.133707220">
        <ele>218.10000</ele>
        <time>2012-03-09T19:05:20Z</time>
      </trkpt>
      <trkpt lat="52.16162830" lon="9.133941760">
        <ele>212.80000</ele>
        <time>2012-03-09T19:05:27Z</time>
      </trkpt>
      <trkpt lat="52.16154930" lon="9.134091440">
        <ele>210.20000</ele>
        <time>2012-03-09T19:05:32Z</time>
      </trkpt>
      <trkpt lat="52.16151210" lon="9.134175950">
        <ele>208.40000</ele>
        <time>2012-03-09T19:05:34Z</time>
      </trkpt>
      <trkpt lat="52.16143540" lon="9.134318560">
        <ele>211.00000</ele>
        <time>2012-03-09T19:05:39Z</time>
      </trkpt>
      <trkpt lat="52.16134450" lon="9.134581110">
        <ele>210.70000</ele>
        <time>2012-03-09T19:05:46Z</time>
      </trkpt>
      <trkpt lat="52.16127460" lon="9.134777470">
        <ele>217.50000</ele>
        <time>2012-03-09T19:05:52Z</time>
      </trkpt>
      <trkpt lat="52.16120310" lon="9.135029410">
        <ele>217.30000</ele>
        <time>2012-03-09T19:05:59Z</time>
      </trkpt>
      <trkpt lat="52.16116380" lon="9.135087430">
        <ele>219.60000</ele>
        <time>2012-03-09T19:06:01Z</time>
      </trkpt>
      <trkpt lat="52.16113440" lon="9.135098930">
        <ele>218.50000</ele>
        <time>2012-03-09T19:06:02Z</time>
      </trkpt>
      <trkpt lat="52.16122900" lon="9.135276400">
        <ele>222.00000</ele>
        <time>2012-03-09T19:06:08Z</time>
      </trkpt>
      <trkpt lat="52.16130120" lon="9.135395710">
        <ele>224.70000</ele>
        <time>2012-03-09T19:06:12Z</time>
      </trkpt>
      <trkpt lat="52.16141200" lon="9.135537430">
        <ele>226.80000</ele>
        <time>2012-03-09T19:06:18Z</time>
      </trkpt>
      <trkpt lat="52.16148680" lon="9.135697130">
        <ele>225.80000</ele>
        <time>2012-03-09T19:06:22Z</time>
      </trkpt>
      <trkpt lat="52.16156570" lon="9.135811530">
        <ele>226.40000</ele>
        <time>2012-03-09T19:06:27Z</time>
      </trkpt>
      <trkpt lat="52.16162940" lon="9.136007150">
        <ele>217.30000</ele>
        <time>2012-03-09T19:06:32Z</time>
      </trkpt>
      <trkpt lat="52.16167160" lon="9.136158350">
        <ele>214.70000</ele>
        <time>2012-03-09T19:06:36Z</time>
      </trkpt>
      <trkpt lat="52.16158940" lon="9.136186980">
        <ele>217.10000</ele>
        <time>2012-03-09T19:06:40Z</time>
      </trkpt>
      <trkpt lat="52.16157990" lon="9.136189440">
        <ele>212.60000</ele>
        <time>2012-03-09T19:06:40Z</time>
      </trkpt>
      <trkpt lat="52.16155790" lon="9.136187140">
        <ele>211.50000</ele>
        <time>2012-03-09T19:06:41Z</time>
      </trkpt>
      <trkpt lat="52.16159920" lon="9.136176500">
        <ele>213.00000</ele>
        <time>2012-03-09T19:06:42Z</time>
      </trkpt>
      <trkpt lat="52.16159600" lon="9.136179780">
        <ele>213.40000</ele>
        <time>2012-03-09T19:06:43Z</time>
      </trkpt>
      <trkpt lat="52.16159790" lon="9.136179430">
        <ele>213.50000</ele>
        <time>2012-03-09T19:06:43Z</time>
      </trkpt>
      <trkpt lat="52.16159900" lon="9.136179160">
        <ele>213.60000</ele>
        <time>2012-03-09T19:06:43Z</time>
      </trkpt>
      <trkpt lat="52.16160040" lon="9.136179220">
        <ele>213.70000</ele>
        <time>2012-03-09T19:06:43Z</time>
      </trkpt>
      <trkpt lat="52.16171830" lon="9.136328500">
        <ele>214.40000</ele>
        <time>2012-03-09T19:06:49Z</time>
      </trkpt>
      <trkpt lat="52.16181580" lon="9.136504780">
        <ele>214.10000</ele>
        <time>2012-03-09T19:06:55Z</time>
      </trkpt>
      <trkpt lat="52.16180020" lon="9.136673200">
        <ele>207.50000</ele>
        <time>2012-03-09T19:06:59Z</time>
      </trkpt>
      <trkpt lat="52.16187730" lon="9.136912010">
        <ele>215.30000</ele>
        <time>2012-03-09T19:07:05Z</time>
      </trkpt>
      <trkpt lat="52.16185380" lon="9.137122990">
        <ele>217.70000</ele>
        <time>2012-03-09T19:07:11Z</time>
      </trkpt>
      <trkpt lat="52.16179660" lon="9.137382480">
        <ele>222.60000</ele>
        <time>2012-03-09T19:07:17Z</time>
      </trkpt>
      <trkpt lat="52.16176990" lon="9.137543410">
        <ele>224.20000</ele>
        <time>2012-03-09T19:07:22Z</time>
      </trkpt>
      <trkpt lat="52.16180450" lon="9.137738360">
        <ele>226.10000</ele>
        <time>2012-03-09T19:07:27Z</time>
      </trkpt>
      <trkpt lat="52.16177860" lon="9.138032570">
        <ele>225.40000</ele>
        <time>2012-03-09T19:07:34Z</time>
      </trkpt>
      <trkpt lat="52.16184500" lon="9.137847180">
        <ele>223.10000</ele>
        <time>2012-03-09T19:07:39Z</time>
      </trkpt>
      <trkpt lat="52.16181660" lon="9.138079160">
        <ele>219.40000</ele>
        <time>2012-03-09T19:07:45Z</time>
      </trkpt>
      <trkpt lat="52.16176530" lon="9.138260700">
        <ele>218.60000</ele>
        <time>2012-03-09T19:07:50Z</time>
      </trkpt>
      <trkpt lat="52.16174230" lon="9.138324740">
        <ele>217.10000</ele>
        <time>2012-03-09T19:07:52Z</time>
      </trkpt>
      <trkpt lat="52.16160340" lon="9.138585140">
        <ele>216.00000</ele>
        <time>2012-03-09T19:08:00Z</time>
      </trkpt>
      <trkpt lat="52.16161670" lon="9.138612420">
        <ele>217.30000</ele>
        <time>2012-03-09T19:08:01Z</time>
      </trkpt>
      <trkpt lat="52.16162040" lon="9.139017090">
        <ele>222.00000</ele>
        <time>2012-03-09T19:08:11Z</time>
      </trkpt>
      <trkpt lat="52.16165990" lon="9.139130560">
        <ele>218.30000</ele>
        <time>2012-03-09T19:08:14Z</time>
      </trkpt>
      <trkpt lat="52.16169440" lon="9.139070470">
        <ele>222.80000</ele>
        <time>2012-03-09T19:08:16Z</time>
      </trkpt>
      <trkpt lat="52.16169540" lon="9.139044270">
        <ele>222.40000</ele>
        <time>2012-03-09T19:08:17Z</time>
      </trkpt>
      <trkpt lat="52.16169680" lon="9.139043280">
        <ele>222.40000</ele>
        <time>2012-03-09T19:08:17Z</time>
      </trkpt>
      <trkpt lat="52.16169730" lon="9.139042970">
        <ele>222.40000</ele>
        <time>2012-03-09T19:08:17Z</time>
      </trkpt>
      <trkpt lat="52.16169750" lon="9.139042580">
        <ele>222.30000</ele>
        <time>2012-03-09T19:08:17Z</time>
      </trkpt>
      <trkpt lat="52.16169750" lon="9.139042690">
        <ele>222.30000</ele>
        <time>2012-03-09T19:08:17Z</time>
      </trkpt>
      <trkpt lat="52.16169690" lon="9.139042130">
        <ele>222.20000</ele>
        <time>2012-03-09T19:08:17Z</time>
      </trkpt>
      <trkpt lat="52.16169640" lon="9.139041650">
        <ele>222.20000</ele>
        <time>2012-03-09T19:08:17Z</time>
      </trkpt>
      <trkpt lat="52.16169620" lon="9.139048970">
        <ele>222.20000</ele>
        <time>2012-03-09T19:08:17Z</time>
      </trkpt>
      <trkpt lat="52.16169000" lon="9.139049710">
        <ele>222.40000</ele>
        <time>2012-03-09T19:08:17Z</time>
      </trkpt>
      <trkpt lat="52.16168540" lon="9.139050700">
        <ele>222.60000</ele>
        <time>2012-03-09T19:08:17Z</time>
      </trkpt>
      <trkpt lat="52.16168320" lon="9.139054860">
        <ele>222.60000</ele>
        <time>2012-03-09T19:08:18Z</time>
      </trkpt>
      <trkpt lat="52.16149880" lon="9.139156040">
        <ele>217.90000</ele>
        <time>2012-03-09T19:08:25Z</time>
      </trkpt>
      <trkpt lat="52.16148670" lon="9.139326460">
        <ele>214.00000</ele>
        <time>2012-03-09T19:08:30Z</time>
      </trkpt>
      <trkpt lat="52.16148990" lon="9.139435030">
        <ele>214.40000</ele>
        <time>2012-03-09T19:08:32Z</time>
      </trkpt>
      <trkpt lat="52.16125640" lon="9.139583780">
        <ele>214.10000</ele>
        <time>2012-03-09T19:08:42Z</time>
      </trkpt>
      <trkpt lat="52.16114890" lon="9.139606770">
        <ele>214.20000</ele>
        <time>2012-03-09T19:08:47Z</time>
      </trkpt>
      <trkpt lat="52.16106490" lon="9.139706410">
        <ele>213.10000</ele>
        <time>2012-03-09T19:08:51Z</time>
      </trkpt>
      <trkpt lat="52.16095850" lon="9.139737190">
        <ele>217.30000</ele>
        <time>2012-03-09T19:08:55Z</time>
      </trkpt>
      <trkpt lat="52.16082480" lon="9.139967810">
        <ele>223.50000</ele>
        <time>2012-03-09T19:09:03Z</time>
      </trkpt>
      <trkpt lat="52.16070580" lon="9.139979110">
        <ele>223.90000</ele>
        <time>2012-03-09T19:09:08Z</time>
      </trkpt>
      <trkpt lat="52.16058850" lon="9.140016990">
        <ele>225.10000</ele>
        <time>2012-03-09T19:09:12Z</time>
      </trkpt>
      <trkpt lat="52.16043850" lon="9.140066850">
        <ele>225.60000</ele>
        <time>2012-03-09T19:09:19Z</time>
      </trkpt>
      <trkpt lat="52.16033830" lon="9.140128750">
        <ele>225.40000</ele>
        <time>2012-03-09T19:09:23Z</time>
      </trkpt>
      <trkpt lat="52.16026100" lon="9.140249130">
        <ele>227.80000</ele>
        <time>2012-03-09T19:09:27Z</time>
      </trkpt>
      <trkpt lat="52.16009540" lon="9.140385880">
        <ele>229.60000</ele>
        <time>2012-03-09T19:09:35Z</time>
      </trkpt>
      <trkpt lat="52.16002190" lon="9.140411580">
        <ele>227.80000</ele>
        <time>2012-03-09T19:09:38Z</time>
      </trkpt>
      <trkpt lat="52.15988120" lon="9.140237080">
        <ele>222.90000</ele>
        <time>2012-03-09T19:09:45Z</time>
      </trkpt>
      <trkpt lat="52.15978060" lon="9.140339480">
        <ele>223.60000</ele>
        <time>2012-03-09T19:09:49Z</time>
      </trkpt>
      <trkpt lat="52.15969890" lon="9.140245910">
        <ele>219.70000</ele>
        <time>2012-03-09T19:09:53Z</time>
      </trkpt>
      <trkpt lat="52.15956710" lon="9.140253090">
        <ele>212.30000</ele>
        <time>2012-03-09T19:09:59Z</time>
      </trkpt>
      <trkpt lat="52.15935820" lon="9.140253370">
        <ele>212.10000</ele>
        <time>2012-03-09T19:10:07Z</time>
      </trkpt>
      <trkpt lat="52.15940260" lon="9.140229150">
        <ele>218.80000</ele>
        <time>2012-03-09T19:10:09Z</time>
      </trkpt>
      <trkpt lat="52.15940710" lon="9.140238420">
        <ele>220.20000</ele>
        <time>2012-03-09T19:10:09Z</time>
      </trkpt>
      <trkpt lat="52.15940500" lon="9.140236440">
        <ele>220.30000</ele>
        <time>2012-03-09T19:10:09Z</time>
      </trkpt>
      <trkpt lat="52.15930190" lon="9.140191470">
        <ele>221.70000</ele>
        <time>2012-03-09T19:10:14Z</time>
      </trkpt>
      <trkpt lat="52.15917510" lon="9.140337870">
        <ele>230.00000</ele>
        <time>2012-03-09T19:10:20Z</time>
      </trkpt>
      <trkpt lat="52.15908310" lon="9.140399840">
        <ele>232.90000</ele>
        <time>2012-03-09T19:10:24Z</time>
      </trkpt>
      <trkpt lat="52.15897670" lon="9.140603140">
        <ele>241.20000</ele>
        <time>2012-03-09T19:10:30Z</time>
      </trkpt>
      <trkpt lat="52.15897200" lon="9.140619440">
        <ele>242.60000</ele>
        <time>2012-03-09T19:10:31Z</time>
      </trkpt>
      <trkpt lat="52.15897500" lon="9.140619720">
        <ele>242.60000</ele>
        <time>2012-03-09T19:10:31Z</time>
      </trkpt>
      <trkpt lat="52.15897670" lon="9.140620580">
        <ele>242.50000</ele>
        <time>2012-03-09T19:10:31Z</time>
      </trkpt>
      <trkpt lat="52.15897820" lon="9.140620740">
        <ele>242.50000</ele>
        <time>2012-03-09T19:10:31Z</time>
      </trkpt>
      <trkpt lat="52.15899630" lon="9.140537680">
        <ele>242.90000</ele>
        <time>2012-03-09T19:10:33Z</time>
      </trkpt>
      <trkpt lat="52.15907530" lon="9.140353160">
        <ele>246.60000</ele>
        <time>2012-03-09T19:10:39Z</time>
      </trkpt>
      <trkpt lat="52.15908100" lon="9.140360750">
        <ele>248.10000</ele>
        <time>2012-03-09T19:10:39Z</time>
      </trkpt>
      <trkpt lat="52.15908100" lon="9.140361580">
        <ele>248.20000</ele>
        <time>2012-03-09T19:10:39Z</time>
      </trkpt>
      <trkpt lat="52.15908070" lon="9.140361650">
        <ele>248.20000</ele>
        <time>2012-03-09T19:10:39Z</time>
      </trkpt>
      <trkpt lat="52.15905770" lon="9.140301360">
        <ele>248.00000</ele>
        <time>2012-03-09T19:10:41Z</time>
      </trkpt>
      <trkpt lat="52.15904020" lon="9.140222580">
        <ele>247.80000</ele>
        <time>2012-03-09T19:10:43Z</time>
      </trkpt>
      <trkpt lat="52.15905850" lon="9.140237100">
        <ele>246.10000</ele>
        <time>2012-03-09T19:10:44Z</time>
      </trkpt>
      <trkpt lat="52.15905770" lon="9.140238500">
        <ele>246.40000</ele>
        <time>2012-03-09T19:10:44Z</time>
      </trkpt>
      <trkpt lat="52.15905740" lon="9.140238420">
        <ele>246.40000</ele>
        <time>2012-03-09T19:10:44Z</time>
      </trkpt>
      <trkpt lat="52.15893550" lon="9.140261350">
        <ele>248.30000</ele>
        <time>2012-03-09T19:10:49Z</time>
      </trkpt>
      <trkpt lat="52.15876880" lon="9.140308790">
        <ele>245.50000</ele>
        <time>2012-03-09T19:10:56Z</time>
      </trkpt>
      <trkpt lat="52.15876830" lon="9.140496520">
        <ele>247.20000</ele>
        <time>2012-03-09T19:11:00Z</time>
      </trkpt>
      <trkpt lat="52.15881020" lon="9.140517320">
        <ele>252.60000</ele>
        <time>2012-03-09T19:11:02Z</time>
      </trkpt>
      <trkpt lat="52.15900550" lon="9.140725530">
        <ele>248.40000</ele>
        <time>2012-03-09T19:11:11Z</time>
      </trkpt>
      <trkpt lat="52.15916500" lon="9.140632040">
        <ele>236.20000</ele>
        <time>2012-03-09T19:11:18Z</time>
      </trkpt>
      <trkpt lat="52.15930700" lon="9.140807810">
        <ele>226.10000</ele>
        <time>2012-03-09T19:11:25Z</time>
      </trkpt>
      <trkpt lat="52.15942660" lon="9.141051920">
        <ele>225.90000</ele>
        <time>2012-03-09T19:11:33Z</time>
      </trkpt>
      <trkpt lat="52.15942700" lon="9.141309850">
        <ele>223.20000</ele>
        <time>2012-03-09T19:11:39Z</time>
      </trkpt>
      <trkpt lat="52.15948630" lon="9.141440280">
        <ele>219.60000</ele>
        <time>2012-03-09T19:11:43Z</time>
      </trkpt>
      <trkpt lat="52.15946000" lon="9.141559270">
        <ele>215.90000</ele>
        <time>2012-03-09T19:11:46Z</time>
      </trkpt>
      <trkpt lat="52.15943890" lon="9.141791230">
        <ele>217.10000</ele>
        <time>2012-03-09T19:11:52Z</time>
      </trkpt>
      <trkpt lat="52.15944490" lon="9.141903950">
        <ele>216.10000</ele>
        <time>2012-03-09T19:11:55Z</time>
      </trkpt>
      <trkpt lat="52.15955470" lon="9.142102150">
        <ele>215.50000</ele>
        <time>2012-03-09T19:12:01Z</time>
      </trkpt>
      <trkpt lat="52.15966110" lon="9.142230210">
        <ele>216.10000</ele>
        <time>2012-03-09T19:12:07Z</time>
      </trkpt>
      <trkpt lat="52.15973770" lon="9.142292750">
        <ele>211.20000</ele>
        <time>2012-03-09T19:12:10Z</time>
      </trkpt>
      <trkpt lat="52.15982900" lon="9.142291480">
        <ele>200.50000</ele>
        <time>2012-03-09T19:12:14Z</time>
      </trkpt>
      <trkpt lat="52.15980790" lon="9.142283490">
        <ele>201.10000</ele>
        <time>2012-03-09T19:12:15Z</time>
      </trkpt>
      <trkpt lat="52.15985810" lon="9.142429380">
        <ele>202.50000</ele>
        <time>2012-03-09T19:12:19Z</time>
      </trkpt>
      <trkpt lat="52.15979920" lon="9.142554290">
        <ele>210.00000</ele>
        <time>2012-03-09T19:12:23Z</time>
      </trkpt>
      <trkpt lat="52.15979650" lon="9.142510610">
        <ele>208.00000</ele>
        <time>2012-03-09T19:12:24Z</time>
      </trkpt>
      <trkpt lat="52.15979400" lon="9.142516720">
        <ele>208.00000</ele>
        <time>2012-03-09T19:12:24Z</time>
      </trkpt>
      <trkpt lat="52.15979480" lon="9.142518090">
        <ele>208.00000</ele>
        <time>2012-03-09T19:12:24Z</time>
      </trkpt>
      <trkpt lat="52.15979540" lon="9.142519330">
        <ele>208.00000</ele>
        <time>2012-03-09T19:12:24Z</time>
      </trkpt>
      <trkpt lat="52.15979540" lon="9.142519720">
        <ele>208.10000</ele>
        <time>2012-03-09T19:12:24Z</time>
      </trkpt>
      <trkpt lat="52.15979530" lon="9.142519730">
        <ele>208.10000</ele>
        <time>2012-03-09T19:12:24Z</time>
      </trkpt>
      <trkpt lat="52.15979540" lon="9.142519790">
        <ele>208.10000</ele>
        <time>2012-03-09T19:12:24Z</time>
      </trkpt>
      <trkpt lat="52.15979540" lon="9.142519570">
        <ele>208.10000</ele>
        <time>2012-03-09T19:12:24Z</time>
      </trkpt>
      <trkpt lat="52.15979520" lon="9.142519660">
        <ele>208.20000</ele>
        <time>2012-03-09T19:12:24Z</time>
      </trkpt>
      <trkpt lat="52.15979430" lon="9.142519850">
        <ele>208.20000</ele>
        <time>2012-03-09T19:12:24Z</time>
      </trkpt>
      <trkpt lat="52.15954160" lon="9.142471150">
        <ele>212.90000</ele>
        <time>2012-03-09T19:12:34Z</time>
      </trkpt>
      <trkpt lat="52.15940500" lon="9.142242220">
        <ele>218.00000</ele>
        <time>2012-03-09T19:12:42Z</time>
      </trkpt>
      <trkpt lat="52.15919680" lon="9.142206420">
        <ele>223.20000</ele>
        <time>2012-03-09T19:12:50Z</time>
      </trkpt>
      <trkpt lat="52.15928000" lon="9.142098270">
        <ele>222.20000</ele>
        <time>2012-03-09T19:12:55Z</time>
      </trkpt>
      <trkpt lat="52.15917390" lon="9.141957270">
        <ele>230.30000</ele>
        <time>2012-03-09T19:13:00Z</time>
      </trkpt>
      <trkpt lat="52.15907440" lon="9.141821780">
        <ele>231.10000</ele>
        <time>2012-03-09T19:13:05Z</time>
      </trkpt>
      <trkpt lat="52.15897540" lon="9.141623950">
        <ele>233.70000</ele>
        <time>2012-03-09T19:13:12Z</time>
      </trkpt>
      <trkpt lat="52.15883090" lon="9.141426720">
        <ele>236.80000</ele>
        <time>2012-03-09T19:13:19Z</time>
      </trkpt>
      <trkpt lat="52.15876740" lon="9.141399530">
        <ele>235.50000</ele>
        <time>2012-03-09T19:13:22Z</time>
      </trkpt>
      <trkpt lat="52.15861360" lon="9.141343900">
        <ele>238.80000</ele>
        <time>2012-03-09T19:13:28Z</time>
      </trkpt>
      <trkpt lat="52.15849150" lon="9.141342850">
        <ele>239.50000</ele>
        <time>2012-03-09T19:13:33Z</time>
      </trkpt>
      <trkpt lat="52.15838070" lon="9.141406460">
        <ele>242.60000</ele>
        <time>2012-03-09T19:13:38Z</time>
      </trkpt>
      <trkpt lat="52.15830420" lon="9.141436940">
        <ele>245.20000</ele>
        <time>2012-03-09T19:13:41Z</time>
      </trkpt>
      <trkpt lat="52.15823230" lon="9.141319510">
        <ele>247.20000</ele>
        <time>2012-03-09T19:13:45Z</time>
      </trkpt>
      <trkpt lat="52.15813720" lon="9.141429500">
        <ele>245.60000</ele>
        <time>2012-03-09T19:13:50Z</time>
      </trkpt>
      <trkpt lat="52.15815630" lon="9.141457370">
        <ele>248.90000</ele>
        <time>2012-03-09T19:13:51Z</time>
      </trkpt>
      <trkpt lat="52.15812320" lon="9.141466760">
        <ele>251.60000</ele>
        <time>2012-03-09T19:13:52Z</time>
      </trkpt>
      <trkpt lat="52.15812540" lon="9.141465460">
        <ele>251.50000</ele>
        <time>2012-03-09T19:13:52Z</time>
      </trkpt>
      <trkpt lat="52.15812320" lon="9.141468070">
        <ele>251.40000</ele>
        <time>2012-03-09T19:13:52Z</time>
      </trkpt>
      <trkpt lat="52.15788060" lon="9.141819790">
        <ele>252.80000</ele>
        <time>2012-03-09T19:14:05Z</time>
      </trkpt>
      <trkpt lat="52.15765070" lon="9.142073530">
        <ele>259.80000</ele>
        <time>2012-03-09T19:14:16Z</time>
      </trkpt>
      <trkpt lat="52.15750560" lon="9.142126620">
        <ele>262.70000</ele>
        <time>2012-03-09T19:14:22Z</time>
      </trkpt>
      <trkpt lat="52.15744700" lon="9.142250420">
        <ele>265.60000</ele>
        <time>2012-03-09T19:14:26Z</time>
      </trkpt>
      <trkpt lat="52.15734410" lon="9.142297170">
        <ele>269.60000</ele>
        <time>2012-03-09T19:14:30Z</time>
      </trkpt>
      <trkpt lat="52.15724770" lon="9.142298660">
        <ele>265.50000</ele>
        <time>2012-03-09T19:14:34Z</time>
      </trkpt>
      <trkpt lat="52.15714650" lon="9.142250400">
        <ele>264.70000</ele>
        <time>2012-03-09T19:14:38Z</time>
      </trkpt>
      <trkpt lat="52.15713650" lon="9.142176190">
        <ele>269.20000</ele>
        <time>2012-03-09T19:14:40Z</time>
      </trkpt>
      <trkpt lat="52.15713610" lon="9.142175290">
        <ele>269.30000</ele>
        <time>2012-03-09T19:14:40Z</time>
      </trkpt>
      <trkpt lat="52.15713630" lon="9.142175070">
        <ele>269.40000</ele>
        <time>2012-03-09T19:14:40Z</time>
      </trkpt>
      <trkpt lat="52.15702250" lon="9.142211850">
        <ele>271.00000</ele>
        <time>2012-03-09T19:14:45Z</time>
      </trkpt>
      <trkpt lat="52.15692340" lon="9.142255620">
        <ele>271.90000</ele>
        <time>2012-03-09T19:14:49Z</time>
      </trkpt>
      <trkpt lat="52.15678970" lon="9.142328670">
        <ele>275.10000</ele>
        <time>2012-03-09T19:14:55Z</time>
      </trkpt>
      <trkpt lat="52.15669790" lon="9.142353390">
        <ele>277.90000</ele>
        <time>2012-03-09T19:14:58Z</time>
      </trkpt>
      <trkpt lat="52.15658220" lon="9.142348190">
        <ele>278.90000</ele>
        <time>2012-03-09T19:15:03Z</time>
      </trkpt>
      <trkpt lat="52.15653090" lon="9.142281980">
        <ele>278.30000</ele>
        <time>2012-03-09T19:15:06Z</time>
      </trkpt>
      <trkpt lat="52.15637650" lon="9.142203550">
        <ele>277.80000</ele>
        <time>2012-03-09T19:15:12Z</time>
      </trkpt>
      <trkpt lat="52.15628390" lon="9.142205200">
        <ele>273.90000</ele>
        <time>2012-03-09T19:15:16Z</time>
      </trkpt>
      <trkpt lat="52.15618530" lon="9.142189110">
        <ele>276.20000</ele>
        <time>2012-03-09T19:15:20Z</time>
      </trkpt>
      <trkpt lat="52.15610450" lon="9.142033140">
        <ele>278.70000</ele>
        <time>2012-03-09T19:15:25Z</time>
      </trkpt>
      <trkpt lat="52.15611480" lon="9.142038460">
        <ele>279.80000</ele>
        <time>2012-03-09T19:15:25Z</time>
      </trkpt>
      <trkpt lat="52.15611590" lon="9.142037140">
        <ele>279.90000</ele>
        <time>2012-03-09T19:15:25Z</time>
      </trkpt>
      <trkpt lat="52.15600680" lon="9.142130490">
        <ele>278.00000</ele>
        <time>2012-03-09T19:15:30Z</time>
      </trkpt>
      <trkpt lat="52.15587800" lon="9.142183660">
        <ele>274.30000</ele>
        <time>2012-03-09T19:15:36Z</time>
      </trkpt>
      <trkpt lat="52.15577710" lon="9.142194850">
        <ele>276.50000</ele>
        <time>2012-03-09T19:15:40Z</time>
      </trkpt>
      <trkpt lat="52.15568430" lon="9.142247950">
        <ele>277.50000</ele>
        <time>2012-03-09T19:15:44Z</time>
      </trkpt>
      <trkpt lat="52.15557640" lon="9.142282050">
        <ele>282.70000</ele>
        <time>2012-03-09T19:15:48Z</time>
      </trkpt>
      <trkpt lat="52.15544990" lon="9.142210350">
        <ele>288.80000</ele>
        <time>2012-03-09T19:15:53Z</time>
      </trkpt>
      <trkpt lat="52.15531840" lon="9.142167660">
        <ele>293.00000</ele>
        <time>2012-03-09T19:15:59Z</time>
      </trkpt>
      <trkpt lat="52.15521110" lon="9.142206260">
        <ele>292.30000</ele>
        <time>2012-03-09T19:16:03Z</time>
      </trkpt>
      <trkpt lat="52.15510390" lon="9.142147530">
        <ele>296.50000</ele>
        <time>2012-03-09T19:16:08Z</time>
      </trkpt>
      <trkpt lat="52.15499920" lon="9.142044570">
        <ele>299.10000</ele>
        <time>2012-03-09T19:16:13Z</time>
      </trkpt>
      <trkpt lat="52.15500290" lon="9.142011310">
        <ele>300.50000</ele>
        <time>2012-03-09T19:16:13Z</time>
      </trkpt>
      <trkpt lat="52.15494390" lon="9.142084810">
        <ele>298.70000</ele>
        <time>2012-03-09T19:16:16Z</time>
      </trkpt>
      <trkpt lat="52.15487080" lon="9.142112790">
        <ele>299.70000</ele>
        <time>2012-03-09T19:16:19Z</time>
      </trkpt>
      <trkpt lat="52.15475850" lon="9.142147630">
        <ele>299.30000</ele>
        <time>2012-03-09T19:16:24Z</time>
      </trkpt>
      <trkpt lat="52.15465340" lon="9.142214540">
        <ele>301.50000</ele>
        <time>2012-03-09T19:16:28Z</time>
      </trkpt>
      <trkpt lat="52.15459330" lon="9.142125460">
        <ele>297.70000</ele>
        <time>2012-03-09T19:16:32Z</time>
      </trkpt>
      <trkpt lat="52.15460060" lon="9.141929420">
        <ele>292.90000</ele>
        <time>2012-03-09T19:16:37Z</time>
      </trkpt>
      <trkpt lat="52.15462260" lon="9.141908940">
        <ele>291.90000</ele>
        <time>2012-03-09T19:16:38Z</time>
      </trkpt>
      <trkpt lat="52.15462090" lon="9.141908010">
        <ele>291.80000</ele>
        <time>2012-03-09T19:16:38Z</time>
      </trkpt>
      <trkpt lat="52.15462060" lon="9.141908630">
        <ele>291.70000</ele>
        <time>2012-03-09T19:16:38Z</time>
      </trkpt>
      <trkpt lat="52.15461970" lon="9.141907230">
        <ele>291.50000</ele>
        <time>2012-03-09T19:16:38Z</time>
      </trkpt>
      <trkpt lat="52.15463540" lon="9.141756780">
        <ele>295.10000</ele>
        <time>2012-03-09T19:16:41Z</time>
      </trkpt>
      <trkpt lat="52.15470580" lon="9.141643280">
        <ele>294.70000</ele>
        <time>2012-03-09T19:16:45Z</time>
      </trkpt>
      <trkpt lat="52.15470160" lon="9.141664080">
        <ele>294.60000</ele>
        <time>2012-03-09T19:16:46Z</time>
      </trkpt>
      <trkpt lat="52.15470170" lon="9.141664560">
        <ele>294.60000</ele>
        <time>2012-03-09T19:16:46Z</time>
      </trkpt>
      <trkpt lat="52.15470090" lon="9.141664410">
        <ele>294.50000</ele>
        <time>2012-03-09T19:16:46Z</time>
      </trkpt>
      <trkpt lat="52.15470030" lon="9.141664340">
        <ele>294.60000</ele>
        <time>2012-03-09T19:16:46Z</time>
      </trkpt>
      <trkpt lat="52.15470040" lon="9.141664000">
        <ele>294.60000</ele>
        <time>2012-03-09T19:16:46Z</time>
      </trkpt>
      <trkpt lat="52.15470010" lon="9.141663500">
        <ele>294.60000</ele>
        <time>2012-03-09T19:16:46Z</time>
      </trkpt>
      <trkpt lat="52.15470010" lon="9.141664050">
        <ele>294.60000</ele>
        <time>2012-03-09T19:16:46Z</time>
      </trkpt>
      <trkpt lat="52.15468480" lon="9.141639900">
        <ele>294.30000</ele>
        <time>2012-03-09T19:16:47Z</time>
      </trkpt>
      <trkpt lat="52.15468710" lon="9.141630150">
        <ele>295.70000</ele>
        <time>2012-03-09T19:16:47Z</time>
      </trkpt>
      <trkpt lat="52.15468740" lon="9.141631110">
        <ele>295.70000</ele>
        <time>2012-03-09T19:16:47Z</time>
      </trkpt>
      <trkpt lat="52.15468930" lon="9.141632170">
        <ele>295.60000</ele>
        <time>2012-03-09T19:16:47Z</time>
      </trkpt>
      <trkpt lat="52.15468880" lon="9.141631320">
        <ele>295.70000</ele>
        <time>2012-03-09T19:16:47Z</time>
      </trkpt>
      <trkpt lat="52.15468620" lon="9.141655840">
        <ele>311.30000</ele>
        <time>2012-03-09T19:16:48Z</time>
      </trkpt>
      <trkpt lat="52.15468700" lon="9.141669460">
        <ele>311.30000</ele>
        <time>2012-03-09T19:16:48Z</time>
      </trkpt>
      <trkpt lat="52.15468710" lon="9.141670620">
        <ele>311.30000</ele>
        <time>2012-03-09T19:16:48Z</time>
      </trkpt>
      <trkpt lat="52.15468690" lon="9.141671460">
        <ele>311.30000</ele>
        <time>2012-03-09T19:16:48Z</time>
      </trkpt>
      <trkpt lat="52.15468640" lon="9.141671980">
        <ele>311.30000</ele>
        <time>2012-03-09T19:16:48Z</time>
      </trkpt>
      <trkpt lat="52.15468600" lon="9.141672400">
        <ele>311.30000</ele>
        <time>2012-03-09T19:16:48Z</time>
      </trkpt>
      <trkpt lat="52.15468540" lon="9.141672440">
        <ele>311.20000</ele>
        <time>2012-03-09T19:16:48Z</time>
      </trkpt>
      <trkpt lat="52.15468480" lon="9.141672380">
        <ele>311.20000</ele>
        <time>2012-03-09T19:16:48Z</time>
      </trkpt>
      <trkpt lat="52.15468520" lon="9.141672450">
        <ele>311.10000</ele>
        <time>2012-03-09T19:16:48Z</time>
      </trkpt>
      <trkpt lat="52.15468660" lon="9.141673300">
        <ele>311.10000</ele>
        <time>2012-03-09T19:16:49Z</time>
      </trkpt>
      <trkpt lat="52.15468770" lon="9.141674510">
        <ele>311.10000</ele>
        <time>2012-03-09T19:16:49Z</time>
      </trkpt>
      <trkpt lat="52.15468830" lon="9.141674840">
        <ele>311.10000</ele>
        <time>2012-03-09T19:16:49Z</time>
      </trkpt>
      <trkpt lat="52.15468790" lon="9.141674070">
        <ele>311.10000</ele>
        <time>2012-03-09T19:16:49Z</time>
      </trkpt>
      <trkpt lat="52.15468760" lon="9.141673960">
        <ele>311.10000</ele>
        <time>2012-03-09T19:16:49Z</time>
      </trkpt>
      <trkpt lat="52.15468820" lon="9.141674300">
        <ele>311.10000</ele>
        <time>2012-03-09T19:16:49Z</time>
      </trkpt>
      <trkpt lat="52.15468910" lon="9.141675380">
        <ele>311.10000</ele>
        <time>2012-03-09T19:16:49Z</time>
      </trkpt>
      <trkpt lat="52.15468940" lon="9.141676250">
        <ele>311.10000</ele>
        <time>2012-03-09T19:16:49Z</time>
      </trkpt>
      <trkpt lat="52.15468940" lon="9.141676600">
        <ele>311.10000</ele>
        <time>2012-03-09T19:16:49Z</time>
      </trkpt>
      <trkpt lat="52.15468950" lon="9.141676860">
        <ele>311.10000</ele>
        <time>2012-03-09T19:16:49Z</time>
      </trkpt>
      <trkpt lat="52.15468180" lon="9.141643320">
        <ele>310.90000</ele>
        <time>2012-03-09T19:16:50Z</time>
      </trkpt>
      <trkpt lat="52.15462410" lon="9.141641560">
        <ele>309.20000</ele>
        <time>2012-03-09T19:16:52Z</time>
      </trkpt>
      <trkpt lat="52.15459190" lon="9.141373240">
        <ele>302.90000</ele>
        <time>2012-03-09T19:16:59Z</time>
      </trkpt>
      <trkpt lat="52.15457410" lon="9.141074690">
        <ele>294.40000</ele>
        <time>2012-03-09T19:17:06Z</time>
      </trkpt>
      <trkpt lat="52.15469020" lon="9.140901590">
        <ele>295.30000</ele>
        <time>2012-03-09T19:17:12Z</time>
      </trkpt>
      <trkpt lat="52.15474360" lon="9.140764250">
        <ele>295.50000</ele>
        <time>2012-03-09T19:17:16Z</time>
      </trkpt>
      <trkpt lat="52.15485760" lon="9.140519510">
        <ele>295.00000</ele>
        <time>2012-03-09T19:17:24Z</time>
      </trkpt>
      <trkpt lat="52.15492200" lon="9.140408030">
        <ele>296.90000</ele>
        <time>2012-03-09T19:17:28Z</time>
      </trkpt>
      <trkpt lat="52.15497010" lon="9.140243500">
        <ele>294.80000</ele>
        <time>2012-03-09T19:17:32Z</time>
      </trkpt>
      <trkpt lat="52.15502920" lon="9.140146470">
        <ele>296.70000</ele>
        <time>2012-03-09T19:17:35Z</time>
      </trkpt>
      <trkpt lat="52.15509460" lon="9.140035090">
        <ele>296.20000</ele>
        <time>2012-03-09T19:17:39Z</time>
      </trkpt>
      <trkpt lat="52.15526730" lon="9.139860150">
        <ele>298.80000</ele>
        <time>2012-03-09T19:17:47Z</time>
      </trkpt>
      <trkpt lat="52.15544630" lon="9.139833320">
        <ele>298.40000</ele>
        <time>2012-03-09T19:17:55Z</time>
      </trkpt>
      <trkpt lat="52.15553230" lon="9.139656190">
        <ele>298.20000</ele>
        <time>2012-03-09T19:18:00Z</time>
      </trkpt>
      <trkpt lat="52.15559110" lon="9.139577670">
        <ele>295.80000</ele>
        <time>2012-03-09T19:18:03Z</time>
      </trkpt>
      <trkpt lat="52.15569830" lon="9.139447080">
        <ele>296.60000</ele>
        <time>2012-03-09T19:18:08Z</time>
      </trkpt>
      <trkpt lat="52.15577620" lon="9.139332040">
        <ele>293.80000</ele>
        <time>2012-03-09T19:18:13Z</time>
      </trkpt>
      <trkpt lat="52.15587520" lon="9.139273600">
        <ele>294.60000</ele>
        <time>2012-03-09T19:18:17Z</time>
      </trkpt>
      <trkpt lat="52.15607630" lon="9.139156980">
        <ele>298.20000</ele>
        <time>2012-03-09T19:18:25Z</time>
      </trkpt>
      <trkpt lat="52.15617740" lon="9.139083180">
        <ele>297.60000</ele>
        <time>2012-03-09T19:18:30Z</time>
      </trkpt>
      <trkpt lat="52.15627290" lon="9.138927560">
        <ele>298.90000</ele>
        <time>2012-03-09T19:18:35Z</time>
      </trkpt>
      <trkpt lat="52.15640060" lon="9.138885080">
        <ele>298.20000</ele>
        <time>2012-03-09T19:18:40Z</time>
      </trkpt>
      <trkpt lat="52.15645560" lon="9.138816160">
        <ele>296.80000</ele>
        <time>2012-03-09T19:18:43Z</time>
      </trkpt>
      <trkpt lat="52.15655470" lon="9.138664460">
        <ele>297.90000</ele>
        <time>2012-03-09T19:18:49Z</time>
      </trkpt>
      <trkpt lat="52.15666640" lon="9.138487960">
        <ele>299.40000</ele>
        <time>2012-03-09T19:18:55Z</time>
      </trkpt>
      <trkpt lat="52.15675630" lon="9.138417140">
        <ele>303.90000</ele>
        <time>2012-03-09T19:18:59Z</time>
      </trkpt>
      <trkpt lat="52.15695840" lon="9.138309120">
        <ele>301.30000</ele>
        <time>2012-03-09T19:19:07Z</time>
      </trkpt>
      <trkpt lat="52.15701810" lon="9.138293820">
        <ele>301.90000</ele>
        <time>2012-03-09T19:19:10Z</time>
      </trkpt>
      <trkpt lat="52.15711120" lon="9.138250720">
        <ele>298.00000</ele>
        <time>2012-03-09T19:19:14Z</time>
      </trkpt>
      <trkpt lat="52.15723370" lon="9.138131280">
        <ele>296.80000</ele>
        <time>2012-03-09T19:19:19Z</time>
      </trkpt>
      <trkpt lat="52.15738850" lon="9.138009190">
        <ele>296.70000</ele>
        <time>2012-03-09T19:19:26Z</time>
      </trkpt>
      <trkpt lat="52.15743780" lon="9.137890010">
        <ele>298.30000</ele>
        <time>2012-03-09T19:19:30Z</time>
      </trkpt>
      <trkpt lat="52.15748770" lon="9.137731120">
        <ele>297.90000</ele>
        <time>2012-03-09T19:19:34Z</time>
      </trkpt>
      <trkpt lat="52.15762050" lon="9.137663400">
        <ele>301.00000</ele>
        <time>2012-03-09T19:19:40Z</time>
      </trkpt>
      <trkpt lat="52.15768260" lon="9.137486530">
        <ele>298.90000</ele>
        <time>2012-03-09T19:19:45Z</time>
      </trkpt>
      <trkpt lat="52.15777870" lon="9.137390390">
        <ele>298.70000</ele>
        <time>2012-03-09T19:19:49Z</time>
      </trkpt>
      <trkpt lat="52.15792200" lon="9.137281670">
        <ele>298.10000</ele>
        <time>2012-03-09T19:19:56Z</time>
      </trkpt>
      <trkpt lat="52.15795100" lon="9.137109630">
        <ele>299.20000</ele>
        <time>2012-03-09T19:20:00Z</time>
      </trkpt>
      <trkpt lat="52.15805330" lon="9.136981310">
        <ele>297.40000</ele>
        <time>2012-03-09T19:20:05Z</time>
      </trkpt>
      <trkpt lat="52.15813570" lon="9.136878430">
        <ele>298.30000</ele>
        <time>2012-03-09T19:20:09Z</time>
      </trkpt>
      <trkpt lat="52.15825150" lon="9.136748390">
        <ele>295.80000</ele>
        <time>2012-03-09T19:20:15Z</time>
      </trkpt>
      <trkpt lat="52.15824990" lon="9.136604760">
        <ele>288.80000</ele>
        <time>2012-03-09T19:20:19Z</time>
      </trkpt>
      <trkpt lat="52.15833480" lon="9.136515520">
        <ele>285.70000</ele>
        <time>2012-03-09T19:20:23Z</time>
      </trkpt>
      <trkpt lat="52.15843900" lon="9.136346010">
        <ele>285.30000</ele>
        <time>2012-03-09T19:20:28Z</time>
      </trkpt>
      <trkpt lat="52.15846190" lon="9.136158090">
        <ele>282.50000</ele>
        <time>2012-03-09T19:20:33Z</time>
      </trkpt>
      <trkpt lat="52.15837030" lon="9.136021850">
        <ele>269.50000</ele>
        <time>2012-03-09T19:20:38Z</time>
      </trkpt>
      <trkpt lat="52.15836170" lon="9.135809500">
        <ele>268.00000</ele>
        <time>2012-03-09T19:20:43Z</time>
      </trkpt>
      <trkpt lat="52.15826550" lon="9.135573730">
        <ele>265.20000</ele>
        <time>2012-03-09T19:20:50Z</time>
      </trkpt>
      <trkpt lat="52.15822820" lon="9.135489430">
        <ele>264.10000</ele>
        <time>2012-03-09T19:20:53Z</time>
      </trkpt>
      <trkpt lat="52.15822050" lon="9.135409010">
        <ele>271.30000</ele>
        <time>2012-03-09T19:20:55Z</time>
      </trkpt>
      <trkpt lat="52.15821720" lon="9.135463450">
        <ele>268.40000</ele>
        <time>2012-03-09T19:20:56Z</time>
      </trkpt>
      <trkpt lat="52.15815870" lon="9.135451420">
        <ele>267.30000</ele>
        <time>2012-03-09T19:20:59Z</time>
      </trkpt>
      <trkpt lat="52.15805400" lon="9.135455650">
        <ele>267.40000</ele>
        <time>2012-03-09T19:21:03Z</time>
      </trkpt>
      <trkpt lat="52.15795010" lon="9.135467000">
        <ele>262.90000</ele>
        <time>2012-03-09T19:21:07Z</time>
      </trkpt>
      <trkpt lat="52.15786810" lon="9.135335490">
        <ele>262.60000</ele>
        <time>2012-03-09T19:21:12Z</time>
      </trkpt>
      <trkpt lat="52.15787110" lon="9.135288080">
        <ele>261.40000</ele>
        <time>2012-03-09T19:21:13Z</time>
      </trkpt>
      <trkpt lat="52.15787120" lon="9.135287700">
        <ele>261.30000</ele>
        <time>2012-03-09T19:21:13Z</time>
      </trkpt>
      <trkpt lat="52.15787120" lon="9.135288190">
        <ele>261.30000</ele>
        <time>2012-03-09T19:21:13Z</time>
      </trkpt>
      <trkpt lat="52.15787120" lon="9.135287900">
        <ele>261.20000</ele>
        <time>2012-03-09T19:21:13Z</time>
      </trkpt>
      <trkpt lat="52.15787110" lon="9.135287510">
        <ele>261.20000</ele>
        <time>2012-03-09T19:21:13Z</time>
      </trkpt>
      <trkpt lat="52.15787120" lon="9.135287820">
        <ele>261.20000</ele>
        <time>2012-03-09T19:21:13Z</time>
      </trkpt>
      <trkpt lat="52.15787150" lon="9.135288180">
        <ele>261.20000</ele>
        <time>2012-03-09T19:21:13Z</time>
      </trkpt>
      <trkpt lat="52.15787150" lon="9.135286840">
        <ele>261.20000</ele>
        <time>2012-03-09T19:21:13Z</time>
      </trkpt>
      <trkpt lat="52.15787180" lon="9.135286490">
        <ele>261.20000</ele>
        <time>2012-03-09T19:21:13Z</time>
      </trkpt>
      <trkpt lat="52.15787710" lon="9.135299170">
        <ele>257.80000</ele>
        <time>2012-03-09T19:21:13Z</time>
      </trkpt>
      <trkpt lat="52.15790920" lon="9.135225200">
        <ele>252.90000</ele>
        <time>2012-03-09T19:21:15Z</time>
      </trkpt>
      <trkpt lat="52.15779990" lon="9.134874240">
        <ele>254.30000</ele>
        <time>2012-03-09T19:21:25Z</time>
      </trkpt>
      <trkpt lat="52.15778490" lon="9.134652150">
        <ele>257.00000</ele>
        <time>2012-03-09T19:21:31Z</time>
      </trkpt>
      <trkpt lat="52.15776700" lon="9.134365070">
        <ele>260.40000</ele>
        <time>2012-03-09T19:21:38Z</time>
      </trkpt>
      <trkpt lat="52.15775910" lon="9.134255130">
        <ele>255.50000</ele>
        <time>2012-03-09T19:21:40Z</time>
      </trkpt>
      <trkpt lat="52.15777560" lon="9.134028780">
        <ele>251.50000</ele>
        <time>2012-03-09T19:21:46Z</time>
      </trkpt>
      <trkpt lat="52.15783500" lon="9.133935310">
        <ele>250.80000</ele>
        <time>2012-03-09T19:21:49Z</time>
      </trkpt>
      <trkpt lat="52.15791760" lon="9.133701100">
        <ele>251.50000</ele>
        <time>2012-03-09T19:21:56Z</time>
      </trkpt>
      <trkpt lat="52.15789710" lon="9.133534090">
        <ele>254.20000</ele>
        <time>2012-03-09T19:22:00Z</time>
      </trkpt>
      <trkpt lat="52.15795920" lon="9.133336870">
        <ele>254.70000</ele>
        <time>2012-03-09T19:22:05Z</time>
      </trkpt>
      <trkpt lat="52.15808170" lon="9.133173200">
        <ele>255.40000</ele>
        <time>2012-03-09T19:22:12Z</time>
      </trkpt>
      <trkpt lat="52.15803640" lon="9.132930380">
        <ele>257.30000</ele>
        <time>2012-03-09T19:22:18Z</time>
      </trkpt>
      <trkpt lat="52.15803370" lon="9.132745960">
        <ele>252.90000</ele>
        <time>2012-03-09T19:22:23Z</time>
      </trkpt>
      <trkpt lat="52.15807110" lon="9.132702060">
        <ele>251.30000</ele>
        <time>2012-03-09T19:22:24Z</time>
      </trkpt>
      <trkpt lat="52.15812020" lon="9.132512680">
        <ele>250.10000</ele>
        <time>2012-03-09T19:22:29Z</time>
      </trkpt>
      <trkpt lat="52.15807180" lon="9.132259710">
        <ele>249.80000</ele>
        <time>2012-03-09T19:22:36Z</time>
      </trkpt>
      <trkpt lat="52.15816830" lon="9.132101210">
        <ele>248.00000</ele>
        <time>2012-03-09T19:22:41Z</time>
      </trkpt>
      <trkpt lat="52.15824650" lon="9.132033640">
        <ele>245.40000</ele>
        <time>2012-03-09T19:22:45Z</time>
      </trkpt>
      <trkpt lat="52.15831540" lon="9.131880810">
        <ele>244.10000</ele>
        <time>2012-03-09T19:22:50Z</time>
      </trkpt>
      <trkpt lat="52.15838170" lon="9.131716550">
        <ele>243.00000</ele>
        <time>2012-03-09T19:22:54Z</time>
      </trkpt>
      <trkpt lat="52.15844120" lon="9.131485190">
        <ele>242.00000</ele>
        <time>2012-03-09T19:23:01Z</time>
      </trkpt>
      <trkpt lat="52.15846990" lon="9.131362240">
        <ele>242.80000</ele>
        <time>2012-03-09T19:23:04Z</time>
      </trkpt>
      <trkpt lat="52.15849480" lon="9.131184180">
        <ele>240.80000</ele>
        <time>2012-03-09T19:23:08Z</time>
      </trkpt>
      <trkpt lat="52.15855080" lon="9.131017130">
        <ele>236.20000</ele>
        <time>2012-03-09T19:23:13Z</time>
      </trkpt>
      <trkpt lat="52.15856380" lon="9.130804770">
        <ele>239.20000</ele>
        <time>2012-03-09T19:23:18Z</time>
      </trkpt>
      <trkpt lat="52.15860410" lon="9.130562610">
        <ele>241.40000</ele>
        <time>2012-03-09T19:23:24Z</time>
      </trkpt>
      <trkpt lat="52.15871350" lon="9.130676110">
        <ele>241.90000</ele>
        <time>2012-03-09T19:23:30Z</time>
      </trkpt>
      <trkpt lat="52.15867820" lon="9.130772170">
        <ele>237.60000</ele>
        <time>2012-03-09T19:23:32Z</time>
      </trkpt>
      <trkpt lat="52.15867470" lon="9.130779700">
        <ele>237.60000</ele>
        <time>2012-03-09T19:23:33Z</time>
      </trkpt>
      <trkpt lat="52.15867460" lon="9.130781190">
        <ele>237.60000</ele>
        <time>2012-03-09T19:23:33Z</time>
      </trkpt>
      <trkpt lat="52.15867420" lon="9.130781830">
        <ele>237.60000</ele>
        <time>2012-03-09T19:23:33Z</time>
      </trkpt>
      <trkpt lat="52.15867370" lon="9.130782990">
        <ele>237.60000</ele>
        <time>2012-03-09T19:23:33Z</time>
      </trkpt>
      <trkpt lat="52.15867320" lon="9.130783300">
        <ele>237.60000</ele>
        <time>2012-03-09T19:23:33Z</time>
      </trkpt>
      <trkpt lat="52.15867310" lon="9.130783520">
        <ele>237.60000</ele>
        <time>2012-03-09T19:23:33Z</time>
      </trkpt>
      <trkpt lat="52.15867290" lon="9.130783750">
        <ele>237.60000</ele>
        <time>2012-03-09T19:23:33Z</time>
      </trkpt>
      <trkpt lat="52.15868070" lon="9.130769070">
        <ele>239.60000</ele>
        <time>2012-03-09T19:23:33Z</time>
      </trkpt>
      <trkpt lat="52.15869230" lon="9.130717660">
        <ele>241.30000</ele>
        <time>2012-03-09T19:23:34Z</time>
      </trkpt>
      <trkpt lat="52.15877790" lon="9.130880560">
        <ele>241.30000</ele>
        <time>2012-03-09T19:23:40Z</time>
      </trkpt>
      <trkpt lat="52.15882450" lon="9.130903190">
        <ele>246.80000</ele>
        <time>2012-03-09T19:23:42Z</time>
      </trkpt>
      <trkpt lat="52.15883060" lon="9.130889520">
        <ele>251.40000</ele>
        <time>2012-03-09T19:23:42Z</time>
      </trkpt>
      <trkpt lat="52.15883340" lon="9.130887870">
        <ele>251.50000</ele>
        <time>2012-03-09T19:23:42Z</time>
      </trkpt>
      <trkpt lat="52.15883430" lon="9.130887950">
        <ele>251.40000</ele>
        <time>2012-03-09T19:23:42Z</time>
      </trkpt>
      <trkpt lat="52.15883500" lon="9.130888160">
        <ele>251.30000</ele>
        <time>2012-03-09T19:23:42Z</time>
      </trkpt>
      <trkpt lat="52.15890860" lon="9.130781620">
        <ele>251.90000</ele>
        <time>2012-03-09T19:23:46Z</time>
      </trkpt>
      <trkpt lat="52.15888740" lon="9.130893700">
        <ele>254.70000</ele>
        <time>2012-03-09T19:23:49Z</time>
      </trkpt>
      <trkpt lat="52.15888170" lon="9.130907050">
        <ele>255.00000</ele>
        <time>2012-03-09T19:23:49Z</time>
      </trkpt>
      <trkpt lat="52.15891380" lon="9.131043210">
        <ele>246.00000</ele>
        <time>2012-03-09T19:23:53Z</time>
      </trkpt>
      <trkpt lat="52.15908030" lon="9.131094350">
        <ele>244.70000</ele>
        <time>2012-03-09T19:24:00Z</time>
      </trkpt>
      <trkpt lat="52.15926580" lon="9.131291480">
        <ele>246.30000</ele>
        <time>2012-03-09T19:24:09Z</time>
      </trkpt>
      <trkpt lat="52.15931930" lon="9.131372210">
        <ele>244.70000</ele>
        <time>2012-03-09T19:24:12Z</time>
      </trkpt>
      <trkpt lat="52.15940990" lon="9.131442890">
        <ele>242.70000</ele>
        <time>2012-03-09T19:24:16Z</time>
      </trkpt>
      <trkpt lat="52.15954420" lon="9.131576260">
        <ele>243.20000</ele>
        <time>2012-03-09T19:24:22Z</time>
      </trkpt>
      <trkpt lat="52.15962180" lon="9.131697500">
        <ele>242.80000</ele>
        <time>2012-03-09T19:24:26Z</time>
      </trkpt>
      <trkpt lat="52.15973720" lon="9.131867720">
        <ele>240.30000</ele>
        <time>2012-03-09T19:24:32Z</time>
      </trkpt>
      <trkpt lat="52.15985920" lon="9.131943000">
        <ele>240.30000</ele>
        <time>2012-03-09T19:24:38Z</time>
      </trkpt>
      <trkpt lat="52.15981660" lon="9.131937540">
        <ele>232.10000</ele>
        <time>2012-03-09T19:24:39Z</time>
      </trkpt>
      <trkpt lat="52.15978050" lon="9.131925910">
        <ele>229.10000</ele>
        <time>2012-03-09T19:24:41Z</time>
      </trkpt>
      <trkpt lat="52.15973290" lon="9.132065430">
        <ele>216.90000</ele>
        <time>2012-03-09T19:24:45Z</time>
      </trkpt>
      <trkpt lat="52.15972790" lon="9.132084970">
        <ele>214.90000</ele>
        <time>2012-03-09T19:24:45Z</time>
      </trkpt>
      <trkpt lat="52.15980860" lon="9.132254170">
        <ele>215.40000</ele>
        <time>2012-03-09T19:24:51Z</time>
      </trkpt>
      <trkpt lat="52.15992870" lon="9.132336740">
        <ele>216.80000</ele>
        <time>2012-03-09T19:24:56Z</time>
      </trkpt>
      <trkpt lat="52.16014240" lon="9.132376270">
        <ele>217.70000</ele>
        <time>2012-03-09T19:25:04Z</time>
      </trkpt>
      <trkpt lat="52.16027360" lon="9.132544600">
        <ele>215.90000</ele>
        <time>2012-03-09T19:25:11Z</time>
      </trkpt>
      <trkpt lat="52.16040960" lon="9.132795980">
        <ele>218.30000</ele>
        <time>2012-03-09T19:25:19Z</time>
      </trkpt>
      <trkpt lat="52.16045630" lon="9.132961010">
        <ele>216.50000</ele>
        <time>2012-03-09T19:25:24Z</time>
      </trkpt>
      <trkpt lat="52.16044750" lon="9.133181810">
        <ele>214.30000</ele>
        <time>2012-03-09T19:25:29Z</time>
      </trkpt>
      <trkpt lat="52.16051360" lon="9.133331650">
        <ele>213.10000</ele>
        <time>2012-03-09T19:25:34Z</time>
      </trkpt>
      <trkpt lat="52.16064820" lon="9.133529990">
        <ele>218.80000</ele>
        <time>2012-03-09T19:25:41Z</time>
      </trkpt>
      <trkpt lat="52.16076770" lon="9.133612880">
        <ele>222.60000</ele>
        <time>2012-03-09T19:25:46Z</time>
      </trkpt>
      <trkpt lat="52.16091880" lon="9.133688440">
        <ele>222.20000</ele>
        <time>2012-03-09T19:25:53Z</time>
      </trkpt>
      <trkpt lat="52.16095340" lon="9.133723860">
        <ele>219.00000</ele>
        <time>2012-03-09T19:25:54Z</time>
      </trkpt>
      <trkpt lat="52.16110160" lon="9.133766800">
        <ele>219.50000</ele>
        <time>2012-03-09T19:26:00Z</time>
      </trkpt>
      <trkpt lat="52.16121430" lon="9.133751690">
        <ele>219.00000</ele>
        <time>2012-03-09T19:26:05Z</time>
      </trkpt>
      <trkpt lat="52.16134410" lon="9.133793860">
        <ele>214.80000</ele>
        <time>2012-03-09T19:26:10Z</time>
      </trkpt>
      <trkpt lat="52.16141270" lon="9.133751740">
        <ele>214.40000</ele>
        <time>2012-03-09T19:26:13Z</time>
      </trkpt>
      <trkpt lat="52.16150360" lon="9.133803730">
        <ele>213.40000</ele>
        <time>2012-03-09T19:26:17Z</time>
      </trkpt>
      <trkpt lat="52.16162120" lon="9.133865780">
        <ele>212.10000</ele>
        <time>2012-03-09T19:26:22Z</time>
      </trkpt>
      <trkpt lat="52.16172230" lon="9.133776710">
        <ele>211.40000</ele>
        <time>2012-03-09T19:26:26Z</time>
      </trkpt>
      <trkpt lat="52.16179850" lon="9.133713670">
        <ele>212.10000</ele>
        <time>2012-03-09T19:26:30Z</time>
      </trkpt>
      <trkpt lat="52.16187250" lon="9.133497060">
        <ele>211.00000</ele>
        <time>2012-03-09T19:26:36Z</time>
      </trkpt>
      <trkpt lat="52.16200950" lon="9.133430890">
        <ele>208.50000</ele>
        <time>2012-03-09T19:26:42Z</time>
      </trkpt>
      <trkpt lat="52.16210750" lon="9.133343210">
        <ele>209.30000</ele>
        <time>2012-03-09T19:26:46Z</time>
      </trkpt>
      <trkpt lat="52.16222150" lon="9.133259720">
        <ele>210.60000</ele>
        <time>2012-03-09T19:26:51Z</time>
      </trkpt>
      <trkpt lat="52.16229620" lon="9.133127530">
        <ele>205.10000</ele>
        <time>2012-03-09T19:26:55Z</time>
      </trkpt>
      <trkpt lat="52.16241520" lon="9.133025530">
        <ele>204.60000</ele>
        <time>2012-03-09T19:27:01Z</time>
      </trkpt>
      <trkpt lat="52.16250690" lon="9.132948410">
        <ele>206.90000</ele>
        <time>2012-03-09T19:27:05Z</time>
      </trkpt>
      <trkpt lat="52.16262380" lon="9.132841230">
        <ele>207.30000</ele>
        <time>2012-03-09T19:27:10Z</time>
      </trkpt>
      <trkpt lat="52.16266950" lon="9.132768960">
        <ele>204.50000</ele>
        <time>2012-03-09T19:27:13Z</time>
      </trkpt>
      <trkpt lat="52.16281620" lon="9.132575170">
        <ele>205.90000</ele>
        <time>2012-03-09T19:27:20Z</time>
      </trkpt>
      <trkpt lat="52.16291160" lon="9.132504900">
        <ele>207.10000</ele>
        <time>2012-03-09T19:27:25Z</time>
      </trkpt>
      <trkpt lat="52.16300000" lon="9.132409990">
        <ele>206.80000</ele>
        <time>2012-03-09T19:27:29Z</time>
      </trkpt>
      <trkpt lat="52.16310480" lon="9.132370950">
        <ele>207.00000</ele>
        <time>2012-03-09T19:27:33Z</time>
      </trkpt>
      <trkpt lat="52.16318170" lon="9.132255120">
        <ele>204.50000</ele>
        <time>2012-03-09T19:27:37Z</time>
      </trkpt>
      <trkpt lat="52.16327520" lon="9.132094700">
        <ele>204.30000</ele>
        <time>2012-03-09T19:27:43Z</time>
      </trkpt>
      <trkpt lat="52.16335150" lon="9.132016170">
        <ele>203.00000</ele>
        <time>2012-03-09T19:27:46Z</time>
      </trkpt>
      <trkpt lat="52.16344470" lon="9.131939630">
        <ele>202.50000</ele>
        <time>2012-03-09T19:27:51Z</time>
      </trkpt>
      <trkpt lat="52.16348090" lon="9.131917890">
        <ele>199.70000</ele>
        <time>2012-03-09T19:27:52Z</time>
      </trkpt>
      <trkpt lat="52.16348220" lon="9.131923000">
        <ele>199.10000</ele>
        <time>2012-03-09T19:27:52Z</time>
      </trkpt>
      <trkpt lat="52.16352440" lon="9.132015100">
        <ele>199.10000</ele>
        <time>2012-03-09T19:27:55Z</time>
      </trkpt>
      <trkpt lat="52.16357480" lon="9.131885320">
        <ele>194.70000</ele>
        <time>2012-03-09T19:27:59Z</time>
      </trkpt>
      <trkpt lat="52.16366170" lon="9.131779270">
        <ele>200.40000</ele>
        <time>2012-03-09T19:28:03Z</time>
      </trkpt>
      <trkpt lat="52.16363960" lon="9.131825120">
        <ele>198.40000</ele>
        <time>2012-03-09T19:28:05Z</time>
      </trkpt>
      <trkpt lat="52.16366070" lon="9.131825730">
        <ele>199.20000</ele>
        <time>2012-03-09T19:28:06Z</time>
      </trkpt>
      <trkpt lat="52.16365260" lon="9.131842330">
        <ele>198.00000</ele>
        <time>2012-03-09T19:28:06Z</time>
      </trkpt>
      <trkpt lat="52.16372920" lon="9.131807910">
        <ele>192.90000</ele>
        <time>2012-03-09T19:28:09Z</time>
      </trkpt>
      <trkpt lat="52.16388000" lon="9.131645700">
        <ele>190.50000</ele>
        <time>2012-03-09T19:28:16Z</time>
      </trkpt>
      <trkpt lat="52.16395220" lon="9.131506180">
        <ele>189.90000</ele>
        <time>2012-03-09T19:28:21Z</time>
      </trkpt>
      <trkpt lat="52.16407430" lon="9.131218300">
        <ele>194.80000</ele>
        <time>2012-03-09T19:28:30Z</time>
      </trkpt>
      <trkpt lat="52.16414330" lon="9.131082110">
        <ele>192.40000</ele>
        <time>2012-03-09T19:28:34Z</time>
      </trkpt>
      <trkpt lat="52.16418130" lon="9.130845690">
        <ele>191.60000</ele>
        <time>2012-03-09T19:28:40Z</time>
      </trkpt>
      <trkpt lat="52.16416820" lon="9.130699320">
        <ele>185.30000</ele>
        <time>2012-03-09T19:28:44Z</time>
      </trkpt>
      <trkpt lat="52.16425570" lon="9.130428220">
        <ele>188.50000</ele>
        <time>2012-03-09T19:28:51Z</time>
      </trkpt>
      <trkpt lat="52.16424150" lon="9.130210600">
        <ele>189.90000</ele>
        <time>2012-03-09T19:28:56Z</time>
      </trkpt>
      <trkpt lat="52.16427990" lon="9.130066340">
        <ele>190.20000</ele>
        <time>2012-03-09T19:29:00Z</time>
      </trkpt>
      <trkpt lat="52.16432990" lon="9.129948550">
        <ele>189.80000</ele>
        <time>2012-03-09T19:29:04Z</time>
      </trkpt>
      <trkpt lat="52.16440510" lon="9.129725590">
        <ele>190.90000</ele>
        <time>2012-03-09T19:29:10Z</time>
      </trkpt>
      <trkpt lat="52.16438380" lon="9.129668810">
        <ele>188.20000</ele>
        <time>2012-03-09T19:29:12Z</time>
      </trkpt>
      <trkpt lat="52.16448360" lon="9.129518050">
        <ele>184.60000</ele>
        <time>2012-03-09T19:29:17Z</time>
      </trkpt>
      <trkpt lat="52.16451580" lon="9.129510600">
        <ele>181.20000</ele>
        <time>2012-03-09T19:29:18Z</time>
      </trkpt>
      <trkpt lat="52.16457810" lon="9.129306370">
        <ele>181.90000</ele>
        <time>2012-03-09T19:29:24Z</time>
      </trkpt>
      <trkpt lat="52.16459910" lon="9.129120160">
        <ele>180.20000</ele>
        <time>2012-03-09T19:29:29Z</time>
      </trkpt>
      <trkpt lat="52.16462650" lon="9.128942390">
        <ele>176.70000</ele>
        <time>2012-03-09T19:29:33Z</time>
      </trkpt>
      <trkpt lat="52.16464760" lon="9.128764560">
        <ele>175.70000</ele>
        <time>2012-03-09T19:29:38Z</time>
      </trkpt>
      <trkpt lat="52.16471230" lon="9.128617940">
        <ele>177.60000</ele>
        <time>2012-03-09T19:29:42Z</time>
      </trkpt>
      <trkpt lat="52.16478210" lon="9.128418190">
        <ele>181.50000</ele>
        <time>2012-03-09T19:29:48Z</time>
      </trkpt>
      <trkpt lat="52.16478230" lon="9.128138350">
        <ele>181.30000</ele>
        <time>2012-03-09T19:29:55Z</time>
      </trkpt>
      <trkpt lat="52.16481550" lon="9.128188480">
        <ele>174.10000</ele>
        <time>2012-03-09T19:29:56Z</time>
      </trkpt>
      <trkpt lat="52.16477970" lon="9.128345790">
        <ele>169.70000</ele>
        <time>2012-03-09T19:30:00Z</time>
      </trkpt>
      <trkpt lat="52.16477930" lon="9.128347440">
        <ele>169.70000</ele>
        <time>2012-03-09T19:30:01Z</time>
      </trkpt>
      <trkpt lat="52.16477960" lon="9.128349600">
        <ele>169.60000</ele>
        <time>2012-03-09T19:30:01Z</time>
      </trkpt>
      <trkpt lat="52.16477950" lon="9.128351580">
        <ele>169.50000</ele>
        <time>2012-03-09T19:30:01Z</time>
      </trkpt>
      <trkpt lat="52.16483300" lon="9.128286620">
        <ele>168.40000</ele>
        <time>2012-03-09T19:30:03Z</time>
      </trkpt>
      <trkpt lat="52.16483720" lon="9.128083160">
        <ele>169.10000</ele>
        <time>2012-03-09T19:30:08Z</time>
      </trkpt>
      <trkpt lat="52.16486090" lon="9.127857570">
        <ele>169.80000</ele>
        <time>2012-03-09T19:30:14Z</time>
      </trkpt>
      <trkpt lat="52.16493500" lon="9.127753660">
        <ele>170.10000</ele>
        <time>2012-03-09T19:30:18Z</time>
      </trkpt>
      <trkpt lat="52.16497250" lon="9.127551260">
        <ele>165.10000</ele>
        <time>2012-03-09T19:30:23Z</time>
      </trkpt>
      <trkpt lat="52.16497130" lon="9.127309030">
        <ele>166.20000</ele>
        <time>2012-03-09T19:30:29Z</time>
      </trkpt>
      <trkpt lat="52.16503100" lon="9.127143610">
        <ele>164.90000</ele>
        <time>2012-03-09T19:30:34Z</time>
      </trkpt>
      <trkpt lat="52.16505590" lon="9.127021310">
        <ele>161.80000</ele>
        <time>2012-03-09T19:30:37Z</time>
      </trkpt>
      <trkpt lat="52.16512670" lon="9.126849600">
        <ele>163.60000</ele>
        <time>2012-03-09T19:30:42Z</time>
      </trkpt>
      <trkpt lat="52.16518090" lon="9.126725480">
        <ele>162.20000</ele>
        <time>2012-03-09T19:30:46Z</time>
      </trkpt>
      <trkpt lat="52.16519960" lon="9.126468810">
        <ele>161.90000</ele>
        <time>2012-03-09T19:30:52Z</time>
      </trkpt>
      <trkpt lat="52.16522050" lon="9.126311030">
        <ele>162.40000</ele>
        <time>2012-03-09T19:30:56Z</time>
      </trkpt>
      <trkpt lat="52.16521100" lon="9.126000910">
        <ele>162.00000</ele>
        <time>2012-03-09T19:31:04Z</time>
      </trkpt>
      <trkpt lat="52.16525200" lon="9.125879110">
        <ele>164.50000</ele>
        <time>2012-03-09T19:31:07Z</time>
      </trkpt>
      <trkpt lat="52.16527930" lon="9.125870380">
        <ele>161.80000</ele>
        <time>2012-03-09T19:31:08Z</time>
      </trkpt>
      <trkpt lat="52.16526430" lon="9.125953310">
        <ele>159.20000</ele>
        <time>2012-03-09T19:31:10Z</time>
      </trkpt>
      <trkpt lat="52.16526640" lon="9.125951600">
        <ele>159.50000</ele>
        <time>2012-03-09T19:31:10Z</time>
      </trkpt>
      <trkpt lat="52.16527890" lon="9.126003300">
        <ele>154.60000</ele>
        <time>2012-03-09T19:31:12Z</time>
      </trkpt>
      <trkpt lat="52.16527140" lon="9.125984260">
        <ele>155.20000</ele>
        <time>2012-03-09T19:31:12Z</time>
      </trkpt>
      <trkpt lat="52.16528870" lon="9.125989070">
        <ele>156.20000</ele>
        <time>2012-03-09T19:31:13Z</time>
      </trkpt>
      <trkpt lat="52.16530120" lon="9.125977050">
        <ele>153.20000</ele>
        <time>2012-03-09T19:31:14Z</time>
      </trkpt>
      <trkpt lat="52.16530170" lon="9.125975560">
        <ele>154.20000</ele>
        <time>2012-03-09T19:31:14Z</time>
      </trkpt>
      <trkpt lat="52.16530190" lon="9.125975400">
        <ele>154.20000</ele>
        <time>2012-03-09T19:31:14Z</time>
      </trkpt>
      <trkpt lat="52.16530210" lon="9.125975130">
        <ele>154.20000</ele>
        <time>2012-03-09T19:31:14Z</time>
      </trkpt>
      <trkpt lat="52.16528790" lon="9.125994800">
        <ele>155.30000</ele>
        <time>2012-03-09T19:31:14Z</time>
      </trkpt>
      <trkpt lat="52.16527860" lon="9.126007050">
        <ele>154.60000</ele>
        <time>2012-03-09T19:31:15Z</time>
      </trkpt>
      <trkpt lat="52.16527880" lon="9.126006650">
        <ele>154.50000</ele>
        <time>2012-03-09T19:31:15Z</time>
      </trkpt>
      <trkpt lat="52.16527910" lon="9.126005930">
        <ele>154.50000</ele>
        <time>2012-03-09T19:31:15Z</time>
      </trkpt>
      <trkpt lat="52.16527940" lon="9.126005680">
        <ele>154.50000</ele>
        <time>2012-03-09T19:31:15Z</time>
      </trkpt>
      <trkpt lat="52.16527930" lon="9.126005620">
        <ele>154.50000</ele>
        <time>2012-03-09T19:31:15Z</time>
      </trkpt>
      <trkpt lat="52.16527890" lon="9.126005320">
        <ele>154.50000</ele>
        <time>2012-03-09T19:31:15Z</time>
      </trkpt>
      <trkpt lat="52.16527850" lon="9.126004900">
        <ele>154.60000</ele>
        <time>2012-03-09T19:31:15Z</time>
      </trkpt>
      <trkpt lat="52.16527850" lon="9.126004540">
        <ele>154.60000</ele>
        <time>2012-03-09T19:31:15Z</time>
      </trkpt>
      <trkpt lat="52.16527830" lon="9.126004290">
        <ele>154.60000</ele>
        <time>2012-03-09T19:31:15Z</time>
      </trkpt>
      <trkpt lat="52.16527830" lon="9.126004240">
        <ele>154.60000</ele>
        <time>2012-03-09T19:31:15Z</time>
      </trkpt>
      <trkpt lat="52.16527820" lon="9.126004170">
        <ele>154.60000</ele>
        <time>2012-03-09T19:31:15Z</time>
      </trkpt>
      <trkpt lat="52.16527820" lon="9.126004130">
        <ele>154.60000</ele>
        <time>2012-03-09T19:31:15Z</time>
      </trkpt>
      <trkpt lat="52.16527850" lon="9.126003950">
        <ele>154.70000</ele>
        <time>2012-03-09T19:31:15Z</time>
      </trkpt>
      <trkpt lat="52.16527870" lon="9.126003790">
        <ele>154.60000</ele>
        <time>2012-03-09T19:31:15Z</time>
      </trkpt>
      <trkpt lat="52.16527890" lon="9.126003730">
        <ele>154.60000</ele>
        <time>2012-03-09T19:31:15Z</time>
      </trkpt>
      <trkpt lat="52.16527890" lon="9.126003690">
        <ele>154.60000</ele>
        <time>2012-03-09T19:31:15Z</time>
      </trkpt>
      <trkpt lat="52.16527890" lon="9.126003590">
        <ele>154.70000</ele>
        <time>2012-03-09T19:31:15Z</time>
      </trkpt>
      <trkpt lat="52.16527900" lon="9.126003510">
        <ele>154.70000</ele>
        <time>2012-03-09T19:31:15Z</time>
      </trkpt>
      <trkpt lat="52.16527890" lon="9.126003660">
        <ele>154.70000</ele>
        <time>2012-03-09T19:31:15Z</time>
      </trkpt>
      <trkpt lat="52.16527910" lon="9.126003770">
        <ele>154.60000</ele>
        <time>2012-03-09T19:31:15Z</time>
      </trkpt>
      <trkpt lat="52.16527960" lon="9.126003490">
        <ele>154.60000</ele>
        <time>2012-03-09T19:31:15Z</time>
      </trkpt>
      <trkpt lat="52.16527990" lon="9.126003340">
        <ele>154.60000</ele>
        <time>2012-03-09T19:31:15Z</time>
      </trkpt>
      <trkpt lat="52.16528030" lon="9.126003190">
        <ele>154.60000</ele>
        <time>2012-03-09T19:31:15Z</time>
      </trkpt>
      <trkpt lat="52.16528060" lon="9.126002900">
        <ele>154.60000</ele>
        <time>2012-03-09T19:31:15Z</time>
      </trkpt>
      <trkpt lat="52.16528060" lon="9.126002730">
        <ele>154.60000</ele>
        <time>2012-03-09T19:31:15Z</time>
      </trkpt>
      <trkpt lat="52.16528060" lon="9.126002490">
        <ele>154.60000</ele>
        <time>2012-03-09T19:31:15Z</time>
      </trkpt>
      <trkpt lat="52.16528050" lon="9.126002420">
        <ele>154.60000</ele>
        <time>2012-03-09T19:31:15Z</time>
      </trkpt>
      <trkpt lat="52.16528030" lon="9.126002420">
        <ele>154.60000</ele>
        <time>2012-03-09T19:31:15Z</time>
      </trkpt>
      <trkpt lat="52.16528000" lon="9.126002310">
        <ele>154.60000</ele>
        <time>2012-03-09T19:31:15Z</time>
      </trkpt>
      <trkpt lat="52.16528000" lon="9.126002210">
        <ele>154.60000</ele>
        <time>2012-03-09T19:31:15Z</time>
      </trkpt>
      <trkpt lat="52.16527990" lon="9.126002150">
        <ele>154.60000</ele>
        <time>2012-03-09T19:31:15Z</time>
      </trkpt>
      <trkpt lat="52.16527990" lon="9.126002200">
        <ele>154.60000</ele>
        <time>2012-03-09T19:31:15Z</time>
      </trkpt>
      <trkpt lat="52.16527990" lon="9.126002270">
        <ele>154.60000</ele>
        <time>2012-03-09T19:31:15Z</time>
      </trkpt>
      <trkpt lat="52.16527970" lon="9.126002300">
        <ele>154.60000</ele>
        <time>2012-03-09T19:31:15Z</time>
      </trkpt>
      <trkpt lat="52.16527950" lon="9.126002270">
        <ele>154.60000</ele>
        <time>2012-03-09T19:31:15Z</time>
      </trkpt>
      <trkpt lat="52.16527940" lon="9.126002540">
        <ele>154.60000</ele>
        <time>2012-03-09T19:31:15Z</time>
      </trkpt>
      <trkpt lat="52.16527940" lon="9.126002300">
        <ele>154.60000</ele>
        <time>2012-03-09T19:31:15Z</time>
      </trkpt>
      <trkpt lat="52.16527950" lon="9.126002000">
        <ele>154.60000</ele>
        <time>2012-03-09T19:31:15Z</time>
      </trkpt>
      <trkpt lat="52.16527930" lon="9.126002020">
        <ele>154.50000</ele>
        <time>2012-03-09T19:31:15Z</time>
      </trkpt>
      <trkpt lat="52.16527950" lon="9.126001830">
        <ele>154.50000</ele>
        <time>2012-03-09T19:31:15Z</time>
      </trkpt>
      <trkpt lat="52.16527980" lon="9.126001790">
        <ele>154.50000</ele>
        <time>2012-03-09T19:31:15Z</time>
      </trkpt>
      <trkpt lat="52.16527990" lon="9.126001970">
        <ele>154.50000</ele>
        <time>2012-03-09T19:31:15Z</time>
      </trkpt>
      <trkpt lat="52.16528000" lon="9.126002160">
        <ele>154.50000</ele>
        <time>2012-03-09T19:31:15Z</time>
      </trkpt>
      <trkpt lat="52.16528030" lon="9.126002020">
        <ele>154.50000</ele>
        <time>2012-03-09T19:31:15Z</time>
      </trkpt>
      <trkpt lat="52.16528040" lon="9.126002010">
        <ele>154.50000</ele>
        <time>2012-03-09T19:31:15Z</time>
      </trkpt>
      <trkpt lat="52.16528040" lon="9.126002030">
        <ele>154.50000</ele>
        <time>2012-03-09T19:31:15Z</time>
      </trkpt>
      <trkpt lat="52.16528060" lon="9.126001930">
        <ele>154.50000</ele>
        <time>2012-03-09T19:31:15Z</time>
      </trkpt>
      <trkpt lat="52.16528080" lon="9.126001920">
        <ele>154.60000</ele>
        <time>2012-03-09T19:31:15Z</time>
      </trkpt>
      <trkpt lat="52.16528100" lon="9.126001870">
        <ele>154.60000</ele>
        <time>2012-03-09T19:31:15Z</time>
      </trkpt>
      <trkpt lat="52.16528100" lon="9.126001980">
        <ele>154.60000</ele>
        <time>2012-03-09T19:31:15Z</time>
      </trkpt>
      <trkpt lat="52.16528100" lon="9.126002030">
        <ele>154.60000</ele>
        <time>2012-03-09T19:31:15Z</time>
      </trkpt>
      <trkpt lat="52.16528090" lon="9.126001980">
        <ele>154.60000</ele>
        <time>2012-03-09T19:31:15Z</time>
      </trkpt>
      <trkpt lat="52.16528090" lon="9.126002020">
        <ele>154.60000</ele>
        <time>2012-03-09T19:31:15Z</time>
      </trkpt>
      <trkpt lat="52.16528110" lon="9.126001990">
        <ele>154.60000</ele>
        <time>2012-03-09T19:31:15Z</time>
      </trkpt>
      <trkpt lat="52.16528110" lon="9.126002040">
        <ele>154.60000</ele>
        <time>2012-03-09T19:31:15Z</time>
      </trkpt>
      <trkpt lat="52.16528090" lon="9.126002150">
        <ele>154.60000</ele>
        <time>2012-03-09T19:31:15Z</time>
      </trkpt>
      <trkpt lat="52.16528120" lon="9.126002020">
        <ele>154.60000</ele>
        <time>2012-03-09T19:31:15Z</time>
      </trkpt>
      <trkpt lat="52.16528130" lon="9.126001940">
        <ele>154.60000</ele>
        <time>2012-03-09T19:31:15Z</time>
      </trkpt>
      <trkpt lat="52.16528120" lon="9.126001910">
        <ele>154.60000</ele>
        <time>2012-03-09T19:31:15Z</time>
      </trkpt>
      <trkpt lat="52.16528110" lon="9.126001950">
        <ele>154.60000</ele>
        <time>2012-03-09T19:31:15Z</time>
      </trkpt>
      <trkpt lat="52.16528110" lon="9.126002050">
        <ele>154.60000</ele>
        <time>2012-03-09T19:31:15Z</time>
      </trkpt>
      <trkpt lat="52.16528110" lon="9.126002110">
        <ele>154.60000</ele>
        <time>2012-03-09T19:31:15Z</time>
      </trkpt>
      <trkpt lat="52.16528120" lon="9.126002030">
        <ele>154.60000</ele>
        <time>2012-03-09T19:31:15Z</time>
      </trkpt>
      <trkpt lat="52.16528130" lon="9.126001970">
        <ele>154.60000</ele>
        <time>2012-03-09T19:31:15Z</time>
      </trkpt>
      <trkpt lat="52.16528130" lon="9.126002100">
        <ele>154.60000</ele>
        <time>2012-03-09T19:31:15Z</time>
      </trkpt>
      <trkpt lat="52.16528100" lon="9.126002370">
        <ele>154.60000</ele>
        <time>2012-03-09T19:31:15Z</time>
      </trkpt>
      <trkpt lat="52.16529820" lon="9.126008980">
        <ele>154.30000</ele>
        <time>2012-03-09T19:31:16Z</time>
      </trkpt>
      <trkpt lat="52.16529780" lon="9.126010160">
        <ele>154.40000</ele>
        <time>2012-03-09T19:31:16Z</time>
      </trkpt>
      <trkpt lat="52.16529810" lon="9.126010000">
        <ele>154.40000</ele>
        <time>2012-03-09T19:31:16Z</time>
      </trkpt>
      <trkpt lat="52.16529840" lon="9.126009360">
        <ele>154.40000</ele>
        <time>2012-03-09T19:31:16Z</time>
      </trkpt>
      <trkpt lat="52.16529800" lon="9.126009030">
        <ele>154.40000</ele>
        <time>2012-03-09T19:31:16Z</time>
      </trkpt>
      <trkpt lat="52.16529840" lon="9.126007880">
        <ele>154.40000</ele>
        <time>2012-03-09T19:31:16Z</time>
      </trkpt>
      <trkpt lat="52.16529860" lon="9.126007030">
        <ele>154.50000</ele>
        <time>2012-03-09T19:31:16Z</time>
      </trkpt>
      <trkpt lat="52.16529880" lon="9.126006580">
        <ele>154.60000</ele>
        <time>2012-03-09T19:31:16Z</time>
      </trkpt>
      <trkpt lat="52.16529900" lon="9.126005900">
        <ele>154.70000</ele>
        <time>2012-03-09T19:31:16Z</time>
      </trkpt>
      <trkpt lat="52.16529880" lon="9.126005270">
        <ele>154.70000</ele>
        <time>2012-03-09T19:31:16Z</time>
      </trkpt>
      <trkpt lat="52.16529840" lon="9.126004300">
        <ele>154.70000</ele>
        <time>2012-03-09T19:31:16Z</time>
      </trkpt>
      <trkpt lat="52.16529770" lon="9.126004070">
        <ele>154.70000</ele>
        <time>2012-03-09T19:31:16Z</time>
      </trkpt>
      <trkpt lat="52.16529680" lon="9.126004330">
        <ele>154.50000</ele>
        <time>2012-03-09T19:31:16Z</time>
      </trkpt>
      <trkpt lat="52.16529640" lon="9.126004520">
        <ele>154.50000</ele>
        <time>2012-03-09T19:31:16Z</time>
      </trkpt>
      <trkpt lat="52.16529620" lon="9.126004280">
        <ele>154.50000</ele>
        <time>2012-03-09T19:31:16Z</time>
      </trkpt>
      <trkpt lat="52.16529590" lon="9.126005240">
        <ele>154.40000</ele>
        <time>2012-03-09T19:31:16Z</time>
      </trkpt>
      <trkpt lat="52.16529560" lon="9.126005010">
        <ele>154.40000</ele>
        <time>2012-03-09T19:31:16Z</time>
      </trkpt>
      <trkpt lat="52.16529570" lon="9.126004180">
        <ele>154.40000</ele>
        <time>2012-03-09T19:31:16Z</time>
      </trkpt>
      <trkpt lat="52.16529560" lon="9.126003330">
        <ele>154.50000</ele>
        <time>2012-03-09T19:31:16Z</time>
      </trkpt>
      <trkpt lat="52.16529580" lon="9.126002580">
        <ele>154.50000</ele>
        <time>2012-03-09T19:31:16Z</time>
      </trkpt>
      <trkpt lat="52.16529560" lon="9.126002180">
        <ele>154.50000</ele>
        <time>2012-03-09T19:31:16Z</time>
      </trkpt>
      <trkpt lat="52.16529540" lon="9.126002010">
        <ele>154.40000</ele>
        <time>2012-03-09T19:31:16Z</time>
      </trkpt>
      <trkpt lat="52.16529540" lon="9.126003220">
        <ele>154.40000</ele>
        <time>2012-03-09T19:31:16Z</time>
      </trkpt>
      <trkpt lat="52.16529540" lon="9.126003360">
        <ele>154.30000</ele>
        <time>2012-03-09T19:31:16Z</time>
      </trkpt>
      <trkpt lat="52.16529530" lon="9.126003730">
        <ele>154.30000</ele>
        <time>2012-03-09T19:31:16Z</time>
      </trkpt>
      <trkpt lat="52.16529510" lon="9.126004520">
        <ele>154.40000</ele>
        <time>2012-03-09T19:31:16Z</time>
      </trkpt>
      <trkpt lat="52.16529480" lon="9.126004670">
        <ele>154.30000</ele>
        <time>2012-03-09T19:31:16Z</time>
      </trkpt>
      <trkpt lat="52.16529470" lon="9.126004670">
        <ele>154.30000</ele>
        <time>2012-03-09T19:31:16Z</time>
      </trkpt>
      <trkpt lat="52.16529450" lon="9.126004820">
        <ele>154.30000</ele>
        <time>2012-03-09T19:31:16Z</time>
      </trkpt>
      <trkpt lat="52.16529430" lon="9.126004980">
        <ele>154.30000</ele>
        <time>2012-03-09T19:31:16Z</time>
      </trkpt>
      <trkpt lat="52.16529430" lon="9.126004700">
        <ele>154.40000</ele>
        <time>2012-03-09T19:31:16Z</time>
      </trkpt>
      <trkpt lat="52.16529420" lon="9.126004600">
        <ele>154.40000</ele>
        <time>2012-03-09T19:31:16Z</time>
      </trkpt>
      <trkpt lat="52.16529400" lon="9.126004940">
        <ele>154.30000</ele>
        <time>2012-03-09T19:31:16Z</time>
      </trkpt>
      <trkpt lat="52.16529410" lon="9.126004680">
        <ele>154.30000</ele>
        <time>2012-03-09T19:31:16Z</time>
      </trkpt>
      <trkpt lat="52.16529330" lon="9.126004940">
        <ele>154.30000</ele>
        <time>2012-03-09T19:31:16Z</time>
      </trkpt>
      <trkpt lat="52.16529350" lon="9.126005200">
        <ele>154.30000</ele>
        <time>2012-03-09T19:31:16Z</time>
      </trkpt>
      <trkpt lat="52.16529340" lon="9.126004910">
        <ele>154.40000</ele>
        <time>2012-03-09T19:31:16Z</time>
      </trkpt>
      <trkpt lat="52.16529370" lon="9.126004690">
        <ele>154.50000</ele>
        <time>2012-03-09T19:31:16Z</time>
      </trkpt>
      <trkpt lat="52.16529410" lon="9.126004540">
        <ele>154.60000</ele>
        <time>2012-03-09T19:31:16Z</time>
      </trkpt>
      <trkpt lat="52.16529450" lon="9.126004370">
        <ele>154.70000</ele>
        <time>2012-03-09T19:31:16Z</time>
      </trkpt>
      <trkpt lat="52.16529470" lon="9.126004360">
        <ele>154.70000</ele>
        <time>2012-03-09T19:31:16Z</time>
      </trkpt>
      <trkpt lat="52.16529470" lon="9.126004300">
        <ele>154.70000</ele>
        <time>2012-03-09T19:31:16Z</time>
      </trkpt>
      <trkpt lat="52.16529460" lon="9.126004410">
        <ele>154.70000</ele>
        <time>2012-03-09T19:31:16Z</time>
      </trkpt>
      <trkpt lat="52.16529450" lon="9.126004730">
        <ele>154.80000</ele>
        <time>2012-03-09T19:31:16Z</time>
      </trkpt>
      <trkpt lat="52.16529460" lon="9.126004550">
        <ele>154.90000</ele>
        <time>2012-03-09T19:31:16Z</time>
      </trkpt>
      <trkpt lat="52.16529450" lon="9.126004700">
        <ele>154.90000</ele>
        <time>2012-03-09T19:31:16Z</time>
      </trkpt>
      <trkpt lat="52.16529430" lon="9.126004800">
        <ele>154.90000</ele>
        <time>2012-03-09T19:31:16Z</time>
      </trkpt>
      <trkpt lat="52.16529430" lon="9.126005100">
        <ele>155.00000</ele>
        <time>2012-03-09T19:31:16Z</time>
      </trkpt>
      <trkpt lat="52.16529400" lon="9.126004890">
        <ele>155.00000</ele>
        <time>2012-03-09T19:31:16Z</time>
      </trkpt>
      <trkpt lat="52.16529370" lon="9.126004720">
        <ele>155.00000</ele>
        <time>2012-03-09T19:31:16Z</time>
      </trkpt>
      <trkpt lat="52.16529350" lon="9.126004660">
        <ele>155.00000</ele>
        <time>2012-03-09T19:31:16Z</time>
      </trkpt>
      <trkpt lat="52.16529360" lon="9.126004680">
        <ele>155.00000</ele>
        <time>2012-03-09T19:31:16Z</time>
      </trkpt>
      <trkpt lat="52.16529360" lon="9.126004530">
        <ele>155.00000</ele>
        <time>2012-03-09T19:31:16Z</time>
      </trkpt>
      <trkpt lat="52.16529350" lon="9.126004600">
        <ele>155.00000</ele>
        <time>2012-03-09T19:31:16Z</time>
      </trkpt>
      <trkpt lat="52.16529310" lon="9.126004460">
        <ele>155.00000</ele>
        <time>2012-03-09T19:31:16Z</time>
      </trkpt>
      <trkpt lat="52.16529300" lon="9.126004420">
        <ele>155.00000</ele>
        <time>2012-03-09T19:31:16Z</time>
      </trkpt>
      <trkpt lat="52.16529300" lon="9.126004430">
        <ele>155.10000</ele>
        <time>2012-03-09T19:31:16Z</time>
      </trkpt>
      <trkpt lat="52.16529290" lon="9.126004690">
        <ele>155.10000</ele>
        <time>2012-03-09T19:31:16Z</time>
      </trkpt>
      <trkpt lat="52.16529270" lon="9.126004570">
        <ele>155.10000</ele>
        <time>2012-03-09T19:31:16Z</time>
      </trkpt>
      <trkpt lat="52.16529280" lon="9.126004690">
        <ele>155.10000</ele>
        <time>2012-03-09T19:31:16Z</time>
      </trkpt>
      <trkpt lat="52.16529280" lon="9.126004750">
        <ele>155.10000</ele>
        <time>2012-03-09T19:31:16Z</time>
      </trkpt>
      <trkpt lat="52.16529290" lon="9.126004980">
        <ele>155.10000</ele>
        <time>2012-03-09T19:31:16Z</time>
      </trkpt>
      <trkpt lat="52.16529290" lon="9.126005020">
        <ele>155.10000</ele>
        <time>2012-03-09T19:31:16Z</time>
      </trkpt>
      <trkpt lat="52.16529290" lon="9.126005050">
        <ele>155.10000</ele>
        <time>2012-03-09T19:31:16Z</time>
      </trkpt>
      <trkpt lat="52.16529280" lon="9.126005430">
        <ele>155.00000</ele>
        <time>2012-03-09T19:31:16Z</time>
      </trkpt>
      <trkpt lat="52.16529280" lon="9.126005590">
        <ele>155.10000</ele>
        <time>2012-03-09T19:31:16Z</time>
      </trkpt>
      <trkpt lat="52.16529290" lon="9.126005980">
        <ele>155.00000</ele>
        <time>2012-03-09T19:31:16Z</time>
      </trkpt>
      <trkpt lat="52.16529200" lon="9.126007570">
        <ele>155.00000</ele>
        <time>2012-03-09T19:31:16Z</time>
      </trkpt>
      <trkpt lat="52.16529120" lon="9.126009010">
        <ele>154.80000</ele>
        <time>2012-03-09T19:31:16Z</time>
      </trkpt>
      <trkpt lat="52.16529050" lon="9.126010490">
        <ele>154.70000</ele>
        <time>2012-03-09T19:31:16Z</time>
      </trkpt>
      <trkpt lat="52.16529020" lon="9.126012920">
        <ele>154.60000</ele>
        <time>2012-03-09T19:31:16Z</time>
      </trkpt>
      <trkpt lat="52.16528910" lon="9.126013460">
        <ele>154.50000</ele>
        <time>2012-03-09T19:31:17Z</time>
      </trkpt>
      <trkpt lat="52.16528900" lon="9.126013750">
        <ele>154.50000</ele>
        <time>2012-03-09T19:31:17Z</time>
      </trkpt>
      <trkpt lat="52.16528910" lon="9.126014140">
        <ele>154.40000</ele>
        <time>2012-03-09T19:31:17Z</time>
      </trkpt>
      <trkpt lat="52.16529030" lon="9.126015110">
        <ele>154.50000</ele>
        <time>2012-03-09T19:31:17Z</time>
      </trkpt>
      <trkpt lat="52.16528860" lon="9.126016330">
        <ele>154.30000</ele>
        <time>2012-03-09T19:31:17Z</time>
      </trkpt>
      <trkpt lat="52.16528700" lon="9.126016730">
        <ele>154.10000</ele>
        <time>2012-03-09T19:31:17Z</time>
      </trkpt>
      <trkpt lat="52.16528490" lon="9.126017200">
        <ele>153.90000</ele>
        <time>2012-03-09T19:31:17Z</time>
      </trkpt>
      <trkpt lat="52.16528450" lon="9.126017540">
        <ele>153.90000</ele>
        <time>2012-03-09T19:31:17Z</time>
      </trkpt>
      <trkpt lat="52.16530180" lon="9.126062270">
        <ele>157.20000</ele>
        <time>2012-03-09T19:31:18Z</time>
      </trkpt>
      <trkpt lat="52.16529320" lon="9.126030460">
        <ele>158.50000</ele>
        <time>2012-03-09T19:31:19Z</time>
      </trkpt>
      <trkpt lat="52.16529330" lon="9.126030120">
        <ele>158.50000</ele>
        <time>2012-03-09T19:31:19Z</time>
      </trkpt>
      <trkpt lat="52.16526440" lon="9.126063860">
        <ele>158.30000</ele>
        <time>2012-03-09T19:31:20Z</time>
      </trkpt>
      <trkpt lat="52.16528960" lon="9.125920800">
        <ele>155.90000</ele>
        <time>2012-03-09T19:31:24Z</time>
      </trkpt>
      <trkpt lat="52.16528720" lon="9.125761470">
        <ele>155.50000</ele>
        <time>2012-03-09T19:31:28Z</time>
      </trkpt>
      <trkpt lat="52.16527570" lon="9.125651580">
        <ele>156.50000</ele>
        <time>2012-03-09T19:31:31Z</time>
      </trkpt>
      <trkpt lat="52.16527930" lon="9.125486830">
        <ele>154.30000</ele>
        <time>2012-03-09T19:31:35Z</time>
      </trkpt>
      <trkpt lat="52.16529330" lon="9.125323870">
        <ele>153.50000</ele>
        <time>2012-03-09T19:31:39Z</time>
      </trkpt>
      <trkpt lat="52.16528950" lon="9.125147120">
        <ele>152.70000</ele>
        <time>2012-03-09T19:31:43Z</time>
      </trkpt>
      <trkpt lat="52.16528660" lon="9.124890260">
        <ele>152.70000</ele>
        <time>2012-03-09T19:31:49Z</time>
      </trkpt>
      <trkpt lat="52.16527470" lon="9.124778620">
        <ele>151.90000</ele>
        <time>2012-03-09T19:31:52Z</time>
      </trkpt>
      <trkpt lat="52.16524770" lon="9.124743320">
        <ele>151.00000</ele>
        <time>2012-03-09T19:31:54Z</time>
      </trkpt>
      <trkpt lat="52.16522170" lon="9.124494220">
        <ele>152.10000</ele>
        <time>2012-03-09T19:32:00Z</time>
      </trkpt>
      <trkpt lat="52.16523960" lon="9.124304110">
        <ele>155.90000</ele>
        <time>2012-03-09T19:32:05Z</time>
      </trkpt>
      <trkpt lat="52.16525580" lon="9.124127400">
        <ele>157.70000</ele>
        <time>2012-03-09T19:32:09Z</time>
      </trkpt>
      <trkpt lat="52.16526730" lon="9.123956170">
        <ele>148.50000</ele>
        <time>2012-03-09T19:32:13Z</time>
      </trkpt>
      <trkpt lat="52.16529470" lon="9.123759470">
        <ele>145.30000</ele>
        <time>2012-03-09T19:32:18Z</time>
      </trkpt>
      <trkpt lat="52.16535860" lon="9.123630260">
        <ele>145.90000</ele>
        <time>2012-03-09T19:32:22Z</time>
      </trkpt>
      <trkpt lat="52.16535400" lon="9.123309160">
        <ele>144.00000</ele>
        <time>2012-03-09T19:32:30Z</time>
      </trkpt>
      <trkpt lat="52.16536610" lon="9.123141820">
        <ele>147.80000</ele>
        <time>2012-03-09T19:32:34Z</time>
      </trkpt>
      <trkpt lat="52.16536890" lon="9.122991230">
        <ele>141.40000</ele>
        <time>2012-03-09T19:32:38Z</time>
      </trkpt>
      <trkpt lat="52.16538410" lon="9.122902070">
        <ele>141.30000</ele>
        <time>2012-03-09T19:32:40Z</time>
      </trkpt>
      <trkpt lat="52.16540210" lon="9.122724700">
        <ele>144.90000</ele>
        <time>2012-03-09T19:32:45Z</time>
      </trkpt>
      <trkpt lat="52.16540220" lon="9.122638340">
        <ele>148.10000</ele>
        <time>2012-03-09T19:32:47Z</time>
      </trkpt>
      <trkpt lat="52.16531070" lon="9.122834560">
        <ele>140.40000</ele>
        <time>2012-03-09T19:32:53Z</time>
      </trkpt>
      <trkpt lat="52.16526240" lon="9.122650120">
        <ele>138.10000</ele>
        <time>2012-03-09T19:32:58Z</time>
      </trkpt>
      <trkpt lat="52.16521860" lon="9.122434100">
        <ele>136.60000</ele>
        <time>2012-03-09T19:33:03Z</time>
      </trkpt>
      <trkpt lat="52.16519700" lon="9.122313380">
        <ele>135.90000</ele>
        <time>2012-03-09T19:33:06Z</time>
      </trkpt>
      <trkpt lat="52.16511420" lon="9.122357910">
        <ele>136.30000</ele>
        <time>2012-03-09T19:33:10Z</time>
      </trkpt>
      <trkpt lat="52.16502940" lon="9.122389540">
        <ele>139.10000</ele>
        <time>2012-03-09T19:33:13Z</time>
      </trkpt>
      <trkpt lat="52.16500960" lon="9.122395190">
        <ele>140.90000</ele>
        <time>2012-03-09T19:33:14Z</time>
      </trkpt>
      <trkpt lat="52.16500840" lon="9.122395190">
        <ele>140.70000</ele>
        <time>2012-03-09T19:33:14Z</time>
      </trkpt>
      <trkpt lat="52.16500820" lon="9.122395390">
        <ele>140.60000</ele>
        <time>2012-03-09T19:33:14Z</time>
      </trkpt>
      <trkpt lat="52.16500810" lon="9.122395700">
        <ele>140.60000</ele>
        <time>2012-03-09T19:33:14Z</time>
      </trkpt>
      <trkpt lat="52.16500810" lon="9.122396360">
        <ele>140.60000</ele>
        <time>2012-03-09T19:33:14Z</time>
      </trkpt>
      <trkpt lat="52.16500930" lon="9.122396550">
        <ele>140.50000</ele>
        <time>2012-03-09T19:33:14Z</time>
      </trkpt>
      <trkpt lat="52.16501440" lon="9.122394950">
        <ele>140.30000</ele>
        <time>2012-03-09T19:33:14Z</time>
      </trkpt>
      <trkpt lat="52.16503600" lon="9.122363940">
        <ele>139.50000</ele>
        <time>2012-03-09T19:33:16Z</time>
      </trkpt>
      <trkpt lat="52.16509800" lon="9.122221830">
        <ele>142.60000</ele>
        <time>2012-03-09T19:33:20Z</time>
      </trkpt>
      <trkpt lat="52.16512600" lon="9.122101520">
        <ele>143.00000</ele>
        <time>2012-03-09T19:33:23Z</time>
      </trkpt>
      <trkpt lat="52.16510300" lon="9.122081570">
        <ele>144.80000</ele>
        <time>2012-03-09T19:33:24Z</time>
      </trkpt>
      <trkpt lat="52.16510310" lon="9.122058970">
        <ele>145.10000</ele>
        <time>2012-03-09T19:33:25Z</time>
      </trkpt>
      <trkpt lat="52.16510580" lon="9.122059100">
        <ele>145.20000</ele>
        <time>2012-03-09T19:33:25Z</time>
      </trkpt>
      <trkpt lat="52.16512430" lon="9.122093050">
        <ele>147.20000</ele>
        <time>2012-03-09T19:33:26Z</time>
      </trkpt>
      <trkpt lat="52.16511670" lon="9.122113890">
        <ele>147.10000</ele>
        <time>2012-03-09T19:33:26Z</time>
      </trkpt>
      <trkpt lat="52.16511650" lon="9.122114210">
        <ele>147.20000</ele>
        <time>2012-03-09T19:33:26Z</time>
      </trkpt>
      <trkpt lat="52.16511710" lon="9.122114440">
        <ele>147.20000</ele>
        <time>2012-03-09T19:33:26Z</time>
      </trkpt>
      <trkpt lat="52.16511890" lon="9.122119660">
        <ele>147.20000</ele>
        <time>2012-03-09T19:33:27Z</time>
      </trkpt>
      <trkpt lat="52.16512310" lon="9.122322490">
        <ele>145.00000</ele>
        <time>2012-03-09T19:33:32Z</time>
      </trkpt>
      <trkpt lat="52.16508610" lon="9.122100650">
        <ele>147.60000</ele>
        <time>2012-03-09T19:33:37Z</time>
      </trkpt>
      <trkpt lat="52.16516330" lon="9.122160200">
        <ele>147.70000</ele>
        <time>2012-03-09T19:33:41Z</time>
      </trkpt>
      <trkpt lat="52.16516570" lon="9.122173400">
        <ele>149.10000</ele>
        <time>2012-03-09T19:33:41Z</time>
      </trkpt>
      <trkpt lat="52.16516460" lon="9.122181700">
        <ele>149.30000</ele>
        <time>2012-03-09T19:33:41Z</time>
      </trkpt>
      <trkpt lat="52.16516480" lon="9.122182980">
        <ele>149.30000</ele>
        <time>2012-03-09T19:33:41Z</time>
      </trkpt>
      <trkpt lat="52.16514820" lon="9.122167300">
        <ele>145.00000</ele>
        <time>2012-03-09T19:33:42Z</time>
      </trkpt>
      <trkpt lat="52.16517550" lon="9.122104090">
        <ele>143.50000</ele>
        <time>2012-03-09T19:33:44Z</time>
      </trkpt>
      <trkpt lat="52.16511960" lon="9.121877130">
        <ele>144.00000</ele>
        <time>2012-03-09T19:33:50Z</time>
      </trkpt>
      <trkpt lat="52.16509810" lon="9.121794530">
        <ele>141.80000</ele>
        <time>2012-03-09T19:33:52Z</time>
      </trkpt>
      <trkpt lat="52.16511900" lon="9.121657400">
        <ele>154.20000</ele>
        <time>2012-03-09T19:33:56Z</time>
      </trkpt>
      <trkpt lat="52.16509770" lon="9.121612230">
        <ele>156.90000</ele>
        <time>2012-03-09T19:33:57Z</time>
      </trkpt>
      <trkpt lat="52.16509650" lon="9.121609770">
        <ele>156.90000</ele>
        <time>2012-03-09T19:33:57Z</time>
      </trkpt>
      <trkpt lat="52.16509600" lon="9.121610980">
        <ele>156.70000</ele>
        <time>2012-03-09T19:33:57Z</time>
      </trkpt>
      <trkpt lat="52.16509550" lon="9.121609480">
        <ele>156.60000</ele>
        <time>2012-03-09T19:33:57Z</time>
      </trkpt>
      <trkpt lat="52.16498310" lon="9.121170980">
        <ele>139.30000</ele>
        <time>2012-03-09T19:34:09Z</time>
      </trkpt>
      <trkpt lat="52.16492440" lon="9.120923040">
        <ele>137.60000</ele>
        <time>2012-03-09T19:34:15Z</time>
      </trkpt>
      <trkpt lat="52.16484350" lon="9.120748740">
        <ele>137.90000</ele>
        <time>2012-03-09T19:34:21Z</time>
      </trkpt>
      <trkpt lat="52.16488250" lon="9.120699290">
        <ele>139.80000</ele>
        <time>2012-03-09T19:34:23Z</time>
      </trkpt>
      <trkpt lat="52.16478560" lon="9.120470060">
        <ele>133.70000</ele>
        <time>2012-03-09T19:34:29Z</time>
      </trkpt>
      <trkpt lat="52.16478400" lon="9.120402910">
        <ele>128.30000</ele>
        <time>2012-03-09T19:34:31Z</time>
      </trkpt>
      <trkpt lat="52.16473360" lon="9.120094750">
        <ele>128.90000</ele>
        <time>2012-03-09T19:34:39Z</time>
      </trkpt>
      <trkpt lat="52.16472040" lon="9.120019930">
        <ele>130.10000</ele>
        <time>2012-03-09T19:34:41Z</time>
      </trkpt>
      <trkpt lat="52.16465880" lon="9.119710030">
        <ele>134.40000</ele>
        <time>2012-03-09T19:34:49Z</time>
      </trkpt>
      <trkpt lat="52.16457420" lon="9.119448870">
        <ele>138.20000</ele>
        <time>2012-03-09T19:34:56Z</time>
      </trkpt>
      <trkpt lat="52.16463880" lon="9.119269350">
        <ele>142.20000</ele>
        <time>2012-03-09T19:35:01Z</time>
      </trkpt>
      <trkpt lat="52.16454240" lon="9.119146010">
        <ele>140.30000</ele>
        <time>2012-03-09T19:35:06Z</time>
      </trkpt>
      <trkpt lat="52.16450790" lon="9.118984780">
        <ele>136.10000</ele>
        <time>2012-03-09T19:35:10Z</time>
      </trkpt>
      <trkpt lat="52.16445410" lon="9.118820110">
        <ele>132.80000</ele>
        <time>2012-03-09T19:35:15Z</time>
      </trkpt>
      <trkpt lat="52.16438420" lon="9.118659440">
        <ele>131.50000</ele>
        <time>2012-03-09T19:35:20Z</time>
      </trkpt>
      <trkpt lat="52.16431650" lon="9.118540250">
        <ele>133.40000</ele>
        <time>2012-03-09T19:35:24Z</time>
      </trkpt>
      <trkpt lat="52.16425540" lon="9.118401570">
        <ele>134.40000</ele>
        <time>2012-03-09T19:35:28Z</time>
      </trkpt>
      <trkpt lat="52.16419100" lon="9.118249080">
        <ele>131.90000</ele>
        <time>2012-03-09T19:35:32Z</time>
      </trkpt>
      <trkpt lat="52.16416840" lon="9.118033120">
        <ele>129.70000</ele>
        <time>2012-03-09T19:35:38Z</time>
      </trkpt>
      <trkpt lat="52.16412460" lon="9.117827310">
        <ele>126.40000</ele>
        <time>2012-03-09T19:35:43Z</time>
      </trkpt>
      <trkpt lat="52.16412380" lon="9.117670450">
        <ele>125.60000</ele>
        <time>2012-03-09T19:35:47Z</time>
      </trkpt>
      <trkpt lat="52.16405540" lon="9.117436780">
        <ele>128.60000</ele>
        <time>2012-03-09T19:35:53Z</time>
      </trkpt>
      <trkpt lat="52.16410790" lon="9.117322770">
        <ele>134.60000</ele>
        <time>2012-03-09T19:35:57Z</time>
      </trkpt>
      <trkpt lat="52.16410540" lon="9.117381280">
        <ele>132.00000</ele>
        <time>2012-03-09T19:35:58Z</time>
      </trkpt>
      <trkpt lat="52.16410580" lon="9.117382210">
        <ele>131.90000</ele>
        <time>2012-03-09T19:35:58Z</time>
      </trkpt>
      <trkpt lat="52.16410590" lon="9.117382480">
        <ele>131.90000</ele>
        <time>2012-03-09T19:35:58Z</time>
      </trkpt>
      <trkpt lat="52.16410580" lon="9.117383010">
        <ele>131.90000</ele>
        <time>2012-03-09T19:35:58Z</time>
      </trkpt>
      <trkpt lat="52.16410570" lon="9.117383330">
        <ele>131.90000</ele>
        <time>2012-03-09T19:35:58Z</time>
      </trkpt>
      <trkpt lat="52.16410590" lon="9.117383280">
        <ele>131.90000</ele>
        <time>2012-03-09T19:35:58Z</time>
      </trkpt>
      <trkpt lat="52.16412620" lon="9.117450610">
        <ele>134.00000</ele>
        <time>2012-03-09T19:36:00Z</time>
      </trkpt>
      <trkpt lat="52.16402290" lon="9.117261110">
        <ele>133.30000</ele>
        <time>2012-03-09T19:36:06Z</time>
      </trkpt>
      <trkpt lat="52.16394250" lon="9.117174330">
        <ele>131.70000</ele>
        <time>2012-03-09T19:36:10Z</time>
      </trkpt>
      <trkpt lat="52.16393800" lon="9.117025350">
        <ele>130.90000</ele>
        <time>2012-03-09T19:36:14Z</time>
      </trkpt>
      <trkpt lat="52.16387640" lon="9.116819530">
        <ele>131.50000</ele>
        <time>2012-03-09T19:36:20Z</time>
      </trkpt>
      <trkpt lat="52.16387910" lon="9.116800300">
        <ele>129.10000</ele>
        <time>2012-03-09T19:36:20Z</time>
      </trkpt>
      <trkpt lat="52.16388110" lon="9.116815380">
        <ele>130.60000</ele>
        <time>2012-03-09T19:36:20Z</time>
      </trkpt>
      <trkpt lat="52.16387370" lon="9.116840490">
        <ele>132.30000</ele>
        <time>2012-03-09T19:36:21Z</time>
      </trkpt>
      <trkpt lat="52.16388810" lon="9.116877530">
        <ele>134.60000</ele>
        <time>2012-03-09T19:36:22Z</time>
      </trkpt>
      <trkpt lat="52.16388860" lon="9.116877740">
        <ele>134.60000</ele>
        <time>2012-03-09T19:36:22Z</time>
      </trkpt>
      <trkpt lat="52.16377570" lon="9.116925550">
        <ele>132.90000</ele>
        <time>2012-03-09T19:36:27Z</time>
      </trkpt>
      <trkpt lat="52.16370560" lon="9.117108030">
        <ele>136.20000</ele>
        <time>2012-03-09T19:36:32Z</time>
      </trkpt>
      <trkpt lat="52.16361280" lon="9.117412980">
        <ele>136.50000</ele>
        <time>2012-03-09T19:36:41Z</time>
      </trkpt>
      <trkpt lat="52.16348800" lon="9.117732270">
        <ele>136.00000</ele>
        <time>2012-03-09T19:36:50Z</time>
      </trkpt>
      <trkpt lat="52.16338640" lon="9.117895440">
        <ele>137.40000</ele>
        <time>2012-03-09T19:36:56Z</time>
      </trkpt>
      <trkpt lat="52.16331560" lon="9.117999730">
        <ele>137.20000</ele>
        <time>2012-03-09T19:36:59Z</time>
      </trkpt>
      <trkpt lat="52.16332150" lon="9.118059540">
        <ele>139.10000</ele>
        <time>2012-03-09T19:37:01Z</time>
      </trkpt>
      <trkpt lat="52.16335050" lon="9.118210090">
        <ele>135.90000</ele>
        <time>2012-03-09T19:37:05Z</time>
      </trkpt>
      <trkpt lat="52.16340330" lon="9.118306590">
        <ele>133.70000</ele>
        <time>2012-03-09T19:37:08Z</time>
      </trkpt>
      <trkpt lat="52.16353380" lon="9.118444160">
        <ele>136.90000</ele>
        <time>2012-03-09T19:37:14Z</time>
      </trkpt>
      <trkpt lat="52.16358850" lon="9.118468430">
        <ele>139.40000</ele>
        <time>2012-03-09T19:37:16Z</time>
      </trkpt>
      <trkpt lat="52.16367640" lon="9.118596370">
        <ele>137.40000</ele>
        <time>2012-03-09T19:37:21Z</time>
      </trkpt>
      <trkpt lat="52.16376440" lon="9.118714030">
        <ele>138.10000</ele>
        <time>2012-03-09T19:37:26Z</time>
      </trkpt>
      <trkpt lat="52.16386010" lon="9.118906540">
        <ele>137.50000</ele>
        <time>2012-03-09T19:37:32Z</time>
      </trkpt>
      <trkpt lat="52.16394250" lon="9.119067390">
        <ele>135.40000</ele>
        <time>2012-03-09T19:37:37Z</time>
      </trkpt>
      <trkpt lat="52.16398850" lon="9.119290110">
        <ele>133.10000</ele>
        <time>2012-03-09T19:37:43Z</time>
      </trkpt>
      <trkpt lat="52.16397900" lon="9.119445570">
        <ele>136.60000</ele>
        <time>2012-03-09T19:37:46Z</time>
      </trkpt>
      <trkpt lat="52.16399910" lon="9.119644240">
        <ele>138.50000</ele>
        <time>2012-03-09T19:37:51Z</time>
      </trkpt>
      <trkpt lat="52.16401650" lon="9.119858060">
        <ele>144.60000</ele>
        <time>2012-03-09T19:37:57Z</time>
      </trkpt>
      <trkpt lat="52.16395650" lon="9.120047880">
        <ele>146.70000</ele>
        <time>2012-03-09T19:38:02Z</time>
      </trkpt>
      <trkpt lat="52.16370240" lon="9.120246920">
        <ele>134.00000</ele>
        <time>2012-03-09T19:38:13Z</time>
      </trkpt>
      <trkpt lat="52.16361070" lon="9.119954460">
        <ele>125.70000</ele>
        <time>2012-03-09T19:38:21Z</time>
      </trkpt>
      <trkpt lat="52.16360920" lon="9.119764080">
        <ele>122.00000</ele>
        <time>2012-03-09T19:38:26Z</time>
      </trkpt>
      <trkpt lat="52.16359020" lon="9.119602960">
        <ele>121.70000</ele>
        <time>2012-03-09T19:38:30Z</time>
      </trkpt>
      <trkpt lat="52.16355940" lon="9.119508250">
        <ele>121.00000</ele>
        <time>2012-03-09T19:38:33Z</time>
      </trkpt>
      <trkpt lat="52.16347210" lon="9.119403740">
        <ele>120.90000</ele>
        <time>2012-03-09T19:38:37Z</time>
      </trkpt>
      <trkpt lat="52.16342290" lon="9.119257280">
        <ele>124.80000</ele>
        <time>2012-03-09T19:38:41Z</time>
      </trkpt>
      <trkpt lat="52.16332590" lon="9.119161870">
        <ele>120.80000</ele>
        <time>2012-03-09T19:38:46Z</time>
      </trkpt>
      <trkpt lat="52.16323900" lon="9.119086850">
        <ele>121.50000</ele>
        <time>2012-03-09T19:38:50Z</time>
      </trkpt>
      <trkpt lat="52.16316250" lon="9.118998460">
        <ele>121.00000</ele>
        <time>2012-03-09T19:38:53Z</time>
      </trkpt>
      <trkpt lat="52.16310920" lon="9.118974060">
        <ele>122.00000</ele>
        <time>2012-03-09T19:38:56Z</time>
      </trkpt>
      <trkpt lat="52.16300910" lon="9.118919010">
        <ele>121.20000</ele>
        <time>2012-03-09T19:39:00Z</time>
      </trkpt>
      <trkpt lat="52.16299400" lon="9.118900470">
        <ele>122.20000</ele>
        <time>2012-03-09T19:39:01Z</time>
      </trkpt>
      <trkpt lat="52.16291670" lon="9.118875570">
        <ele>121.00000</ele>
        <time>2012-03-09T19:39:04Z</time>
      </trkpt>
      <trkpt lat="52.16284650" lon="9.118728560">
        <ele>116.60000</ele>
        <time>2012-03-09T19:39:08Z</time>
      </trkpt>
      <trkpt lat="52.16285160" lon="9.118569240">
        <ele>116.20000</ele>
        <time>2012-03-09T19:39:12Z</time>
      </trkpt>
      <trkpt lat="52.16279980" lon="9.118416690">
        <ele>112.90000</ele>
        <time>2012-03-09T19:39:16Z</time>
      </trkpt>
      <trkpt lat="52.16272600" lon="9.118277860">
        <ele>110.20000</ele>
        <time>2012-03-09T19:39:21Z</time>
      </trkpt>
      <trkpt lat="52.16269320" lon="9.118223080">
        <ele>112.30000</ele>
        <time>2012-03-09T19:39:23Z</time>
      </trkpt>
      <trkpt lat="52.16265690" lon="9.118309740">
        <ele>111.90000</ele>
        <time>2012-03-09T19:39:25Z</time>
      </trkpt>
      <trkpt lat="52.16256060" lon="9.118263730">
        <ele>112.10000</ele>
        <time>2012-03-09T19:39:29Z</time>
      </trkpt>
      <trkpt lat="52.16252990" lon="9.118115260">
        <ele>107.00000</ele>
        <time>2012-03-09T19:39:33Z</time>
      </trkpt>
      <trkpt lat="52.16250310" lon="9.117960400">
        <ele>108.70000</ele>
        <time>2012-03-09T19:39:37Z</time>
      </trkpt>
      <trkpt lat="52.16248550" lon="9.117831560">
        <ele>111.70000</ele>
        <time>2012-03-09T19:39:40Z</time>
      </trkpt>
      <trkpt lat="52.16249720" lon="9.117642140">
        <ele>113.70000</ele>
        <time>2012-03-09T19:39:45Z</time>
      </trkpt>
      <trkpt lat="52.16250370" lon="9.117443530">
        <ele>111.80000</ele>
        <time>2012-03-09T19:39:50Z</time>
      </trkpt>
      <trkpt lat="52.16243410" lon="9.117256930">
        <ele>111.20000</ele>
        <time>2012-03-09T19:39:55Z</time>
      </trkpt>
      <trkpt lat="52.16240820" lon="9.117084080">
        <ele>110.00000</ele>
        <time>2012-03-09T19:40:00Z</time>
      </trkpt>
      <trkpt lat="52.16241530" lon="9.116915090">
        <ele>107.10000</ele>
        <time>2012-03-09T19:40:04Z</time>
      </trkpt>
      <trkpt lat="52.16237000" lon="9.116819920">
        <ele>107.70000</ele>
        <time>2012-03-09T19:40:07Z</time>
      </trkpt>
      <trkpt lat="52.16232680" lon="9.116660330">
        <ele>110.90000</ele>
        <time>2012-03-09T19:40:11Z</time>
      </trkpt>
      <trkpt lat="52.16224010" lon="9.116574650">
        <ele>110.10000</ele>
        <time>2012-03-09T19:40:15Z</time>
      </trkpt>
      <trkpt lat="52.16212330" lon="9.116541770">
        <ele>113.00000</ele>
        <time>2012-03-09T19:40:20Z</time>
      </trkpt>
      <trkpt lat="52.16203970" lon="9.116522650">
        <ele>109.50000</ele>
        <time>2012-03-09T19:40:23Z</time>
      </trkpt>
      <trkpt lat="52.16206780" lon="9.116503810">
        <ele>111.20000</ele>
        <time>2012-03-09T19:40:25Z</time>
      </trkpt>
      <trkpt lat="52.16206690" lon="9.116506350">
        <ele>112.00000</ele>
        <time>2012-03-09T19:40:25Z</time>
      </trkpt>
      <trkpt lat="52.16201580" lon="9.116510220">
        <ele>110.10000</ele>
        <time>2012-03-09T19:40:27Z</time>
      </trkpt>
      <trkpt lat="52.16203700" lon="9.116352240">
        <ele>111.50000</ele>
        <time>2012-03-09T19:40:31Z</time>
      </trkpt>
      <trkpt lat="52.16196290" lon="9.116413070">
        <ele>109.40000</ele>
        <time>2012-03-09T19:40:34Z</time>
      </trkpt>
      <trkpt lat="52.16185460" lon="9.116392930">
        <ele>117.20000</ele>
        <time>2012-03-09T19:40:38Z</time>
      </trkpt>
      <trkpt lat="52.16174760" lon="9.116324150">
        <ele>121.00000</ele>
        <time>2012-03-09T19:40:43Z</time>
      </trkpt>
      <trkpt lat="52.16173050" lon="9.116333540">
        <ele>116.00000</ele>
        <time>2012-03-09T19:40:44Z</time>
      </trkpt>
      <trkpt lat="52.16173170" lon="9.116338440">
        <ele>115.70000</ele>
        <time>2012-03-09T19:40:44Z</time>
      </trkpt>
      <trkpt lat="52.16175560" lon="9.116361980">
        <ele>111.80000</ele>
        <time>2012-03-09T19:40:45Z</time>
      </trkpt>
      <trkpt lat="52.16171430" lon="9.116384480">
        <ele>111.50000</ele>
        <time>2012-03-09T19:40:47Z</time>
      </trkpt>
      <trkpt lat="52.16159580" lon="9.116389810">
        <ele>110.90000</ele>
        <time>2012-03-09T19:40:51Z</time>
      </trkpt>
      <trkpt lat="52.16148620" lon="9.116319020">
        <ele>110.60000</ele>
        <time>2012-03-09T19:40:56Z</time>
      </trkpt>
      <trkpt lat="52.16143300" lon="9.116387690">
        <ele>112.90000</ele>
        <time>2012-03-09T19:40:59Z</time>
      </trkpt>
      <trkpt lat="52.16149580" lon="9.116147220">
        <ele>119.50000</ele>
        <time>2012-03-09T19:41:05Z</time>
      </trkpt>
      <trkpt lat="52.16142700" lon="9.116101190">
        <ele>118.80000</ele>
        <time>2012-03-09T19:41:08Z</time>
      </trkpt>
      <trkpt lat="52.16142520" lon="9.116094270">
        <ele>119.00000</ele>
        <time>2012-03-09T19:41:08Z</time>
      </trkpt>
      <trkpt lat="52.16148750" lon="9.115729490">
        <ele>115.20000</ele>
        <time>2012-03-09T19:41:18Z</time>
      </trkpt>
      <trkpt lat="52.16140040" lon="9.115623120">
        <ele>124.80000</ele>
        <time>2012-03-09T19:41:22Z</time>
      </trkpt>
      <trkpt lat="52.16145040" lon="9.115688590">
        <ele>130.50000</ele>
        <time>2012-03-09T19:41:25Z</time>
      </trkpt>
      <trkpt lat="52.16144230" lon="9.115654460">
        <ele>136.30000</ele>
        <time>2012-03-09T19:41:26Z</time>
      </trkpt>
      <trkpt lat="52.16144710" lon="9.115650940">
        <ele>136.20000</ele>
        <time>2012-03-09T19:41:26Z</time>
      </trkpt>
      <trkpt lat="52.16144690" lon="9.115650020">
        <ele>136.20000</ele>
        <time>2012-03-09T19:41:26Z</time>
      </trkpt>
      <trkpt lat="52.16143410" lon="9.115517110">
        <ele>135.10000</ele>
        <time>2012-03-09T19:41:29Z</time>
      </trkpt>
      <trkpt lat="52.16142940" lon="9.115328310">
        <ele>130.20000</ele>
        <time>2012-03-09T19:41:34Z</time>
      </trkpt>
      <trkpt lat="52.16144990" lon="9.115284490">
        <ele>131.90000</ele>
        <time>2012-03-09T19:41:35Z</time>
      </trkpt>
      <trkpt lat="52.16138940" lon="9.115348560">
        <ele>128.40000</ele>
        <time>2012-03-09T19:41:38Z</time>
      </trkpt>
      <trkpt lat="52.16136040" lon="9.115154450">
        <ele>129.90000</ele>
        <time>2012-03-09T19:41:43Z</time>
      </trkpt>
      <trkpt lat="52.16136210" lon="9.115043040">
        <ele>126.70000</ele>
        <time>2012-03-09T19:41:46Z</time>
      </trkpt>
      <trkpt lat="52.16133720" lon="9.114999230">
        <ele>124.20000</ele>
        <time>2012-03-09T19:41:47Z</time>
      </trkpt>
      <trkpt lat="52.16132850" lon="9.114817480">
        <ele>124.20000</ele>
        <time>2012-03-09T19:41:52Z</time>
      </trkpt>
      <trkpt lat="52.16141380" lon="9.114561600">
        <ele>121.90000</ele>
        <time>2012-03-09T19:41:59Z</time>
      </trkpt>
      <trkpt lat="52.16132420" lon="9.114472490">
        <ele>122.50000</ele>
        <time>2012-03-09T19:42:03Z</time>
      </trkpt>
      <trkpt lat="52.16125850" lon="9.114554620">
        <ele>121.50000</ele>
        <time>2012-03-09T19:42:06Z</time>
      </trkpt>
      <trkpt lat="52.16115800" lon="9.114474610">
        <ele>121.30000</ele>
        <time>2012-03-09T19:42:11Z</time>
      </trkpt>
      <trkpt lat="52.16114860" lon="9.114301930">
        <ele>124.10000</ele>
        <time>2012-03-09T19:42:15Z</time>
      </trkpt>
      <trkpt lat="52.16122700" lon="9.114114000">
        <ele>122.50000</ele>
        <time>2012-03-09T19:42:21Z</time>
      </trkpt>
      <trkpt lat="52.16121110" lon="9.113920960">
        <ele>126.20000</ele>
        <time>2012-03-09T19:42:25Z</time>
      </trkpt>
      <trkpt lat="52.16120140" lon="9.113845670">
        <ele>122.30000</ele>
        <time>2012-03-09T19:42:27Z</time>
      </trkpt>
      <trkpt lat="52.16124430" lon="9.113703650">
        <ele>120.50000</ele>
        <time>2012-03-09T19:42:31Z</time>
      </trkpt>
      <trkpt lat="52.16127060" lon="9.113575060">
        <ele>117.70000</ele>
        <time>2012-03-09T19:42:34Z</time>
      </trkpt>
      <trkpt lat="52.16126780" lon="9.113605750">
        <ele>116.60000</ele>
        <time>2012-03-09T19:42:35Z</time>
      </trkpt>
      <trkpt lat="52.16123850" lon="9.113480320">
        <ele>115.60000</ele>
        <time>2012-03-09T19:42:38Z</time>
      </trkpt>
      <trkpt lat="52.16122500" lon="9.113269860">
        <ele>120.10000</ele>
        <time>2012-03-09T19:42:44Z</time>
      </trkpt>
      <trkpt lat="52.16126300" lon="9.113096890">
        <ele>122.40000</ele>
        <time>2012-03-09T19:42:48Z</time>
      </trkpt>
      <trkpt lat="52.16127950" lon="9.112966500">
        <ele>130.90000</ele>
        <time>2012-03-09T19:42:51Z</time>
      </trkpt>
      <trkpt lat="52.16138330" lon="9.113099730">
        <ele>128.70000</ele>
        <time>2012-03-09T19:42:57Z</time>
      </trkpt>
      <trkpt lat="52.16139610" lon="9.113118830">
        <ele>128.00000</ele>
        <time>2012-03-09T19:42:57Z</time>
      </trkpt>
      <trkpt lat="52.16139140" lon="9.113118160">
        <ele>128.40000</ele>
        <time>2012-03-09T19:42:58Z</time>
      </trkpt>
      <trkpt lat="52.16139140" lon="9.113117390">
        <ele>128.40000</ele>
        <time>2012-03-09T19:42:58Z</time>
      </trkpt>
      <trkpt lat="52.16139150" lon="9.113113550">
        <ele>128.20000</ele>
        <time>2012-03-09T19:42:58Z</time>
      </trkpt>
      <trkpt lat="52.16139180" lon="9.113112450">
        <ele>128.30000</ele>
        <time>2012-03-09T19:42:58Z</time>
      </trkpt>
      <trkpt lat="52.16142750" lon="9.113084790">
        <ele>125.20000</ele>
        <time>2012-03-09T19:42:59Z</time>
      </trkpt>
      <trkpt lat="52.16141140" lon="9.113070810">
        <ele>124.70000</ele>
        <time>2012-03-09T19:43:00Z</time>
      </trkpt>
      <trkpt lat="52.16140450" lon="9.113050220">
        <ele>123.40000</ele>
        <time>2012-03-09T19:43:01Z</time>
      </trkpt>
      <trkpt lat="52.16133270" lon="9.112994290">
        <ele>116.50000</ele>
        <time>2012-03-09T19:43:04Z</time>
      </trkpt>
      <trkpt lat="52.16137200" lon="9.112859520">
        <ele>123.70000</ele>
        <time>2012-03-09T19:43:08Z</time>
      </trkpt>
      <trkpt lat="52.16137430" lon="9.112554470">
        <ele>126.90000</ele>
        <time>2012-03-09T19:43:15Z</time>
      </trkpt>
      <trkpt lat="52.16136920" lon="9.112643710">
        <ele>123.30000</ele>
        <time>2012-03-09T19:43:17Z</time>
      </trkpt>
      <trkpt lat="52.16135320" lon="9.112744650">
        <ele>121.80000</ele>
        <time>2012-03-09T19:43:20Z</time>
      </trkpt>
      <trkpt lat="52.16132350" lon="9.112921820">
        <ele>120.70000</ele>
        <time>2012-03-09T19:43:24Z</time>
      </trkpt>
      <trkpt lat="52.16134080" lon="9.113095330">
        <ele>120.80000</ele>
        <time>2012-03-09T19:43:29Z</time>
      </trkpt>
      <trkpt lat="52.16134140" lon="9.113102430">
        <ele>120.90000</ele>
        <time>2012-03-09T19:43:29Z</time>
      </trkpt>
      <trkpt lat="52.16134040" lon="9.113103520">
        <ele>121.00000</ele>
        <time>2012-03-09T19:43:29Z</time>
      </trkpt>
      <trkpt lat="52.16134040" lon="9.113104210">
        <ele>121.00000</ele>
        <time>2012-03-09T19:43:29Z</time>
      </trkpt>
      <trkpt lat="52.16134000" lon="9.113104590">
        <ele>121.00000</ele>
        <time>2012-03-09T19:43:29Z</time>
      </trkpt>
      <trkpt lat="52.16133960" lon="9.113105020">
        <ele>121.10000</ele>
        <time>2012-03-09T19:43:29Z</time>
      </trkpt>
      <trkpt lat="52.16133920" lon="9.113105960">
        <ele>121.10000</ele>
        <time>2012-03-09T19:43:29Z</time>
      </trkpt>
      <trkpt lat="52.16133900" lon="9.113107430">
        <ele>121.20000</ele>
        <time>2012-03-09T19:43:29Z</time>
      </trkpt>
      <trkpt lat="52.16134090" lon="9.113187350">
        <ele>121.60000</ele>
        <time>2012-03-09T19:43:31Z</time>
      </trkpt>
      <trkpt lat="52.16132400" lon="9.113275170">
        <ele>124.40000</ele>
        <time>2012-03-09T19:43:33Z</time>
      </trkpt>
      <trkpt lat="52.16132300" lon="9.113276990">
        <ele>124.40000</ele>
        <time>2012-03-09T19:43:33Z</time>
      </trkpt>
      <trkpt lat="52.16132240" lon="9.113277460">
        <ele>124.40000</ele>
        <time>2012-03-09T19:43:33Z</time>
      </trkpt>
      <trkpt lat="52.16132100" lon="9.113278690">
        <ele>124.50000</ele>
        <time>2012-03-09T19:43:33Z</time>
      </trkpt>
      <trkpt lat="52.16132000" lon="9.113279730">
        <ele>124.50000</ele>
        <time>2012-03-09T19:43:33Z</time>
      </trkpt>
      <trkpt lat="52.16132170" lon="9.113270400">
        <ele>124.50000</ele>
        <time>2012-03-09T19:43:34Z</time>
      </trkpt>
      <trkpt lat="52.16132250" lon="9.113265360">
        <ele>124.50000</ele>
        <time>2012-03-09T19:43:34Z</time>
      </trkpt>
      <trkpt lat="52.16132320" lon="9.113266190">
        <ele>124.70000</ele>
        <time>2012-03-09T19:43:34Z</time>
      </trkpt>
      <trkpt lat="52.16132350" lon="9.113267670">
        <ele>124.80000</ele>
        <time>2012-03-09T19:43:34Z</time>
      </trkpt>
      <trkpt lat="52.16132360" lon="9.113268680">
        <ele>124.80000</ele>
        <time>2012-03-09T19:43:34Z</time>
      </trkpt>
      <trkpt lat="52.16132350" lon="9.113269330">
        <ele>124.90000</ele>
        <time>2012-03-09T19:43:34Z</time>
      </trkpt>
      <trkpt lat="52.16132360" lon="9.113266410">
        <ele>124.80000</ele>
        <time>2012-03-09T19:43:34Z</time>
      </trkpt>
      <trkpt lat="52.16132530" lon="9.113256120">
        <ele>124.60000</ele>
        <time>2012-03-09T19:43:34Z</time>
      </trkpt>
      <trkpt lat="52.16132650" lon="9.113250200">
        <ele>124.50000</ele>
        <time>2012-03-09T19:43:34Z</time>
      </trkpt>
      <trkpt lat="52.16133010" lon="9.113242960">
        <ele>124.60000</ele>
        <time>2012-03-09T19:43:35Z</time>
      </trkpt>
      <trkpt lat="52.16133270" lon="9.113238380">
        <ele>124.70000</ele>
        <time>2012-03-09T19:43:35Z</time>
      </trkpt>
      <trkpt lat="52.16133380" lon="9.113234640">
        <ele>124.60000</ele>
        <time>2012-03-09T19:43:35Z</time>
      </trkpt>
      <trkpt lat="52.16133390" lon="9.113233590">
        <ele>124.60000</ele>
        <time>2012-03-09T19:43:35Z</time>
      </trkpt>
      <trkpt lat="52.16125640" lon="9.113055480">
        <ele>121.70000</ele>
        <time>2012-03-09T19:43:40Z</time>
      </trkpt>
      <trkpt lat="52.16125260" lon="9.112863320">
        <ele>121.40000</ele>
        <time>2012-03-09T19:43:45Z</time>
      </trkpt>
      <trkpt lat="52.16124830" lon="9.112764470">
        <ele>117.40000</ele>
        <time>2012-03-09T19:43:47Z</time>
      </trkpt>
      <trkpt lat="52.16130270" lon="9.112533100">
        <ele>119.40000</ele>
        <time>2012-03-09T19:43:53Z</time>
      </trkpt>
      <trkpt lat="52.16131780" lon="9.112460210">
        <ele>119.80000</ele>
        <time>2012-03-09T19:43:55Z</time>
      </trkpt>
      <trkpt lat="52.16134640" lon="9.112408580">
        <ele>121.40000</ele>
        <time>2012-03-09T19:43:57Z</time>
      </trkpt>
      <trkpt lat="52.16145580" lon="9.112282660">
        <ele>122.90000</ele>
        <time>2012-03-09T19:44:02Z</time>
      </trkpt>
      <trkpt lat="52.16149880" lon="9.112211500">
        <ele>124.40000</ele>
        <time>2012-03-09T19:44:05Z</time>
      </trkpt>
      <trkpt lat="52.16157200" lon="9.112139040">
        <ele>123.80000</ele>
        <time>2012-03-09T19:44:08Z</time>
      </trkpt>
      <trkpt lat="52.16161530" lon="9.112070330">
        <ele>122.10000</ele>
        <time>2012-03-09T19:44:11Z</time>
      </trkpt>
      <trkpt lat="52.16166660" lon="9.112019680">
        <ele>121.40000</ele>
        <time>2012-03-09T19:44:13Z</time>
      </trkpt>
      <trkpt lat="52.16174310" lon="9.111933240">
        <ele>120.10000</ele>
        <time>2012-03-09T19:44:17Z</time>
      </trkpt>
      <trkpt lat="52.16170290" lon="9.111862670">
        <ele>118.60000</ele>
        <time>2012-03-09T19:44:19Z</time>
      </trkpt>
      <trkpt lat="52.16170840" lon="9.111848040">
        <ele>117.80000</ele>
        <time>2012-03-09T19:44:20Z</time>
      </trkpt>
      <trkpt lat="52.16170990" lon="9.111849670">
        <ele>117.50000</ele>
        <time>2012-03-09T19:44:20Z</time>
      </trkpt>
      <trkpt lat="52.16173660" lon="9.111821330">
        <ele>118.20000</ele>
        <time>2012-03-09T19:44:21Z</time>
      </trkpt>
      <trkpt lat="52.16177620" lon="9.111777830">
        <ele>116.50000</ele>
        <time>2012-03-09T19:44:23Z</time>
      </trkpt>
      <trkpt lat="52.16186060" lon="9.111668880">
        <ele>117.70000</ele>
        <time>2012-03-09T19:44:27Z</time>
      </trkpt>
      <trkpt lat="52.16186200" lon="9.111631280">
        <ele>115.60000</ele>
        <time>2012-03-09T19:44:28Z</time>
      </trkpt>
      <trkpt lat="52.16192350" lon="9.111564650">
        <ele>112.50000</ele>
        <time>2012-03-09T19:44:31Z</time>
      </trkpt>
      <trkpt lat="52.16203680" lon="9.111356070">
        <ele>110.70000</ele>
        <time>2012-03-09T19:44:38Z</time>
      </trkpt>
      <trkpt lat="52.16199360" lon="9.111301870">
        <ele>115.10000</ele>
        <time>2012-03-09T19:44:40Z</time>
      </trkpt>
      <trkpt lat="52.16193090" lon="9.111368710">
        <ele>118.00000</ele>
        <time>2012-03-09T19:44:43Z</time>
      </trkpt>
      <trkpt lat="52.16195460" lon="9.111278160">
        <ele>112.20000</ele>
        <time>2012-03-09T19:44:45Z</time>
      </trkpt>
      <trkpt lat="52.16198390" lon="9.111306540">
        <ele>107.80000</ele>
        <time>2012-03-09T19:44:47Z</time>
      </trkpt>
      <trkpt lat="52.16198510" lon="9.111309160">
        <ele>107.60000</ele>
        <time>2012-03-09T19:44:47Z</time>
      </trkpt>
      <trkpt lat="52.16198540" lon="9.111309850">
        <ele>107.50000</ele>
        <time>2012-03-09T19:44:47Z</time>
      </trkpt>
      <trkpt lat="52.16198560" lon="9.111310350">
        <ele>107.50000</ele>
        <time>2012-03-09T19:44:47Z</time>
      </trkpt>
      <trkpt lat="52.16205670" lon="9.111404810">
        <ele>100.70000</ele>
        <time>2012-03-09T19:44:51Z</time>
      </trkpt>
      <trkpt lat="52.16207290" lon="9.111447400">
        <ele>97.400010</ele>
        <time>2012-03-09T19:44:52Z</time>
      </trkpt>
      <trkpt lat="52.16207070" lon="9.111446810">
        <ele>97.300000</ele>
        <time>2012-03-09T19:44:52Z</time>
      </trkpt>
      <trkpt lat="52.16207250" lon="9.111444380">
        <ele>97.800000</ele>
        <time>2012-03-09T19:44:52Z</time>
      </trkpt>
      <trkpt lat="52.16207270" lon="9.111444250">
        <ele>97.800000</ele>
        <time>2012-03-09T19:44:52Z</time>
      </trkpt>
      <trkpt lat="52.16207260" lon="9.111444170">
        <ele>97.700000</ele>
        <time>2012-03-09T19:44:52Z</time>
      </trkpt>
      <trkpt lat="52.16204950" lon="9.111478160">
        <ele>97.100010</ele>
        <time>2012-03-09T19:44:53Z</time>
      </trkpt>
      <trkpt lat="52.16208070" lon="9.111481610">
        <ele>98.400010</ele>
        <time>2012-03-09T19:44:55Z</time>
      </trkpt>
      <trkpt lat="52.16210450" lon="9.111418810">
        <ele>97.800000</ele>
        <time>2012-03-09T19:44:56Z</time>
      </trkpt>
      <trkpt lat="52.16211860" lon="9.111381420">
        <ele>100.10000</ele>
        <time>2012-03-09T19:44:57Z</time>
      </trkpt>
      <trkpt lat="52.16213810" lon="9.111179260">
        <ele>104.80000</ele>
        <time>2012-03-09T19:45:02Z</time>
      </trkpt>
      <trkpt lat="52.16214080" lon="9.110929460">
        <ele>105.70000</ele>
        <time>2012-03-09T19:45:09Z</time>
      </trkpt>
      <trkpt lat="52.16214830" lon="9.110784720">
        <ele>104.40000</ele>
        <time>2012-03-09T19:45:12Z</time>
      </trkpt>
      <trkpt lat="52.16219720" lon="9.110793180">
        <ele>101.00000</ele>
        <time>2012-03-09T19:45:14Z</time>
      </trkpt>
      <trkpt lat="52.16219320" lon="9.110695530">
        <ele>101.60000</ele>
        <time>2012-03-09T19:45:17Z</time>
      </trkpt>
      <trkpt lat="52.16217070" lon="9.110644480">
        <ele>101.40000</ele>
        <time>2012-03-09T19:45:18Z</time>
      </trkpt>
      <trkpt lat="52.16217050" lon="9.110644240">
        <ele>101.50000</ele>
        <time>2012-03-09T19:45:18Z</time>
      </trkpt>
      <trkpt lat="52.16214190" lon="9.110558360">
        <ele>103.00000</ele>
        <time>2012-03-09T19:45:20Z</time>
      </trkpt>
      <trkpt lat="52.16214250" lon="9.110486620">
        <ele>105.10000</ele>
        <time>2012-03-09T19:45:22Z</time>
      </trkpt>
      <trkpt lat="52.16216110" lon="9.110460670">
        <ele>107.10000</ele>
        <time>2012-03-09T19:45:23Z</time>
      </trkpt>
      <trkpt lat="52.16216810" lon="9.110527960">
        <ele>104.90000</ele>
        <time>2012-03-09T19:45:25Z</time>
      </trkpt>
      <trkpt lat="52.16216810" lon="9.110527630">
        <ele>104.90000</ele>
        <time>2012-03-09T19:45:25Z</time>
      </trkpt>
      <trkpt lat="52.16213740" lon="9.110495810">
        <ele>105.30000</ele>
        <time>2012-03-09T19:45:26Z</time>
      </trkpt>
      <trkpt lat="52.16208840" lon="9.110399670">
        <ele>98.700000</ele>
        <time>2012-03-09T19:45:29Z</time>
      </trkpt>
      <trkpt lat="52.16205470" lon="9.110258970">
        <ele>101.10000</ele>
        <time>2012-03-09T19:45:33Z</time>
      </trkpt>
      <trkpt lat="52.16201080" lon="9.110308580">
        <ele>103.70000</ele>
        <time>2012-03-09T19:45:35Z</time>
      </trkpt>
      <trkpt lat="52.16203800" lon="9.110395580">
        <ele>98.800000</ele>
        <time>2012-03-09T19:45:38Z</time>
      </trkpt>
      <trkpt lat="52.16205960" lon="9.110419680">
        <ele>98.000000</ele>
        <time>2012-03-09T19:45:39Z</time>
      </trkpt>
      <trkpt lat="52.16205980" lon="9.110419070">
        <ele>98.000000</ele>
        <time>2012-03-09T19:45:39Z</time>
      </trkpt>
      <trkpt lat="52.16206050" lon="9.110418520">
        <ele>98.000000</ele>
        <time>2012-03-09T19:45:39Z</time>
      </trkpt>
      <trkpt lat="52.16206520" lon="9.110413490">
        <ele>97.800000</ele>
        <time>2012-03-09T19:45:39Z</time>
      </trkpt>
      <trkpt lat="52.16208410" lon="9.110400940">
        <ele>96.900010</ele>
        <time>2012-03-09T19:45:40Z</time>
      </trkpt>
      <trkpt lat="52.16216160" lon="9.110223150">
        <ele>91.100010</ele>
        <time>2012-03-09T19:45:45Z</time>
      </trkpt>
      <trkpt lat="52.16224940" lon="9.110130240">
        <ele>92.200000</ele>
        <time>2012-03-09T19:45:49Z</time>
      </trkpt>
      <trkpt lat="52.16227830" lon="9.109928270">
        <ele>91.900010</ele>
        <time>2012-03-09T19:45:54Z</time>
      </trkpt>
      <trkpt lat="52.16230710" lon="9.109896670">
        <ele>88.700000</ele>
        <time>2012-03-09T19:45:56Z</time>
      </trkpt>
      <trkpt lat="52.16247350" lon="9.109990650">
        <ele>83.500000</ele>
        <time>2012-03-09T19:46:03Z</time>
      </trkpt>
      <trkpt lat="52.16255300" lon="9.109935400">
        <ele>79.000000</ele>
        <time>2012-03-09T19:46:06Z</time>
      </trkpt>
      <trkpt lat="52.16265380" lon="9.109887180">
        <ele>76.400000</ele>
        <time>2012-03-09T19:46:11Z</time>
      </trkpt>
      <trkpt lat="52.16276870" lon="9.109904320">
        <ele>72.300000</ele>
        <time>2012-03-09T19:46:15Z</time>
      </trkpt>
      <trkpt lat="52.16288920" lon="9.109847910">
        <ele>77.600000</ele>
        <time>2012-03-09T19:46:20Z</time>
      </trkpt>
      <trkpt lat="52.16297670" lon="9.110009410">
        <ele>71.300000</ele>
        <time>2012-03-09T19:46:25Z</time>
      </trkpt>
      <trkpt lat="52.16312760" lon="9.110122760">
        <ele>72.100000</ele>
        <time>2012-03-09T19:46:32Z</time>
      </trkpt>
      <trkpt lat="52.16312070" lon="9.110195700">
        <ele>76.000000</ele>
        <time>2012-03-09T19:46:34Z</time>
      </trkpt>
      <trkpt lat="52.16326950" lon="9.110366260">
        <ele>83.000000</ele>
        <time>2012-03-09T19:46:41Z</time>
      </trkpt>
      <trkpt lat="52.16332440" lon="9.110348230">
        <ele>85.900010</ele>
        <time>2012-03-09T19:46:43Z</time>
      </trkpt>
      <trkpt lat="52.16333070" lon="9.110352770">
        <ele>84.600010</ele>
        <time>2012-03-09T19:46:44Z</time>
      </trkpt>
      <trkpt lat="52.16332930" lon="9.110339340">
        <ele>85.400010</ele>
        <time>2012-03-09T19:46:44Z</time>
      </trkpt>
      <trkpt lat="52.16333540" lon="9.110297630">
        <ele>84.900010</ele>
        <time>2012-03-09T19:46:45Z</time>
      </trkpt>
      <trkpt lat="52.16341610" lon="9.110464820">
        <ele>87.600010</ele>
        <time>2012-03-09T19:46:50Z</time>
      </trkpt>
      <trkpt lat="52.16349880" lon="9.110399460">
        <ele>90.600010</ele>
        <time>2012-03-09T19:46:54Z</time>
      </trkpt>
      <trkpt lat="52.16361500" lon="9.110491610">
        <ele>90.200000</ele>
        <time>2012-03-09T19:46:59Z</time>
      </trkpt>
      <trkpt lat="52.16360960" lon="9.110638960">
        <ele>93.100010</ele>
        <time>2012-03-09T19:47:03Z</time>
      </trkpt>
      <trkpt lat="52.16359490" lon="9.110652270">
        <ele>92.300000</ele>
        <time>2012-03-09T19:47:03Z</time>
      </trkpt>
      <trkpt lat="52.16359470" lon="9.110654320">
        <ele>92.200000</ele>
        <time>2012-03-09T19:47:04Z</time>
      </trkpt>
      <trkpt lat="52.16359500" lon="9.110654840">
        <ele>92.200000</ele>
        <time>2012-03-09T19:47:04Z</time>
      </trkpt>
      <trkpt lat="52.16359520" lon="9.110656460">
        <ele>92.100010</ele>
        <time>2012-03-09T19:47:04Z</time>
      </trkpt>
      <trkpt lat="52.16359450" lon="9.110658250">
        <ele>92.000000</ele>
        <time>2012-03-09T19:47:04Z</time>
      </trkpt>
      <trkpt lat="52.16359460" lon="9.110658320">
        <ele>92.000000</ele>
        <time>2012-03-09T19:47:04Z</time>
      </trkpt>
      <trkpt lat="52.16359460" lon="9.110658630">
        <ele>92.000000</ele>
        <time>2012-03-09T19:47:04Z</time>
      </trkpt>
      <trkpt lat="52.16359480" lon="9.110658630">
        <ele>92.000000</ele>
        <time>2012-03-09T19:47:04Z</time>
      </trkpt>
      <trkpt lat="52.16369970" lon="9.110740110">
        <ele>87.700000</ele>
        <time>2012-03-09T19:47:08Z</time>
      </trkpt>
      <trkpt lat="52.16372820" lon="9.110857640">
        <ele>85.900010</ele>
        <time>2012-03-09T19:47:11Z</time>
      </trkpt>
      <trkpt lat="52.16381400" lon="9.111043500">
        <ele>86.800000</ele>
        <time>2012-03-09T19:47:17Z</time>
      </trkpt>
      <trkpt lat="52.16383960" lon="9.111201140">
        <ele>90.400010</ele>
        <time>2012-03-09T19:47:21Z</time>
      </trkpt>
      <trkpt lat="52.16388840" lon="9.111277710">
        <ele>94.800000</ele>
        <time>2012-03-09T19:47:24Z</time>
      </trkpt>
      <trkpt lat="52.16394150" lon="9.111302030">
        <ele>95.300000</ele>
        <time>2012-03-09T19:47:26Z</time>
      </trkpt>
      <trkpt lat="52.16396770" lon="9.111279150">
        <ele>97.500000</ele>
        <time>2012-03-09T19:47:27Z</time>
      </trkpt>
      <trkpt lat="52.16410670" lon="9.111287110">
        <ele>97.400010</ele>
        <time>2012-03-09T19:47:33Z</time>
      </trkpt>
      <trkpt lat="52.16413780" lon="9.111315970">
        <ele>97.900010</ele>
        <time>2012-03-09T19:47:34Z</time>
      </trkpt>
      <trkpt lat="52.16423330" lon="9.111366150">
        <ele>95.000000</ele>
        <time>2012-03-09T19:47:38Z</time>
      </trkpt>
      <trkpt lat="52.16434530" lon="9.111384650">
        <ele>98.200000</ele>
        <time>2012-03-09T19:47:43Z</time>
      </trkpt>
      <trkpt lat="52.16442330" lon="9.111509770">
        <ele>98.300000</ele>
        <time>2012-03-09T19:47:47Z</time>
      </trkpt>
      <trkpt lat="52.16449130" lon="9.111630510">
        <ele>99.600010</ele>
        <time>2012-03-09T19:47:51Z</time>
      </trkpt>
      <trkpt lat="52.16456620" lon="9.111805070">
        <ele>102.70000</ele>
        <time>2012-03-09T19:47:56Z</time>
      </trkpt>
      <trkpt lat="52.16444650" lon="9.111727640">
        <ele>99.100010</ele>
        <time>2012-03-09T19:48:02Z</time>
      </trkpt>
      <trkpt lat="52.16445230" lon="9.111738650">
        <ele>102.50000</ele>
        <time>2012-03-09T19:48:02Z</time>
      </trkpt>
      <trkpt lat="52.16447270" lon="9.111725790">
        <ele>100.90000</ele>
        <time>2012-03-09T19:48:03Z</time>
      </trkpt>
      <trkpt lat="52.16447050" lon="9.111720420">
        <ele>101.40000</ele>
        <time>2012-03-09T19:48:03Z</time>
      </trkpt>
      <trkpt lat="52.16446990" lon="9.111719610">
        <ele>101.40000</ele>
        <time>2012-03-09T19:48:03Z</time>
      </trkpt>
      <trkpt lat="52.16446940" lon="9.111719120">
        <ele>101.30000</ele>
        <time>2012-03-09T19:48:03Z</time>
      </trkpt>
      <trkpt lat="52.16446910" lon="9.111719070">
        <ele>101.30000</ele>
        <time>2012-03-09T19:48:03Z</time>
      </trkpt>
      <trkpt lat="52.16446910" lon="9.111719100">
        <ele>101.30000</ele>
        <time>2012-03-09T19:48:03Z</time>
      </trkpt>
      <trkpt lat="52.16446910" lon="9.111719040">
        <ele>101.30000</ele>
        <time>2012-03-09T19:48:03Z</time>
      </trkpt>
      <trkpt lat="52.16446950" lon="9.111718660">
        <ele>101.40000</ele>
        <time>2012-03-09T19:48:03Z</time>
      </trkpt>
      <trkpt lat="52.16446980" lon="9.111718480">
        <ele>101.30000</ele>
        <time>2012-03-09T19:48:03Z</time>
      </trkpt>
      <trkpt lat="52.16447000" lon="9.111718300">
        <ele>101.40000</ele>
        <time>2012-03-09T19:48:03Z</time>
      </trkpt>
      <trkpt lat="52.16446980" lon="9.111718280">
        <ele>101.40000</ele>
        <time>2012-03-09T19:48:03Z</time>
      </trkpt>
      <trkpt lat="52.16446960" lon="9.111718520">
        <ele>101.40000</ele>
        <time>2012-03-09T19:48:03Z</time>
      </trkpt>
      <trkpt lat="52.16446970" lon="9.111718180">
        <ele>101.40000</ele>
        <time>2012-03-09T19:48:03Z</time>
      </trkpt>
      <trkpt lat="52.16446970" lon="9.111718550">
        <ele>101.50000</ele>
        <time>2012-03-09T19:48:03Z</time>
      </trkpt>
      <trkpt lat="52.16446910" lon="9.111718820">
        <ele>101.70000</ele>
        <time>2012-03-09T19:48:03Z</time>
      </trkpt>
      <trkpt lat="52.16446910" lon="9.111718830">
        <ele>101.70000</ele>
        <time>2012-03-09T19:48:03Z</time>
      </trkpt>
      <trkpt lat="52.16446930" lon="9.111718270">
        <ele>101.80000</ele>
        <time>2012-03-09T19:48:03Z</time>
      </trkpt>
      <trkpt lat="52.16446910" lon="9.111717540">
        <ele>101.70000</ele>
        <time>2012-03-09T19:48:03Z</time>
      </trkpt>
      <trkpt lat="52.16446900" lon="9.111716600">
        <ele>101.70000</ele>
        <time>2012-03-09T19:48:03Z</time>
      </trkpt>
      <trkpt lat="52.16446880" lon="9.111715810">
        <ele>101.70000</ele>
        <time>2012-03-09T19:48:03Z</time>
      </trkpt>
      <trkpt lat="52.16446910" lon="9.111715430">
        <ele>101.70000</ele>
        <time>2012-03-09T19:48:03Z</time>
      </trkpt>
      <trkpt lat="52.16446930" lon="9.111715010">
        <ele>101.60000</ele>
        <time>2012-03-09T19:48:03Z</time>
      </trkpt>
      <trkpt lat="52.16446930" lon="9.111714640">
        <ele>101.60000</ele>
        <time>2012-03-09T19:48:03Z</time>
      </trkpt>
      <trkpt lat="52.16446940" lon="9.111714210">
        <ele>101.50000</ele>
        <time>2012-03-09T19:48:03Z</time>
      </trkpt>
      <trkpt lat="52.16446920" lon="9.111713260">
        <ele>101.50000</ele>
        <time>2012-03-09T19:48:03Z</time>
      </trkpt>
      <trkpt lat="52.16446890" lon="9.111712360">
        <ele>101.50000</ele>
        <time>2012-03-09T19:48:03Z</time>
      </trkpt>
      <trkpt lat="52.16446900" lon="9.111712010">
        <ele>101.50000</ele>
        <time>2012-03-09T19:48:03Z</time>
      </trkpt>
      <trkpt lat="52.16446900" lon="9.111711630">
        <ele>101.60000</ele>
        <time>2012-03-09T19:48:03Z</time>
      </trkpt>
      <trkpt lat="52.16446870" lon="9.111711410">
        <ele>101.70000</ele>
        <time>2012-03-09T19:48:03Z</time>
      </trkpt>
      <trkpt lat="52.16446810" lon="9.111711170">
        <ele>101.70000</ele>
        <time>2012-03-09T19:48:03Z</time>
      </trkpt>
      <trkpt lat="52.16446810" lon="9.111711000">
        <ele>101.70000</ele>
        <time>2012-03-09T19:48:03Z</time>
      </trkpt>
      <trkpt lat="52.16446820" lon="9.111710760">
        <ele>101.80000</ele>
        <time>2012-03-09T19:48:03Z</time>
      </trkpt>
      <trkpt lat="52.16446810" lon="9.111710190">
        <ele>101.80000</ele>
        <time>2012-03-09T19:48:03Z</time>
      </trkpt>
      <trkpt lat="52.16446810" lon="9.111709840">
        <ele>101.80000</ele>
        <time>2012-03-09T19:48:03Z</time>
      </trkpt>
      <trkpt lat="52.16446790" lon="9.111709310">
        <ele>101.80000</ele>
        <time>2012-03-09T19:48:03Z</time>
      </trkpt>
      <trkpt lat="52.16446800" lon="9.111709010">
        <ele>101.80000</ele>
        <time>2012-03-09T19:48:03Z</time>
      </trkpt>
      <trkpt lat="52.16446810" lon="9.111708760">
        <ele>101.80000</ele>
        <time>2012-03-09T19:48:03Z</time>
      </trkpt>
      <trkpt lat="52.16446830" lon="9.111708870">
        <ele>101.90000</ele>
        <time>2012-03-09T19:48:03Z</time>
      </trkpt>
      <trkpt lat="52.16446840" lon="9.111708800">
        <ele>101.90000</ele>
        <time>2012-03-09T19:48:03Z</time>
      </trkpt>
      <trkpt lat="52.16446840" lon="9.111708580">
        <ele>101.90000</ele>
        <time>2012-03-09T19:48:03Z</time>
      </trkpt>
      <trkpt lat="52.16446880" lon="9.111708560">
        <ele>101.90000</ele>
        <time>2012-03-09T19:48:03Z</time>
      </trkpt>
      <trkpt lat="52.16446900" lon="9.111708480">
        <ele>102.00000</ele>
        <time>2012-03-09T19:48:03Z</time>
      </trkpt>
      <trkpt lat="52.16446910" lon="9.111708200">
        <ele>102.00000</ele>
        <time>2012-03-09T19:48:03Z</time>
      </trkpt>
      <trkpt lat="52.16446950" lon="9.111708310">
        <ele>102.10000</ele>
        <time>2012-03-09T19:48:03Z</time>
      </trkpt>
      <trkpt lat="52.16446970" lon="9.111708280">
        <ele>102.10000</ele>
        <time>2012-03-09T19:48:03Z</time>
      </trkpt>
      <trkpt lat="52.16446960" lon="9.111708050">
        <ele>102.10000</ele>
        <time>2012-03-09T19:48:03Z</time>
      </trkpt>
      <trkpt lat="52.16446980" lon="9.111707900">
        <ele>102.20000</ele>
        <time>2012-03-09T19:48:03Z</time>
      </trkpt>
      <trkpt lat="52.16447010" lon="9.111707930">
        <ele>102.20000</ele>
        <time>2012-03-09T19:48:03Z</time>
      </trkpt>
      <trkpt lat="52.16447010" lon="9.111707970">
        <ele>102.20000</ele>
        <time>2012-03-09T19:48:03Z</time>
      </trkpt>
      <trkpt lat="52.16447030" lon="9.111706720">
        <ele>102.20000</ele>
        <time>2012-03-09T19:48:03Z</time>
      </trkpt>
      <trkpt lat="52.16447050" lon="9.111705960">
        <ele>102.30000</ele>
        <time>2012-03-09T19:48:03Z</time>
      </trkpt>
      <trkpt lat="52.16447060" lon="9.111705560">
        <ele>102.30000</ele>
        <time>2012-03-09T19:48:03Z</time>
      </trkpt>
      <trkpt lat="52.16447050" lon="9.111705290">
        <ele>102.30000</ele>
        <time>2012-03-09T19:48:03Z</time>
      </trkpt>
      <trkpt lat="52.16447060" lon="9.111705300">
        <ele>102.30000</ele>
        <time>2012-03-09T19:48:03Z</time>
      </trkpt>
      <trkpt lat="52.16447080" lon="9.111705260">
        <ele>102.30000</ele>
        <time>2012-03-09T19:48:03Z</time>
      </trkpt>
      <trkpt lat="52.16447090" lon="9.111705040">
        <ele>102.30000</ele>
        <time>2012-03-09T19:48:03Z</time>
      </trkpt>
      <trkpt lat="52.16447080" lon="9.111704620">
        <ele>102.40000</ele>
        <time>2012-03-09T19:48:03Z</time>
      </trkpt>
      <trkpt lat="52.16447090" lon="9.111704190">
        <ele>102.40000</ele>
        <time>2012-03-09T19:48:03Z</time>
      </trkpt>
      <trkpt lat="52.16447090" lon="9.111703940">
        <ele>102.40000</ele>
        <time>2012-03-09T19:48:03Z</time>
      </trkpt>
      <trkpt lat="52.16447100" lon="9.111703550">
        <ele>102.50000</ele>
        <time>2012-03-09T19:48:03Z</time>
      </trkpt>
      <trkpt lat="52.16447100" lon="9.111703110">
        <ele>102.50000</ele>
        <time>2012-03-09T19:48:03Z</time>
      </trkpt>
      <trkpt lat="52.16447100" lon="9.111702770">
        <ele>102.50000</ele>
        <time>2012-03-09T19:48:03Z</time>
      </trkpt>
      <trkpt lat="52.16447110" lon="9.111702370">
        <ele>102.50000</ele>
        <time>2012-03-09T19:48:03Z</time>
      </trkpt>
      <trkpt lat="52.16447130" lon="9.111702040">
        <ele>102.60000</ele>
        <time>2012-03-09T19:48:03Z</time>
      </trkpt>
      <trkpt lat="52.16447140" lon="9.111701700">
        <ele>102.60000</ele>
        <time>2012-03-09T19:48:03Z</time>
      </trkpt>
      <trkpt lat="52.16447150" lon="9.111701390">
        <ele>102.70000</ele>
        <time>2012-03-09T19:48:03Z</time>
      </trkpt>
      <trkpt lat="52.16447160" lon="9.111701350">
        <ele>102.70000</ele>
        <time>2012-03-09T19:48:03Z</time>
      </trkpt>
      <trkpt lat="52.16447160" lon="9.111701130">
        <ele>102.70000</ele>
        <time>2012-03-09T19:48:03Z</time>
      </trkpt>
      <trkpt lat="52.16447180" lon="9.111701020">
        <ele>102.70000</ele>
        <time>2012-03-09T19:48:03Z</time>
      </trkpt>
      <trkpt lat="52.16447170" lon="9.111700940">
        <ele>102.70000</ele>
        <time>2012-03-09T19:48:03Z</time>
      </trkpt>
      <trkpt lat="52.16447180" lon="9.111700710">
        <ele>102.70000</ele>
        <time>2012-03-09T19:48:03Z</time>
      </trkpt>
      <trkpt lat="52.16447180" lon="9.111700260">
        <ele>102.70000</ele>
        <time>2012-03-09T19:48:03Z</time>
      </trkpt>
      <trkpt lat="52.16447190" lon="9.111700150">
        <ele>102.80000</ele>
        <time>2012-03-09T19:48:03Z</time>
      </trkpt>
      <trkpt lat="52.16447200" lon="9.111699970">
        <ele>102.80000</ele>
        <time>2012-03-09T19:48:03Z</time>
      </trkpt>
      <trkpt lat="52.16447210" lon="9.111699700">
        <ele>102.80000</ele>
        <time>2012-03-09T19:48:03Z</time>
      </trkpt>
      <trkpt lat="52.16447200" lon="9.111699280">
        <ele>102.80000</ele>
        <time>2012-03-09T19:48:03Z</time>
      </trkpt>
      <trkpt lat="52.16447190" lon="9.111698900">
        <ele>102.90000</ele>
        <time>2012-03-09T19:48:03Z</time>
      </trkpt>
      <trkpt lat="52.16447180" lon="9.111698570">
        <ele>102.90000</ele>
        <time>2012-03-09T19:48:03Z</time>
      </trkpt>
      <trkpt lat="52.16447180" lon="9.111698480">
        <ele>102.90000</ele>
        <time>2012-03-09T19:48:04Z</time>
      </trkpt>
      <trkpt lat="52.16447200" lon="9.111698360">
        <ele>102.90000</ele>
        <time>2012-03-09T19:48:04Z</time>
      </trkpt>
      <trkpt lat="52.16447210" lon="9.111698030">
        <ele>102.90000</ele>
        <time>2012-03-09T19:48:04Z</time>
      </trkpt>
      <trkpt lat="52.16447210" lon="9.111697950">
        <ele>102.90000</ele>
        <time>2012-03-09T19:48:04Z</time>
      </trkpt>
      <trkpt lat="52.16447200" lon="9.111697780">
        <ele>102.90000</ele>
        <time>2012-03-09T19:48:04Z</time>
      </trkpt>
      <trkpt lat="52.16447180" lon="9.111697690">
        <ele>102.90000</ele>
        <time>2012-03-09T19:48:04Z</time>
      </trkpt>
      <trkpt lat="52.16447190" lon="9.111697430">
        <ele>102.90000</ele>
        <time>2012-03-09T19:48:04Z</time>
      </trkpt>
      <trkpt lat="52.16447200" lon="9.111697070">
        <ele>102.90000</ele>
        <time>2012-03-09T19:48:04Z</time>
      </trkpt>
      <trkpt lat="52.16447210" lon="9.111696890">
        <ele>102.90000</ele>
        <time>2012-03-09T19:48:04Z</time>
      </trkpt>
      <trkpt lat="52.16447230" lon="9.111696610">
        <ele>102.90000</ele>
        <time>2012-03-09T19:48:04Z</time>
      </trkpt>
      <trkpt lat="52.16447230" lon="9.111696300">
        <ele>102.90000</ele>
        <time>2012-03-09T19:48:04Z</time>
      </trkpt>
      <trkpt lat="52.16447220" lon="9.111696260">
        <ele>102.90000</ele>
        <time>2012-03-09T19:48:04Z</time>
      </trkpt>
      <trkpt lat="52.16447200" lon="9.111695980">
        <ele>102.90000</ele>
        <time>2012-03-09T19:48:04Z</time>
      </trkpt>
      <trkpt lat="52.16447200" lon="9.111695640">
        <ele>102.90000</ele>
        <time>2012-03-09T19:48:04Z</time>
      </trkpt>
      <trkpt lat="52.16447190" lon="9.111695440">
        <ele>102.90000</ele>
        <time>2012-03-09T19:48:04Z</time>
      </trkpt>
      <trkpt lat="52.16447190" lon="9.111695400">
        <ele>102.90000</ele>
        <time>2012-03-09T19:48:04Z</time>
      </trkpt>
      <trkpt lat="52.16447190" lon="9.111695160">
        <ele>103.00000</ele>
        <time>2012-03-09T19:48:04Z</time>
      </trkpt>
      <trkpt lat="52.16447200" lon="9.111694950">
        <ele>103.00000</ele>
        <time>2012-03-09T19:48:04Z</time>
      </trkpt>
      <trkpt lat="52.16447190" lon="9.111695020">
        <ele>103.00000</ele>
        <time>2012-03-09T19:48:04Z</time>
      </trkpt>
      <trkpt lat="52.16447200" lon="9.111695110">
        <ele>103.00000</ele>
        <time>2012-03-09T19:48:04Z</time>
      </trkpt>
      <trkpt lat="52.16447220" lon="9.111695170">
        <ele>103.00000</ele>
        <time>2012-03-09T19:48:04Z</time>
      </trkpt>
      <trkpt lat="52.16447220" lon="9.111695320">
        <ele>103.10000</ele>
        <time>2012-03-09T19:48:04Z</time>
      </trkpt>
      <trkpt lat="52.16447230" lon="9.111695360">
        <ele>103.10000</ele>
        <time>2012-03-09T19:48:04Z</time>
      </trkpt>
      <trkpt lat="52.16447210" lon="9.111695550">
        <ele>103.10000</ele>
        <time>2012-03-09T19:48:04Z</time>
      </trkpt>
      <trkpt lat="52.16447200" lon="9.111695510">
        <ele>103.10000</ele>
        <time>2012-03-09T19:48:04Z</time>
      </trkpt>
      <trkpt lat="52.16447190" lon="9.111695420">
        <ele>103.10000</ele>
        <time>2012-03-09T19:48:04Z</time>
      </trkpt>
      <trkpt lat="52.16447170" lon="9.111695310">
        <ele>103.10000</ele>
        <time>2012-03-09T19:48:04Z</time>
      </trkpt>
      <trkpt lat="52.16447160" lon="9.111695230">
        <ele>103.10000</ele>
        <time>2012-03-09T19:48:04Z</time>
      </trkpt>
      <trkpt lat="52.16447170" lon="9.111695360">
        <ele>103.10000</ele>
        <time>2012-03-09T19:48:04Z</time>
      </trkpt>
      <trkpt lat="52.16447170" lon="9.111695210">
        <ele>103.20000</ele>
        <time>2012-03-09T19:48:04Z</time>
      </trkpt>
      <trkpt lat="52.16447170" lon="9.111695100">
        <ele>103.20000</ele>
        <time>2012-03-09T19:48:04Z</time>
      </trkpt>
      <trkpt lat="52.16447180" lon="9.111695040">
        <ele>103.20000</ele>
        <time>2012-03-09T19:48:04Z</time>
      </trkpt>
      <trkpt lat="52.16447190" lon="9.111694820">
        <ele>103.20000</ele>
        <time>2012-03-09T19:48:04Z</time>
      </trkpt>
      <trkpt lat="52.16447180" lon="9.111694360">
        <ele>103.20000</ele>
        <time>2012-03-09T19:48:04Z</time>
      </trkpt>
      <trkpt lat="52.16447210" lon="9.111694260">
        <ele>103.20000</ele>
        <time>2012-03-09T19:48:04Z</time>
      </trkpt>
      <trkpt lat="52.16447220" lon="9.111698460">
        <ele>103.00000</ele>
        <time>2012-03-09T19:48:04Z</time>
      </trkpt>
      <trkpt lat="52.16465040" lon="9.111962860">
        <ele>106.30000</ele>
        <time>2012-03-09T19:48:13Z</time>
      </trkpt>
      <trkpt lat="52.16452830" lon="9.112128790">
        <ele>107.10000</ele>
        <time>2012-03-09T19:48:20Z</time>
      </trkpt>
      <trkpt lat="52.16450400" lon="9.112252180">
        <ele>103.50000</ele>
        <time>2012-03-09T19:48:23Z</time>
      </trkpt>
      <trkpt lat="52.16448410" lon="9.112367430">
        <ele>102.80000</ele>
        <time>2012-03-09T19:48:26Z</time>
      </trkpt>
      <trkpt lat="52.16433330" lon="9.112620170">
        <ele>102.10000</ele>
        <time>2012-03-09T19:48:34Z</time>
      </trkpt>
      <trkpt lat="52.16430820" lon="9.112716800">
        <ele>96.800000</ele>
        <time>2012-03-09T19:48:37Z</time>
      </trkpt>
      <trkpt lat="52.16427680" lon="9.112882060">
        <ele>95.400010</ele>
        <time>2012-03-09T19:48:41Z</time>
      </trkpt>
      <trkpt lat="52.16422430" lon="9.113048110">
        <ele>97.400010</ele>
        <time>2012-03-09T19:48:46Z</time>
      </trkpt>
      <trkpt lat="52.16420580" lon="9.113172430">
        <ele>97.100010</ele>
        <time>2012-03-09T19:48:49Z</time>
      </trkpt>
      <trkpt lat="52.16419770" lon="9.113324380">
        <ele>98.600010</ele>
        <time>2012-03-09T19:48:53Z</time>
      </trkpt>
      <trkpt lat="52.16426330" lon="9.113382610">
        <ele>103.30000</ele>
        <time>2012-03-09T19:48:56Z</time>
      </trkpt>
      <trkpt lat="52.16427090" lon="9.113374810">
        <ele>106.80000</ele>
        <time>2012-03-09T19:48:56Z</time>
      </trkpt>
      <trkpt lat="52.16426840" lon="9.113361090">
        <ele>106.70000</ele>
        <time>2012-03-09T19:48:56Z</time>
      </trkpt>
      <trkpt lat="52.16426570" lon="9.113356490">
        <ele>107.30000</ele>
        <time>2012-03-09T19:48:57Z</time>
      </trkpt>
      <trkpt lat="52.16426620" lon="9.113356810">
        <ele>107.30000</ele>
        <time>2012-03-09T19:48:57Z</time>
      </trkpt>
    </trkseg>
  </trk>
</gpx>

